<?xml version="1.0" encoding="UTF-8" standalone="no" ?>
<gpx xmlns="http://www.topografix.com/GPX/1/1" xmlns:xsi="http://www.w3.org/2001/XMLSchema-instance" xsi:schemaLocation="http://www.topografix.com/GPX/1/1 http://www.topografix.com/GPX/1/1/gpx.xsd" version="1.1" creator="VisuGPX - https://www.visugpx.com">
  <metadata>
    <name>Parcours du pas de Peyrol par le Falgoux</name>
    <desc><![CDATA[Parcours du Puy Mary au départ de condat , 95km 1600m dev+]]></desc>
  </metadata>
  <trk>
    <name><![CDATA[Parcours du pas de Peyrol par le Falgoux]]></name>
    <trkseg>
      <trkpt lat="45.3386" lon="2.76182">
        <ele>707.64440917969</ele>
        <time>2020-08-24T09:14:28.000Z</time>
      </trkpt>
      <trkpt lat="45.3386" lon="2.76182">
        <ele>707.64331054688</ele>
        <time>2020-08-24T09:14:28.000Z</time>
      </trkpt>
      <trkpt lat="45.33847" lon="2.76189">
        <ele>706.78137207031</ele>
        <time>2020-08-24T09:14:28.002Z</time>
      </trkpt>
      <trkpt lat="45.33847" lon="2.76189">
        <ele>706.78082275391</ele>
        <time>2020-08-24T09:14:28.004Z</time>
      </trkpt>
      <trkpt lat="45.33847" lon="2.76201">
        <ele>706.63977050781</ele>
        <time>2020-08-24T09:14:28.008Z</time>
      </trkpt>
      <trkpt lat="45.33847" lon="2.76201">
        <ele>706.63922119141</ele>
        <time>2020-08-24T09:14:28.012Z</time>
      </trkpt>
      <trkpt lat="45.3385" lon="2.76206">
        <ele>706.70361328125</ele>
        <time>2020-08-24T09:14:28.016Z</time>
      </trkpt>
      <trkpt lat="45.33838" lon="2.76217">
        <ele>705.93609619141</ele>
        <time>2020-08-24T09:14:28.023Z</time>
      </trkpt>
      <trkpt lat="45.33838" lon="2.76217">
        <ele>705.93572998047</ele>
        <time>2020-08-24T09:14:28.030Z</time>
      </trkpt>
      <trkpt lat="45.33816" lon="2.76247">
        <ele>704.90594482422</ele>
        <time>2020-08-24T09:14:28.041Z</time>
      </trkpt>
      <trkpt lat="45.33812" lon="2.76251">
        <ele>704.69995117188</ele>
        <time>2020-08-24T09:14:28.053Z</time>
      </trkpt>
      <trkpt lat="45.33808" lon="2.76257">
        <ele>704.49438476562</ele>
        <time>2020-08-24T09:14:28.066Z</time>
      </trkpt>
      <trkpt lat="45.33784" lon="2.76257">
        <ele>705.07366943359</ele>
        <time>2020-08-24T09:14:28.083Z</time>
      </trkpt>
      <trkpt lat="45.33743" lon="2.76226">
        <ele>705.82745361328</ele>
        <time>2020-08-24T09:14:28.107Z</time>
      </trkpt>
      <trkpt lat="45.33709" lon="2.76199">
        <ele>707.03656005859</ele>
        <time>2020-08-24T09:14:28.138Z</time>
      </trkpt>
      <trkpt lat="45.33699" lon="2.76183">
        <ele>707.84747314453</ele>
        <time>2020-08-24T09:14:28.171Z</time>
      </trkpt>
      <trkpt lat="45.33682" lon="2.76105">
        <ele>704.69775390625</ele>
        <time>2020-08-24T09:14:28.213Z</time>
      </trkpt>
      <trkpt lat="45.33641" lon="2.76056">
        <ele>704.58355712891</ele>
        <time>2020-08-24T09:14:28.264Z</time>
      </trkpt>
      <trkpt lat="45.33621" lon="2.76053">
        <ele>706.47735595703</ele>
        <time>2020-08-24T09:14:28.318Z</time>
      </trkpt>
      <trkpt lat="45.33612" lon="2.76051">
        <ele>707.53289794922</ele>
        <time>2020-08-24T09:14:28.373Z</time>
      </trkpt>
      <trkpt lat="45.33589" lon="2.76045">
        <ele>710.48187255859</ele>
        <time>2020-08-24T09:14:28.432Z</time>
      </trkpt>
      <trkpt lat="45.3352" lon="2.76009">
        <ele>714.04089355469</ele>
        <time>2020-08-24T09:14:28.503Z</time>
      </trkpt>
      <trkpt lat="45.33513" lon="2.76005">
        <ele>713.86090087891</ele>
        <time>2020-08-24T09:14:28.575Z</time>
      </trkpt>
      <trkpt lat="45.33506" lon="2.76">
        <ele>713.74987792969</ele>
        <time>2020-08-24T09:14:28.648Z</time>
      </trkpt>
      <trkpt lat="45.33421" lon="2.75952">
        <ele>712.88745117188</ele>
        <time>2020-08-24T09:14:28.736Z</time>
      </trkpt>
      <trkpt lat="45.33395" lon="2.75921">
        <ele>711.66461181641</ele>
        <time>2020-08-24T09:14:28.830Z</time>
      </trkpt>
      <trkpt lat="45.33387" lon="2.75903">
        <ele>710.96929931641</ele>
        <time>2020-08-24T09:14:28.926Z</time>
      </trkpt>
      <trkpt lat="45.33387" lon="2.75903">
        <ele>710.96948242188</ele>
        <time>2020-08-24T09:14:29.022Z</time>
      </trkpt>
      <trkpt lat="45.33377" lon="2.75862">
        <ele>709.32092285156</ele>
        <time>2020-08-24T09:14:29.123Z</time>
      </trkpt>
      <trkpt lat="45.33369" lon="2.75794">
        <ele>708.32843017578</ele>
        <time>2020-08-24T09:14:29.232Z</time>
      </trkpt>
      <trkpt lat="45.33324" lon="2.75422">
        <ele>704.04907226562</ele>
        <time>2020-08-24T09:14:29.383Z</time>
      </trkpt>
      <trkpt lat="45.33323" lon="2.75412">
        <ele>703.76214599609</ele>
        <time>2020-08-24T09:14:29.535Z</time>
      </trkpt>
      <trkpt lat="45.33317" lon="2.75364">
        <ele>701.83184814453</ele>
        <time>2020-08-24T09:14:29.693Z</time>
      </trkpt>
      <trkpt lat="45.33312" lon="2.75283">
        <ele>709.55682373047</ele>
        <time>2020-08-24T09:14:29.860Z</time>
      </trkpt>
      <trkpt lat="45.33321" lon="2.75263">
        <ele>709.40728759766</ele>
        <time>2020-08-24T09:14:30.030Z</time>
      </trkpt>
      <trkpt lat="45.3336" lon="2.75217">
        <ele>705.01843261719</ele>
        <time>2020-08-24T09:14:30.208Z</time>
      </trkpt>
      <trkpt lat="45.33384" lon="2.75164">
        <ele>701.81585693359</ele>
        <time>2020-08-24T09:14:30.393Z</time>
      </trkpt>
      <trkpt lat="45.33386" lon="2.75093">
        <ele>702.47857666016</ele>
        <time>2020-08-24T09:14:30.586Z</time>
      </trkpt>
      <trkpt lat="45.33377" lon="2.74978">
        <ele>707.33441162109</ele>
        <time>2020-08-24T09:14:30.792Z</time>
      </trkpt>
      <trkpt lat="45.33376" lon="2.74902">
        <ele>713.51885986328</ele>
        <time>2020-08-24T09:14:31.007Z</time>
      </trkpt>
      <trkpt lat="45.33401" lon="2.74657">
        <ele>723.82397460938</ele>
        <time>2020-08-24T09:14:31.249Z</time>
      </trkpt>
      <trkpt lat="45.33421" lon="2.74579">
        <ele>730.43188476562</ele>
        <time>2020-08-24T09:14:31.501Z</time>
      </trkpt>
      <trkpt lat="45.33421" lon="2.74579">
        <ele>730.43420410156</ele>
        <time>2020-08-24T09:14:31.753Z</time>
      </trkpt>
      <trkpt lat="45.3347" lon="2.74466">
        <ele>739.84466552734</ele>
        <time>2020-08-24T09:14:32.020Z</time>
      </trkpt>
      <trkpt lat="45.33549" lon="2.74346">
        <ele>745.90600585938</ele>
        <time>2020-08-24T09:14:32.305Z</time>
      </trkpt>
      <trkpt lat="45.33602" lon="2.74222">
        <ele>736.70068359375</ele>
        <time>2020-08-24T09:14:32.607Z</time>
      </trkpt>
      <trkpt lat="45.33609" lon="2.7416">
        <ele>734.30847167969</ele>
        <time>2020-08-24T09:14:32.916Z</time>
      </trkpt>
      <trkpt lat="45.33598" lon="2.74053">
        <ele>749.14477539062</ele>
        <time>2020-08-24T09:14:33.237Z</time>
      </trkpt>
      <trkpt lat="45.33622" lon="2.73937">
        <ele>764.90441894531</ele>
        <time>2020-08-24T09:14:33.572Z</time>
      </trkpt>
      <trkpt lat="45.33645" lon="2.73884">
        <ele>771.22479248047</ele>
        <time>2020-08-24T09:14:33.914Z</time>
      </trkpt>
      <trkpt lat="45.33715" lon="2.73785">
        <ele>772.25280761719</ele>
        <time>2020-08-24T09:14:34.272Z</time>
      </trkpt>
      <trkpt lat="45.33753" lon="2.73746">
        <ele>775.21978759766</ele>
        <time>2020-08-24T09:14:34.637Z</time>
      </trkpt>
      <trkpt lat="45.3381" lon="2.73708">
        <ele>774.05151367188</ele>
        <time>2020-08-24T09:14:35.012Z</time>
      </trkpt>
      <trkpt lat="45.33839" lon="2.73674">
        <ele>768.12939453125</ele>
        <time>2020-08-24T09:14:35.393Z</time>
      </trkpt>
      <trkpt lat="45.33846" lon="2.73653">
        <ele>766.59747314453</ele>
        <time>2020-08-24T09:14:35.777Z</time>
      </trkpt>
      <trkpt lat="45.33847" lon="2.73626">
        <ele>768.47833251953</ele>
        <time>2020-08-24T09:14:36.164Z</time>
      </trkpt>
      <trkpt lat="45.33847" lon="2.73626">
        <ele>768.48217773438</ele>
        <time>2020-08-24T09:14:36.551Z</time>
      </trkpt>
      <trkpt lat="45.3384" lon="2.73598">
        <ele>774.58374023438</ele>
        <time>2020-08-24T09:14:36.941Z</time>
      </trkpt>
      <trkpt lat="45.33803" lon="2.73525">
        <ele>788.54235839844</ele>
        <time>2020-08-24T09:14:37.341Z</time>
      </trkpt>
      <trkpt lat="45.33792" lon="2.73472">
        <ele>791.32214355469</ele>
        <time>2020-08-24T09:14:37.748Z</time>
      </trkpt>
      <trkpt lat="45.33802" lon="2.73413">
        <ele>789.75335693359</ele>
        <time>2020-08-24T09:14:38.161Z</time>
      </trkpt>
      <trkpt lat="45.3386" lon="2.73311">
        <ele>790.77551269531</ele>
        <time>2020-08-24T09:14:38.589Z</time>
      </trkpt>
      <trkpt lat="45.3386" lon="2.73311">
        <ele>790.77624511719</ele>
        <time>2020-08-24T09:14:39.017Z</time>
      </trkpt>
      <trkpt lat="45.33902" lon="2.73232">
        <ele>793.29730224609</ele>
        <time>2020-08-24T09:14:39.456Z</time>
      </trkpt>
      <trkpt lat="45.33927" lon="2.73086">
        <ele>804.646484375</ele>
        <time>2020-08-24T09:14:39.912Z</time>
      </trkpt>
      <trkpt lat="45.33984" lon="2.72861">
        <ele>820.98248291016</ele>
        <time>2020-08-24T09:14:40.395Z</time>
      </trkpt>
      <trkpt lat="45.33984" lon="2.72861">
        <ele>820.98419189453</ele>
        <time>2020-08-24T09:14:40.878Z</time>
      </trkpt>
      <trkpt lat="45.34022" lon="2.72785">
        <ele>829.05786132812</ele>
        <time>2020-08-24T09:14:41.372Z</time>
      </trkpt>
      <trkpt lat="45.34143" lon="2.72649">
        <ele>829.77960205078</ele>
        <time>2020-08-24T09:14:41.891Z</time>
      </trkpt>
      <trkpt lat="45.34197" lon="2.72558">
        <ele>838.5498046875</ele>
        <time>2020-08-24T09:14:42.423Z</time>
      </trkpt>
      <trkpt lat="45.34197" lon="2.72558">
        <ele>838.55291748047</ele>
        <time>2020-08-24T09:14:42.955Z</time>
      </trkpt>
      <trkpt lat="45.3427" lon="2.72494">
        <ele>839.66467285156</ele>
        <time>2020-08-24T09:14:43.501Z</time>
      </trkpt>
      <trkpt lat="45.34297" lon="2.72458">
        <ele>837.28216552734</ele>
        <time>2020-08-24T09:14:44.053Z</time>
      </trkpt>
      <trkpt lat="45.34329" lon="2.72392">
        <ele>834.49554443359</ele>
        <time>2020-08-24T09:14:44.614Z</time>
      </trkpt>
      <trkpt lat="45.34337" lon="2.72352">
        <ele>833.798828125</ele>
        <time>2020-08-24T09:14:45.179Z</time>
      </trkpt>
      <trkpt lat="45.34333" lon="2.72303">
        <ele>831.55407714844</ele>
        <time>2020-08-24T09:14:45.750Z</time>
      </trkpt>
      <trkpt lat="45.34322" lon="2.72271">
        <ele>833.18048095703</ele>
        <time>2020-08-24T09:14:46.325Z</time>
      </trkpt>
      <trkpt lat="45.34255" lon="2.72203">
        <ele>845.34881591797</ele>
        <time>2020-08-24T09:14:46.913Z</time>
      </trkpt>
      <trkpt lat="45.34228" lon="2.72156">
        <ele>847.25390625</ele>
        <time>2020-08-24T09:14:47.508Z</time>
      </trkpt>
      <trkpt lat="45.3422" lon="2.72094">
        <ele>843.34069824219</ele>
        <time>2020-08-24T09:14:48.110Z</time>
      </trkpt>
      <trkpt lat="45.34227" lon="2.72053">
        <ele>843.11328125</ele>
        <time>2020-08-24T09:14:48.717Z</time>
      </trkpt>
      <trkpt lat="45.34227" lon="2.72053">
        <ele>843.11492919922</ele>
        <time>2020-08-24T09:14:49.324Z</time>
      </trkpt>
      <trkpt lat="45.3425" lon="2.7201">
        <ele>841.19647216797</ele>
        <time>2020-08-24T09:14:49.937Z</time>
      </trkpt>
      <trkpt lat="45.34352" lon="2.7191">
        <ele>833.27575683594</ele>
        <time>2020-08-24T09:14:50.570Z</time>
      </trkpt>
      <trkpt lat="45.34387" lon="2.71855">
        <ele>827.95001220703</ele>
        <time>2020-08-24T09:14:51.211Z</time>
      </trkpt>
      <trkpt lat="45.34403" lon="2.71815">
        <ele>827.74926757812</ele>
        <time>2020-08-24T09:14:51.857Z</time>
      </trkpt>
      <trkpt lat="45.34501" lon="2.71461">
        <ele>819.14605712891</ele>
        <time>2020-08-24T09:14:52.546Z</time>
      </trkpt>
      <trkpt lat="45.34507" lon="2.71418">
        <ele>819.82269287109</ele>
        <time>2020-08-24T09:14:53.240Z</time>
      </trkpt>
      <trkpt lat="45.3451" lon="2.71377">
        <ele>820.40008544922</ele>
        <time>2020-08-24T09:14:53.939Z</time>
      </trkpt>
      <trkpt lat="45.34505" lon="2.71325">
        <ele>822.23889160156</ele>
        <time>2020-08-24T09:14:54.644Z</time>
      </trkpt>
      <trkpt lat="45.34429" lon="2.71039">
        <ele>827.39752197266</ele>
        <time>2020-08-24T09:14:55.383Z</time>
      </trkpt>
      <trkpt lat="45.34416" lon="2.70896">
        <ele>824.38751220703</ele>
        <time>2020-08-24T09:14:56.139Z</time>
      </trkpt>
      <trkpt lat="45.34424" lon="2.7076">
        <ele>820.02130126953</ele>
        <time>2020-08-24T09:14:56.910Z</time>
      </trkpt>
      <trkpt lat="45.34463" lon="2.70477">
        <ele>794.42388916016</ele>
        <time>2020-08-24T09:14:57.713Z</time>
      </trkpt>
      <trkpt lat="45.34486" lon="2.70426">
        <ele>803.08428955078</ele>
        <time>2020-08-24T09:14:58.523Z</time>
      </trkpt>
      <trkpt lat="45.34532" lon="2.7036">
        <ele>808.17248535156</ele>
        <time>2020-08-24T09:14:59.344Z</time>
      </trkpt>
      <trkpt lat="45.34584" lon="2.70326">
        <ele>806.8974609375</ele>
        <time>2020-08-24T09:15:00.174Z</time>
      </trkpt>
      <trkpt lat="45.34628" lon="2.70316">
        <ele>799.60083007812</ele>
        <time>2020-08-24T09:15:01.011Z</time>
      </trkpt>
      <trkpt lat="45.34652" lon="2.70301">
        <ele>797.74969482422</ele>
        <time>2020-08-24T09:15:01.852Z</time>
      </trkpt>
      <trkpt lat="45.34682" lon="2.70251">
        <ele>797.51080322266</ele>
        <time>2020-08-24T09:15:02.701Z</time>
      </trkpt>
      <trkpt lat="45.34691" lon="2.70198">
        <ele>796.25524902344</ele>
        <time>2020-08-24T09:15:03.556Z</time>
      </trkpt>
      <trkpt lat="45.34681" lon="2.70136">
        <ele>794.89300537109</ele>
        <time>2020-08-24T09:15:04.418Z</time>
      </trkpt>
      <trkpt lat="45.34645" lon="2.7007">
        <ele>794.99365234375</ele>
        <time>2020-08-24T09:15:05.290Z</time>
      </trkpt>
      <trkpt lat="45.34625" lon="2.70041">
        <ele>794.3271484375</ele>
        <time>2020-08-24T09:15:06.166Z</time>
      </trkpt>
      <trkpt lat="45.34558" lon="2.69986">
        <ele>797.69067382812</ele>
        <time>2020-08-24T09:15:07.054Z</time>
      </trkpt>
      <trkpt lat="45.34487" lon="2.69774">
        <ele>781.869140625</ele>
        <time>2020-08-24T09:15:07.969Z</time>
      </trkpt>
      <trkpt lat="45.34443" lon="2.69675">
        <ele>787.79132080078</ele>
        <time>2020-08-24T09:15:08.897Z</time>
      </trkpt>
      <trkpt lat="45.34413" lon="2.69621">
        <ele>786.79162597656</ele>
        <time>2020-08-24T09:15:09.833Z</time>
      </trkpt>
      <trkpt lat="45.34289" lon="2.69424">
        <ele>786.17736816406</ele>
        <time>2020-08-24T09:15:10.799Z</time>
      </trkpt>
      <trkpt lat="45.34238" lon="2.69335">
        <ele>786.6669921875</ele>
        <time>2020-08-24T09:15:11.778Z</time>
      </trkpt>
      <trkpt lat="45.3423" lon="2.69277">
        <ele>789.26721191406</ele>
        <time>2020-08-24T09:15:12.763Z</time>
      </trkpt>
      <trkpt lat="45.34245" lon="2.69214">
        <ele>796.13128662109</ele>
        <time>2020-08-24T09:15:13.756Z</time>
      </trkpt>
      <trkpt lat="45.3433" lon="2.69059">
        <ele>799.12054443359</ele>
        <time>2020-08-24T09:15:14.771Z</time>
      </trkpt>
      <trkpt lat="45.34428" lon="2.68924">
        <ele>789.05670166016</ele>
        <time>2020-08-24T09:15:15.808Z</time>
      </trkpt>
      <trkpt lat="45.34515" lon="2.68755">
        <ele>789.13055419922</ele>
        <time>2020-08-24T09:15:16.868Z</time>
      </trkpt>
      <trkpt lat="45.34513" lon="2.68711">
        <ele>797.82507324219</ele>
        <time>2020-08-24T09:15:17.933Z</time>
      </trkpt>
      <trkpt lat="45.34483" lon="2.68601">
        <ele>799.990234375</ele>
        <time>2020-08-24T09:15:19.012Z</time>
      </trkpt>
      <trkpt lat="45.34454" lon="2.68506">
        <ele>772.62493896484</ele>
        <time>2020-08-24T09:15:20.102Z</time>
      </trkpt>
      <trkpt lat="45.34413" lon="2.68418">
        <ele>759.16723632812</ele>
        <time>2020-08-24T09:15:21.204Z</time>
      </trkpt>
      <trkpt lat="45.34381" lon="2.68382">
        <ele>762.44470214844</ele>
        <time>2020-08-24T09:15:22.313Z</time>
      </trkpt>
      <trkpt lat="45.34294" lon="2.68217">
        <ele>751.59936523438</ele>
        <time>2020-08-24T09:15:23.445Z</time>
      </trkpt>
      <trkpt lat="45.34269" lon="2.68188">
        <ele>750.91711425781</ele>
        <time>2020-08-24T09:15:24.582Z</time>
      </trkpt>
      <trkpt lat="45.34233" lon="2.68179">
        <ele>757.71380615234</ele>
        <time>2020-08-24T09:15:25.725Z</time>
      </trkpt>
      <trkpt lat="45.34181" lon="2.68201">
        <ele>768.71112060547</ele>
        <time>2020-08-24T09:15:26.877Z</time>
      </trkpt>
      <trkpt lat="45.34102" lon="2.68251">
        <ele>778.99871826172</ele>
        <time>2020-08-24T09:15:28.043Z</time>
      </trkpt>
      <trkpt lat="45.34062" lon="2.68241">
        <ele>769.57611083984</ele>
        <time>2020-08-24T09:15:29.215Z</time>
      </trkpt>
      <trkpt lat="45.33992" lon="2.68196">
        <ele>752.17156982422</ele>
        <time>2020-08-24T09:15:30.399Z</time>
      </trkpt>
      <trkpt lat="45.33965" lon="2.6821">
        <ele>758.02209472656</ele>
        <time>2020-08-24T09:15:31.588Z</time>
      </trkpt>
      <trkpt lat="45.33946" lon="2.6824">
        <ele>766.60150146484</ele>
        <time>2020-08-24T09:15:32.781Z</time>
      </trkpt>
      <trkpt lat="45.33901" lon="2.6835">
        <ele>775.06799316406</ele>
        <time>2020-08-24T09:15:33.989Z</time>
      </trkpt>
      <trkpt lat="45.33798" lon="2.68398">
        <ele>781.64788818359</ele>
        <time>2020-08-24T09:15:35.214Z</time>
      </trkpt>
      <trkpt lat="45.33708" lon="2.68405">
        <ele>771.94360351562</ele>
        <time>2020-08-24T09:15:36.454Z</time>
      </trkpt>
      <trkpt lat="45.33504" lon="2.68515">
        <ele>773.29852294922</ele>
        <time>2020-08-24T09:15:37.728Z</time>
      </trkpt>
      <trkpt lat="45.33336" lon="2.68565">
        <ele>773.71240234375</ele>
        <time>2020-08-24T09:15:39.030Z</time>
      </trkpt>
      <trkpt lat="45.33277" lon="2.68592">
        <ele>771.42578125</ele>
        <time>2020-08-24T09:15:40.342Z</time>
      </trkpt>
      <trkpt lat="45.33247" lon="2.6863">
        <ele>778.01354980469</ele>
        <time>2020-08-24T09:15:41.660Z</time>
      </trkpt>
      <trkpt lat="45.33225" lon="2.68687">
        <ele>779.03076171875</ele>
        <time>2020-08-24T09:15:42.986Z</time>
      </trkpt>
      <trkpt lat="45.33174" lon="2.68741">
        <ele>775.26556396484</ele>
        <time>2020-08-24T09:15:44.322Z</time>
      </trkpt>
      <trkpt lat="45.33013" lon="2.68813">
        <ele>763.94989013672</ele>
        <time>2020-08-24T09:15:45.685Z</time>
      </trkpt>
      <trkpt lat="45.32965" lon="2.68814">
        <ele>760.57733154297</ele>
        <time>2020-08-24T09:15:47.055Z</time>
      </trkpt>
      <trkpt lat="45.3253" lon="2.68676">
        <ele>770.84844970703</ele>
        <time>2020-08-24T09:15:48.497Z</time>
      </trkpt>
      <trkpt lat="45.32517" lon="2.68672">
        <ele>770.84844970703</ele>
        <time>2020-08-24T09:15:49.941Z</time>
      </trkpt>
      <trkpt lat="45.32455" lon="2.6865">
        <ele>771.14251708984</ele>
        <time>2020-08-24T09:15:51.395Z</time>
      </trkpt>
      <trkpt lat="45.32323" lon="2.68549">
        <ele>771.27026367188</ele>
        <time>2020-08-24T09:15:52.873Z</time>
      </trkpt>
      <trkpt lat="45.31893" lon="2.68393">
        <ele>790.36151123047</ele>
        <time>2020-08-24T09:15:54.422Z</time>
      </trkpt>
      <trkpt lat="45.31852" lon="2.68386">
        <ele>791.90014648438</ele>
        <time>2020-08-24T09:15:55.978Z</time>
      </trkpt>
      <trkpt lat="45.31802" lon="2.68414">
        <ele>791.28955078125</ele>
        <time>2020-08-24T09:15:57.542Z</time>
      </trkpt>
      <trkpt lat="45.31731" lon="2.68545">
        <ele>788.02160644531</ele>
        <time>2020-08-24T09:15:59.125Z</time>
      </trkpt>
      <trkpt lat="45.31706" lon="2.68581">
        <ele>785.30267333984</ele>
        <time>2020-08-24T09:16:00.714Z</time>
      </trkpt>
      <trkpt lat="45.31616" lon="2.68652">
        <ele>782.89739990234</ele>
        <time>2020-08-24T09:16:02.319Z</time>
      </trkpt>
      <trkpt lat="45.31558" lon="2.68695">
        <ele>783.77960205078</ele>
        <time>2020-08-24T09:16:03.935Z</time>
      </trkpt>
      <trkpt lat="45.31531" lon="2.68699">
        <ele>783.59515380859</ele>
        <time>2020-08-24T09:16:05.555Z</time>
      </trkpt>
      <trkpt lat="45.31505" lon="2.68691">
        <ele>781.02062988281</ele>
        <time>2020-08-24T09:16:07.179Z</time>
      </trkpt>
      <trkpt lat="45.31436" lon="2.68615">
        <ele>773.28747558594</ele>
        <time>2020-08-24T09:16:08.817Z</time>
      </trkpt>
      <trkpt lat="45.31342" lon="2.68511">
        <ele>764.24145507812</ele>
        <time>2020-08-24T09:16:10.474Z</time>
      </trkpt>
      <trkpt lat="45.31325" lon="2.68481">
        <ele>762.85119628906</ele>
        <time>2020-08-24T09:16:12.136Z</time>
      </trkpt>
      <trkpt lat="45.31299" lon="2.68419">
        <ele>761.37713623047</ele>
        <time>2020-08-24T09:16:13.806Z</time>
      </trkpt>
      <trkpt lat="45.31259" lon="2.68292">
        <ele>754.07421875</ele>
        <time>2020-08-24T09:16:15.492Z</time>
      </trkpt>
      <trkpt lat="45.31241" lon="2.68161">
        <ele>745.78186035156</ele>
        <time>2020-08-24T09:16:17.193Z</time>
      </trkpt>
      <trkpt lat="45.31241" lon="2.68161">
        <ele>745.78436279297</ele>
        <time>2020-08-24T09:16:18.894Z</time>
      </trkpt>
      <trkpt lat="45.3123" lon="2.68087">
        <ele>737.80096435547</ele>
        <time>2020-08-24T09:16:20.603Z</time>
      </trkpt>
      <trkpt lat="45.31203" lon="2.68005">
        <ele>732.69744873047</ele>
        <time>2020-08-24T09:16:22.322Z</time>
      </trkpt>
      <trkpt lat="45.31187" lon="2.67976">
        <ele>733.91149902344</ele>
        <time>2020-08-24T09:16:24.046Z</time>
      </trkpt>
      <trkpt lat="45.31186" lon="2.67973">
        <ele>734.06274414062</ele>
        <time>2020-08-24T09:16:25.770Z</time>
      </trkpt>
      <trkpt lat="45.31107" lon="2.67824">
        <ele>742.93103027344</ele>
        <time>2020-08-24T09:16:27.515Z</time>
      </trkpt>
      <trkpt lat="45.31097" lon="2.67786">
        <ele>748.78948974609</ele>
        <time>2020-08-24T09:16:29.265Z</time>
      </trkpt>
      <trkpt lat="45.31095" lon="2.67753">
        <ele>750.462890625</ele>
        <time>2020-08-24T09:16:31.018Z</time>
      </trkpt>
      <trkpt lat="45.31103" lon="2.67715">
        <ele>753.72888183594</ele>
        <time>2020-08-24T09:16:32.776Z</time>
      </trkpt>
      <trkpt lat="45.31128" lon="2.67663">
        <ele>752.46551513672</ele>
        <time>2020-08-24T09:16:34.541Z</time>
      </trkpt>
      <trkpt lat="45.31154" lon="2.6762">
        <ele>755.75360107422</ele>
        <time>2020-08-24T09:16:36.312Z</time>
      </trkpt>
      <trkpt lat="45.31231" lon="2.67539">
        <ele>754.55072021484</ele>
        <time>2020-08-24T09:16:38.099Z</time>
      </trkpt>
      <trkpt lat="45.31245" lon="2.67511">
        <ele>753.77160644531</ele>
        <time>2020-08-24T09:16:39.889Z</time>
      </trkpt>
      <trkpt lat="45.31293" lon="2.67251">
        <ele>761.00012207031</ele>
        <time>2020-08-24T09:16:41.710Z</time>
      </trkpt>
      <trkpt lat="45.31325" lon="2.67139">
        <ele>770.83038330078</ele>
        <time>2020-08-24T09:16:43.544Z</time>
      </trkpt>
      <trkpt lat="45.31362" lon="2.66966">
        <ele>751.88317871094</ele>
        <time>2020-08-24T09:16:45.399Z</time>
      </trkpt>
      <trkpt lat="45.31359" lon="2.66932">
        <ele>756.94201660156</ele>
        <time>2020-08-24T09:16:47.258Z</time>
      </trkpt>
      <trkpt lat="45.31341" lon="2.66906">
        <ele>765.95397949219</ele>
        <time>2020-08-24T09:16:49.121Z</time>
      </trkpt>
      <trkpt lat="45.3126" lon="2.66842">
        <ele>785.78649902344</ele>
        <time>2020-08-24T09:16:50.999Z</time>
      </trkpt>
      <trkpt lat="45.31153" lon="2.66743">
        <ele>788.77307128906</ele>
        <time>2020-08-24T09:16:52.897Z</time>
      </trkpt>
      <trkpt lat="45.31133" lon="2.66734">
        <ele>792.73773193359</ele>
        <time>2020-08-24T09:16:54.799Z</time>
      </trkpt>
      <trkpt lat="45.31102" lon="2.66733">
        <ele>793.65289306641</ele>
        <time>2020-08-24T09:16:56.706Z</time>
      </trkpt>
      <trkpt lat="45.3096" lon="2.66782">
        <ele>811.84490966797</ele>
        <time>2020-08-24T09:16:58.636Z</time>
      </trkpt>
      <trkpt lat="45.30915" lon="2.66785">
        <ele>815.39770507812</ele>
        <time>2020-08-24T09:17:00.573Z</time>
      </trkpt>
      <trkpt lat="45.30866" lon="2.66773">
        <ele>811.99572753906</ele>
        <time>2020-08-24T09:17:02.518Z</time>
      </trkpt>
      <trkpt lat="45.30763" lon="2.66727">
        <ele>808.9521484375</ele>
        <time>2020-08-24T09:17:04.480Z</time>
      </trkpt>
      <trkpt lat="45.30732" lon="2.66727">
        <ele>811.56530761719</ele>
        <time>2020-08-24T09:17:06.447Z</time>
      </trkpt>
      <trkpt lat="45.30695" lon="2.66753">
        <ele>818.22814941406</ele>
        <time>2020-08-24T09:17:08.421Z</time>
      </trkpt>
      <trkpt lat="45.30624" lon="2.66863">
        <ele>828.29718017578</ele>
        <time>2020-08-24T09:17:10.412Z</time>
      </trkpt>
      <trkpt lat="45.30576" lon="2.66915">
        <ele>832.73620605469</ele>
        <time>2020-08-24T09:17:12.412Z</time>
      </trkpt>
      <trkpt lat="45.30539" lon="2.66933">
        <ele>832.54870605469</ele>
        <time>2020-08-24T09:17:14.419Z</time>
      </trkpt>
      <trkpt lat="45.30435" lon="2.66935">
        <ele>830.75921630859</ele>
        <time>2020-08-24T09:17:16.442Z</time>
      </trkpt>
      <trkpt lat="45.30401" lon="2.6696">
        <ele>835.86633300781</ele>
        <time>2020-08-24T09:17:18.471Z</time>
      </trkpt>
      <trkpt lat="45.30372" lon="2.67016">
        <ele>842.07977294922</ele>
        <time>2020-08-24T09:17:20.508Z</time>
      </trkpt>
      <trkpt lat="45.30372" lon="2.67016">
        <ele>842.08142089844</ele>
        <time>2020-08-24T09:17:22.545Z</time>
      </trkpt>
      <trkpt lat="45.30325" lon="2.67135">
        <ele>849.39764404297</ele>
        <time>2020-08-24T09:17:24.598Z</time>
      </trkpt>
      <trkpt lat="45.30293" lon="2.67173">
        <ele>847.01770019531</ele>
        <time>2020-08-24T09:17:26.657Z</time>
      </trkpt>
      <trkpt lat="45.30118" lon="2.67237">
        <ele>845.48120117188</ele>
        <time>2020-08-24T09:17:28.745Z</time>
      </trkpt>
      <trkpt lat="45.30042" lon="2.67277">
        <ele>847.33453369141</ele>
        <time>2020-08-24T09:17:30.846Z</time>
      </trkpt>
      <trkpt lat="45.30042" lon="2.67277">
        <ele>847.3359375</ele>
        <time>2020-08-24T09:17:32.947Z</time>
      </trkpt>
      <trkpt lat="45.29927" lon="2.67328">
        <ele>851.30450439453</ele>
        <time>2020-08-24T09:17:35.068Z</time>
      </trkpt>
      <trkpt lat="45.29855" lon="2.673">
        <ele>844.79614257812</ele>
        <time>2020-08-24T09:17:37.200Z</time>
      </trkpt>
      <trkpt lat="45.29699" lon="2.67279">
        <ele>853.51348876953</ele>
        <time>2020-08-24T09:17:39.358Z</time>
      </trkpt>
      <trkpt lat="45.29603" lon="2.6722">
        <ele>840.89111328125</ele>
        <time>2020-08-24T09:17:41.532Z</time>
      </trkpt>
      <trkpt lat="45.29475" lon="2.67185">
        <ele>848.12298583984</ele>
        <time>2020-08-24T09:17:43.727Z</time>
      </trkpt>
      <trkpt lat="45.29475" lon="2.67185">
        <ele>848.12164306641</ele>
        <time>2020-08-24T09:17:45.922Z</time>
      </trkpt>
      <trkpt lat="45.29406" lon="2.67157">
        <ele>846.2578125</ele>
        <time>2020-08-24T09:17:48.129Z</time>
      </trkpt>
      <trkpt lat="45.29335" lon="2.67095">
        <ele>837.19744873047</ele>
        <time>2020-08-24T09:17:50.349Z</time>
      </trkpt>
      <trkpt lat="45.29306" lon="2.67082">
        <ele>840.54833984375</ele>
        <time>2020-08-24T09:17:52.574Z</time>
      </trkpt>
      <trkpt lat="45.29221" lon="2.67063">
        <ele>851.40875244141</ele>
        <time>2020-08-24T09:17:54.813Z</time>
      </trkpt>
      <trkpt lat="45.29051" lon="2.67027">
        <ele>845.57421875</ele>
        <time>2020-08-24T09:17:57.079Z</time>
      </trkpt>
      <trkpt lat="45.28994" lon="2.66979">
        <ele>839.34539794922</ele>
        <time>2020-08-24T09:17:59.356Z</time>
      </trkpt>
      <trkpt lat="45.2897" lon="2.66949">
        <ele>836.46197509766</ele>
        <time>2020-08-24T09:18:01.638Z</time>
      </trkpt>
      <trkpt lat="45.28941" lon="2.66931">
        <ele>836.61663818359</ele>
        <time>2020-08-24T09:18:03.925Z</time>
      </trkpt>
      <trkpt lat="45.28852" lon="2.66918">
        <ele>843.18347167969</ele>
        <time>2020-08-24T09:18:06.226Z</time>
      </trkpt>
      <trkpt lat="45.28812" lon="2.66905">
        <ele>843.08044433594</ele>
        <time>2020-08-24T09:18:08.534Z</time>
      </trkpt>
      <trkpt lat="45.2881" lon="2.66892">
        <ele>841.32983398438</ele>
        <time>2020-08-24T09:18:10.843Z</time>
      </trkpt>
      <trkpt lat="45.28798" lon="2.66885">
        <ele>840.96936035156</ele>
        <time>2020-08-24T09:18:13.154Z</time>
      </trkpt>
      <trkpt lat="45.28764" lon="2.6681">
        <ele>833.68151855469</ele>
        <time>2020-08-24T09:18:15.475Z</time>
      </trkpt>
      <trkpt lat="45.2872" lon="2.66716">
        <ele>832.16461181641</ele>
        <time>2020-08-24T09:18:17.809Z</time>
      </trkpt>
      <trkpt lat="45.2868" lon="2.66587">
        <ele>835.365234375</ele>
        <time>2020-08-24T09:18:20.159Z</time>
      </trkpt>
      <trkpt lat="45.28661" lon="2.665">
        <ele>834.46820068359</ele>
        <time>2020-08-24T09:18:22.519Z</time>
      </trkpt>
      <trkpt lat="45.28604" lon="2.66446">
        <ele>831.49108886719</ele>
        <time>2020-08-24T09:18:24.890Z</time>
      </trkpt>
      <trkpt lat="45.28604" lon="2.66446">
        <ele>831.49053955078</ele>
        <time>2020-08-24T09:18:27.261Z</time>
      </trkpt>
      <trkpt lat="45.28563" lon="2.66341">
        <ele>831.09399414062</ele>
        <time>2020-08-24T09:18:29.646Z</time>
      </trkpt>
      <trkpt lat="45.28541" lon="2.66233">
        <ele>832.78228759766</ele>
        <time>2020-08-24T09:18:32.044Z</time>
      </trkpt>
      <trkpt lat="45.28541" lon="2.66233">
        <ele>832.78240966797</ele>
        <time>2020-08-24T09:18:34.442Z</time>
      </trkpt>
      <trkpt lat="45.28527" lon="2.66136">
        <ele>835.79370117188</ele>
        <time>2020-08-24T09:18:36.851Z</time>
      </trkpt>
      <trkpt lat="45.28515" lon="2.66059">
        <ele>837</ele>
        <time>2020-08-24T09:18:39.269Z</time>
      </trkpt>
      <trkpt lat="45.28531" lon="2.65939">
        <ele>838.81677246094</ele>
        <time>2020-08-24T09:18:41.701Z</time>
      </trkpt>
      <trkpt lat="45.28512" lon="2.65796">
        <ele>840.41497802734</ele>
        <time>2020-08-24T09:18:44.149Z</time>
      </trkpt>
      <trkpt lat="45.28523" lon="2.65783">
        <ele>840.28625488281</ele>
        <time>2020-08-24T09:18:46.599Z</time>
      </trkpt>
      <trkpt lat="45.28519" lon="2.65764">
        <ele>840.32476806641</ele>
        <time>2020-08-24T09:18:49.051Z</time>
      </trkpt>
      <trkpt lat="45.28502" lon="2.6576">
        <ele>840.53082275391</ele>
        <time>2020-08-24T09:18:51.506Z</time>
      </trkpt>
      <trkpt lat="45.28489" lon="2.65683">
        <ele>840.84191894531</ele>
        <time>2020-08-24T09:18:53.970Z</time>
      </trkpt>
      <trkpt lat="45.28486" lon="2.65622">
        <ele>841</ele>
        <time>2020-08-24T09:18:56.441Z</time>
      </trkpt>
      <trkpt lat="45.28486" lon="2.65514">
        <ele>841.13897705078</ele>
        <time>2020-08-24T09:18:58.924Z</time>
      </trkpt>
      <trkpt lat="45.28505" lon="2.6525">
        <ele>840.53735351562</ele>
        <time>2020-08-24T09:19:01.437Z</time>
      </trkpt>
      <trkpt lat="45.28496" lon="2.65198">
        <ele>841</ele>
        <time>2020-08-24T09:19:03.956Z</time>
      </trkpt>
      <trkpt lat="45.28485" lon="2.65163">
        <ele>841.07220458984</ele>
        <time>2020-08-24T09:19:06.480Z</time>
      </trkpt>
      <trkpt lat="45.28483" lon="2.65128">
        <ele>841.49694824219</ele>
        <time>2020-08-24T09:19:09.008Z</time>
      </trkpt>
      <trkpt lat="45.28493" lon="2.6505">
        <ele>843.66333007812</ele>
        <time>2020-08-24T09:19:11.545Z</time>
      </trkpt>
      <trkpt lat="45.28496" lon="2.65028">
        <ele>844.38824462891</ele>
        <time>2020-08-24T09:19:14.084Z</time>
      </trkpt>
      <trkpt lat="45.28523" lon="2.64907">
        <ele>846.0185546875</ele>
        <time>2020-08-24T09:19:16.637Z</time>
      </trkpt>
      <trkpt lat="45.28538" lon="2.64773">
        <ele>845.43859863281</ele>
        <time>2020-08-24T09:19:19.206Z</time>
      </trkpt>
      <trkpt lat="45.28539" lon="2.64732">
        <ele>844.77764892578</ele>
        <time>2020-08-24T09:19:21.779Z</time>
      </trkpt>
      <trkpt lat="45.28542" lon="2.64712">
        <ele>844.10827636719</ele>
        <time>2020-08-24T09:19:24.355Z</time>
      </trkpt>
      <trkpt lat="45.28533" lon="2.647">
        <ele>845.09942626953</ele>
        <time>2020-08-24T09:19:26.933Z</time>
      </trkpt>
      <trkpt lat="45.28521" lon="2.64649">
        <ele>845.95550537109</ele>
        <time>2020-08-24T09:19:29.517Z</time>
      </trkpt>
      <trkpt lat="45.28528" lon="2.64456">
        <ele>845.99566650391</ele>
        <time>2020-08-24T09:19:32.123Z</time>
      </trkpt>
      <trkpt lat="45.28525" lon="2.64377">
        <ele>847.35974121094</ele>
        <time>2020-08-24T09:19:34.738Z</time>
      </trkpt>
      <trkpt lat="45.28552" lon="2.6422">
        <ele>850.46746826172</ele>
        <time>2020-08-24T09:19:37.371Z</time>
      </trkpt>
      <trkpt lat="45.28553" lon="2.64129">
        <ele>851.55480957031</ele>
        <time>2020-08-24T09:19:40.014Z</time>
      </trkpt>
      <trkpt lat="45.28539" lon="2.63992">
        <ele>857.50146484375</ele>
        <time>2020-08-24T09:19:42.673Z</time>
      </trkpt>
      <trkpt lat="45.28544" lon="2.63934">
        <ele>857.93872070312</ele>
        <time>2020-08-24T09:19:45.338Z</time>
      </trkpt>
      <trkpt lat="45.28551" lon="2.63915">
        <ele>857.99426269531</ele>
        <time>2020-08-24T09:19:48.006Z</time>
      </trkpt>
      <trkpt lat="45.28622" lon="2.63721">
        <ele>860.01281738281</ele>
        <time>2020-08-24T09:19:50.698Z</time>
      </trkpt>
      <trkpt lat="45.28606" lon="2.63692">
        <ele>861.28717041016</ele>
        <time>2020-08-24T09:19:53.395Z</time>
      </trkpt>
      <trkpt lat="45.28517" lon="2.6342">
        <ele>875.54724121094</ele>
        <time>2020-08-24T09:19:56.126Z</time>
      </trkpt>
      <trkpt lat="45.28462" lon="2.63261">
        <ele>877.85516357422</ele>
        <time>2020-08-24T09:19:58.877Z</time>
      </trkpt>
      <trkpt lat="45.28416" lon="2.6319">
        <ele>876.13415527344</ele>
        <time>2020-08-24T09:20:01.638Z</time>
      </trkpt>
      <trkpt lat="45.28396" lon="2.63175">
        <ele>875.46478271484</ele>
        <time>2020-08-24T09:20:04.403Z</time>
      </trkpt>
      <trkpt lat="45.28242" lon="2.63119">
        <ele>873.53497314453</ele>
        <time>2020-08-24T09:20:07.194Z</time>
      </trkpt>
      <trkpt lat="45.28184" lon="2.63115">
        <ele>874.06286621094</ele>
        <time>2020-08-24T09:20:09.994Z</time>
      </trkpt>
      <trkpt lat="45.28144" lon="2.63111">
        <ele>874.30743408203</ele>
        <time>2020-08-24T09:20:12.800Z</time>
      </trkpt>
      <trkpt lat="45.28091" lon="2.63083">
        <ele>874.31909179688</ele>
        <time>2020-08-24T09:20:15.615Z</time>
      </trkpt>
      <trkpt lat="45.28076" lon="2.63059">
        <ele>874.29339599609</ele>
        <time>2020-08-24T09:20:18.434Z</time>
      </trkpt>
      <trkpt lat="45.28062" lon="2.63017">
        <ele>873.76556396484</ele>
        <time>2020-08-24T09:20:21.258Z</time>
      </trkpt>
      <trkpt lat="45.2804" lon="2.62834">
        <ele>881.23254394531</ele>
        <time>2020-08-24T09:20:24.103Z</time>
      </trkpt>
      <trkpt lat="45.28039" lon="2.62786">
        <ele>885.84228515625</ele>
        <time>2020-08-24T09:20:26.953Z</time>
      </trkpt>
      <trkpt lat="45.28054" lon="2.62685">
        <ele>890.57952880859</ele>
        <time>2020-08-24T09:20:29.815Z</time>
      </trkpt>
      <trkpt lat="45.28054" lon="2.62685">
        <ele>890.57983398438</ele>
        <time>2020-08-24T09:20:32.677Z</time>
      </trkpt>
      <trkpt lat="45.28054" lon="2.62647">
        <ele>891.91137695312</ele>
        <time>2020-08-24T09:20:35.543Z</time>
      </trkpt>
      <trkpt lat="45.28054" lon="2.62647">
        <ele>891.91149902344</ele>
        <time>2020-08-24T09:20:38.409Z</time>
      </trkpt>
      <trkpt lat="45.28045" lon="2.62588">
        <ele>892.41961669922</ele>
        <time>2020-08-24T09:20:41.282Z</time>
      </trkpt>
      <trkpt lat="45.28011" lon="2.62438">
        <ele>890.89654541016</ele>
        <time>2020-08-24T09:20:44.173Z</time>
      </trkpt>
      <trkpt lat="45.27942" lon="2.62298">
        <ele>883.75372314453</ele>
        <time>2020-08-24T09:20:47.083Z</time>
      </trkpt>
      <trkpt lat="45.27923" lon="2.62277">
        <ele>884.53894042969</ele>
        <time>2020-08-24T09:20:49.997Z</time>
      </trkpt>
      <trkpt lat="45.27903" lon="2.6227">
        <ele>887.21643066406</ele>
        <time>2020-08-24T09:20:52.915Z</time>
      </trkpt>
      <trkpt lat="45.27831" lon="2.62275">
        <ele>898.78521728516</ele>
        <time>2020-08-24T09:20:55.844Z</time>
      </trkpt>
      <trkpt lat="45.27797" lon="2.62266">
        <ele>897.92132568359</ele>
        <time>2020-08-24T09:20:58.778Z</time>
      </trkpt>
      <trkpt lat="45.27761" lon="2.62246">
        <ele>896.02600097656</ele>
        <time>2020-08-24T09:21:01.719Z</time>
      </trkpt>
      <trkpt lat="45.27734" lon="2.62244">
        <ele>898.80645751953</ele>
        <time>2020-08-24T09:21:04.664Z</time>
      </trkpt>
      <trkpt lat="45.27685" lon="2.62264">
        <ele>907.38690185547</ele>
        <time>2020-08-24T09:21:07.617Z</time>
      </trkpt>
      <trkpt lat="45.27654" lon="2.62268">
        <ele>909.39501953125</ele>
        <time>2020-08-24T09:21:10.575Z</time>
      </trkpt>
      <trkpt lat="45.27615" lon="2.62259">
        <ele>907.24328613281</ele>
        <time>2020-08-24T09:21:13.540Z</time>
      </trkpt>
      <trkpt lat="45.27599" lon="2.62246">
        <ele>906.51409912109</ele>
        <time>2020-08-24T09:21:16.507Z</time>
      </trkpt>
      <trkpt lat="45.27599" lon="2.62246">
        <ele>906.51422119141</ele>
        <time>2020-08-24T09:21:19.474Z</time>
      </trkpt>
      <trkpt lat="45.27597" lon="2.62244">
        <ele>906.59130859375</ele>
        <time>2020-08-24T09:21:22.442Z</time>
      </trkpt>
      <trkpt lat="45.275" lon="2.62048">
        <ele>915.21429443359</ele>
        <time>2020-08-24T09:21:25.437Z</time>
      </trkpt>
      <trkpt lat="45.27484" lon="2.62001">
        <ele>916.50817871094</ele>
        <time>2020-08-24T09:21:28.438Z</time>
      </trkpt>
      <trkpt lat="45.27478" lon="2.61946">
        <ele>918.00115966797</ele>
        <time>2020-08-24T09:21:31.445Z</time>
      </trkpt>
      <trkpt lat="45.27478" lon="2.61946">
        <ele>918.00134277344</ele>
        <time>2020-08-24T09:21:34.452Z</time>
      </trkpt>
      <trkpt lat="45.27437" lon="2.61613">
        <ele>922.74920654297</ele>
        <time>2020-08-24T09:21:37.497Z</time>
      </trkpt>
      <trkpt lat="45.27434" lon="2.61593">
        <ele>923.32849121094</ele>
        <time>2020-08-24T09:21:40.545Z</time>
      </trkpt>
      <trkpt lat="45.27396" lon="2.61332">
        <ele>923.19769287109</ele>
        <time>2020-08-24T09:21:43.623Z</time>
      </trkpt>
      <trkpt lat="45.27381" lon="2.61278">
        <ele>923.01745605469</ele>
        <time>2020-08-24T09:21:46.707Z</time>
      </trkpt>
      <trkpt lat="45.27322" lon="2.61157">
        <ele>921.23797607422</ele>
        <time>2020-08-24T09:21:49.808Z</time>
      </trkpt>
      <trkpt lat="45.27314" lon="2.61124">
        <ele>920.82604980469</ele>
        <time>2020-08-24T09:21:52.913Z</time>
      </trkpt>
      <trkpt lat="45.27316" lon="2.60885">
        <ele>914.12408447266</ele>
        <time>2020-08-24T09:21:56.045Z</time>
      </trkpt>
      <trkpt lat="45.27316" lon="2.60885">
        <ele>914.12359619141</ele>
        <time>2020-08-24T09:21:59.177Z</time>
      </trkpt>
      <trkpt lat="45.27317" lon="2.60844">
        <ele>911.7421875</ele>
        <time>2020-08-24T09:22:02.314Z</time>
      </trkpt>
      <trkpt lat="45.27338" lon="2.60708">
        <ele>910.83477783203</ele>
        <time>2020-08-24T09:22:05.466Z</time>
      </trkpt>
      <trkpt lat="45.27334" lon="2.60636">
        <ele>907.85882568359</ele>
        <time>2020-08-24T09:22:08.626Z</time>
      </trkpt>
      <trkpt lat="45.273" lon="2.60546">
        <ele>904.95269775391</ele>
        <time>2020-08-24T09:22:11.798Z</time>
      </trkpt>
      <trkpt lat="45.27292" lon="2.6051">
        <ele>902.90545654297</ele>
        <time>2020-08-24T09:22:14.974Z</time>
      </trkpt>
      <trkpt lat="45.27291" lon="2.6045">
        <ele>899.96313476562</ele>
        <time>2020-08-24T09:22:18.157Z</time>
      </trkpt>
      <trkpt lat="45.27285" lon="2.60413">
        <ele>898.34448242188</ele>
        <time>2020-08-24T09:22:21.344Z</time>
      </trkpt>
      <trkpt lat="45.27275" lon="2.60393">
        <ele>897.07012939453</ele>
        <time>2020-08-24T09:22:24.534Z</time>
      </trkpt>
      <trkpt lat="45.27261" lon="2.60382">
        <ele>897.0830078125</ele>
        <time>2020-08-24T09:22:27.727Z</time>
      </trkpt>
      <trkpt lat="45.27208" lon="2.60395">
        <ele>902.28399658203</ele>
        <time>2020-08-24T09:22:30.928Z</time>
      </trkpt>
      <trkpt lat="45.27208" lon="2.60395">
        <ele>902.28356933594</ele>
        <time>2020-08-24T09:22:34.129Z</time>
      </trkpt>
      <trkpt lat="45.27189" lon="2.6041">
        <ele>902.78918457031</ele>
        <time>2020-08-24T09:22:37.334Z</time>
      </trkpt>
      <trkpt lat="45.271" lon="2.60517">
        <ele>905.46417236328</ele>
        <time>2020-08-24T09:22:40.557Z</time>
      </trkpt>
      <trkpt lat="45.27068" lon="2.6054">
        <ele>905.49420166016</ele>
        <time>2020-08-24T09:22:43.786Z</time>
      </trkpt>
      <trkpt lat="45.2704" lon="2.60544">
        <ele>904.01916503906</ele>
        <time>2020-08-24T09:22:47.020Z</time>
      </trkpt>
      <trkpt lat="45.26993" lon="2.60532">
        <ele>902.21697998047</ele>
        <time>2020-08-24T09:22:50.261Z</time>
      </trkpt>
      <trkpt lat="45.26952" lon="2.60537">
        <ele>904.03411865234</ele>
        <time>2020-08-24T09:22:53.509Z</time>
      </trkpt>
      <trkpt lat="45.26937" lon="2.60535">
        <ele>904.29156494141</ele>
        <time>2020-08-24T09:22:56.759Z</time>
      </trkpt>
      <trkpt lat="45.26931" lon="2.60526">
        <ele>903.39019775391</ele>
        <time>2020-08-24T09:23:00.011Z</time>
      </trkpt>
      <trkpt lat="45.26892" lon="2.60446">
        <ele>898.19488525391</ele>
        <time>2020-08-24T09:23:03.274Z</time>
      </trkpt>
      <trkpt lat="45.26831" lon="2.60348">
        <ele>896.22668457031</ele>
        <time>2020-08-24T09:23:06.551Z</time>
      </trkpt>
      <trkpt lat="45.26831" lon="2.60348">
        <ele>896.22698974609</ele>
        <time>2020-08-24T09:23:09.828Z</time>
      </trkpt>
      <trkpt lat="45.26829" lon="2.60344">
        <ele>896.1494140625</ele>
        <time>2020-08-24T09:23:13.106Z</time>
      </trkpt>
      <trkpt lat="45.26821" lon="2.60332">
        <ele>895.92126464844</ele>
        <time>2020-08-24T09:23:16.386Z</time>
      </trkpt>
      <trkpt lat="45.2681" lon="2.60315">
        <ele>895.27758789062</ele>
        <time>2020-08-24T09:23:19.668Z</time>
      </trkpt>
      <trkpt lat="45.2681" lon="2.60315">
        <ele>895.27789306641</ele>
        <time>2020-08-24T09:23:22.950Z</time>
      </trkpt>
      <trkpt lat="45.26774" lon="2.60264">
        <ele>893.02923583984</ele>
        <time>2020-08-24T09:23:26.241Z</time>
      </trkpt>
      <trkpt lat="45.26726" lon="2.60252">
        <ele>892.82684326172</ele>
        <time>2020-08-24T09:23:29.539Z</time>
      </trkpt>
      <trkpt lat="45.26726" lon="2.60252">
        <ele>892.82696533203</ele>
        <time>2020-08-24T09:23:32.837Z</time>
      </trkpt>
      <trkpt lat="45.26701" lon="2.60261">
        <ele>893.16693115234</ele>
        <time>2020-08-24T09:23:36.139Z</time>
      </trkpt>
      <trkpt lat="45.26661" lon="2.60314">
        <ele>894.00885009766</ele>
        <time>2020-08-24T09:23:39.450Z</time>
      </trkpt>
      <trkpt lat="45.26647" lon="2.60313">
        <ele>893.31372070312</ele>
        <time>2020-08-24T09:23:42.763Z</time>
      </trkpt>
      <trkpt lat="45.2663" lon="2.60283">
        <ele>891.76947021484</ele>
        <time>2020-08-24T09:23:46.081Z</time>
      </trkpt>
      <trkpt lat="45.26643" lon="2.60195">
        <ele>892.00695800781</ele>
        <time>2020-08-24T09:23:49.409Z</time>
      </trkpt>
      <trkpt lat="45.26644" lon="2.60101">
        <ele>890.60717773438</ele>
        <time>2020-08-24T09:23:52.747Z</time>
      </trkpt>
      <trkpt lat="45.26657" lon="2.59984">
        <ele>891.94451904297</ele>
        <time>2020-08-24T09:23:56.099Z</time>
      </trkpt>
      <trkpt lat="45.26657" lon="2.59984">
        <ele>891.94525146484</ele>
        <time>2020-08-24T09:23:59.451Z</time>
      </trkpt>
      <trkpt lat="45.26667" lon="2.59925">
        <ele>893.58245849609</ele>
        <time>2020-08-24T09:24:02.810Z</time>
      </trkpt>
      <trkpt lat="45.26697" lon="2.59864">
        <ele>892.58807373047</ele>
        <time>2020-08-24T09:24:06.177Z</time>
      </trkpt>
      <trkpt lat="45.26703" lon="2.59835">
        <ele>893.39898681641</ele>
        <time>2020-08-24T09:24:09.548Z</time>
      </trkpt>
      <trkpt lat="45.2672" lon="2.59678">
        <ele>900.10174560547</ele>
        <time>2020-08-24T09:24:12.937Z</time>
      </trkpt>
      <trkpt lat="45.26713" lon="2.59607">
        <ele>904.22772216797</ele>
        <time>2020-08-24T09:24:16.334Z</time>
      </trkpt>
      <trkpt lat="45.26713" lon="2.59607">
        <ele>904.22827148438</ele>
        <time>2020-08-24T09:24:19.731Z</time>
      </trkpt>
      <trkpt lat="45.26711" lon="2.596">
        <ele>904.61389160156</ele>
        <time>2020-08-24T09:24:23.128Z</time>
      </trkpt>
      <trkpt lat="45.26711" lon="2.596">
        <ele>904.61450195312</ele>
        <time>2020-08-24T09:24:26.525Z</time>
      </trkpt>
      <trkpt lat="45.26689" lon="2.59545">
        <ele>906.91101074219</ele>
        <time>2020-08-24T09:24:29.930Z</time>
      </trkpt>
      <trkpt lat="45.26689" lon="2.59545">
        <ele>906.91149902344</ele>
        <time>2020-08-24T09:24:33.335Z</time>
      </trkpt>
      <trkpt lat="45.26661" lon="2.59455">
        <ele>909.09973144531</ele>
        <time>2020-08-24T09:24:36.751Z</time>
      </trkpt>
      <trkpt lat="45.26656" lon="2.59416">
        <ele>910.14270019531</ele>
        <time>2020-08-24T09:24:40.171Z</time>
      </trkpt>
      <trkpt lat="45.26672" lon="2.59314">
        <ele>911.19696044922</ele>
        <time>2020-08-24T09:24:43.603Z</time>
      </trkpt>
      <trkpt lat="45.2667" lon="2.59277">
        <ele>912.689453125</ele>
        <time>2020-08-24T09:24:47.039Z</time>
      </trkpt>
      <trkpt lat="45.2667" lon="2.59277">
        <ele>912.69018554688</ele>
        <time>2020-08-24T09:24:50.475Z</time>
      </trkpt>
      <trkpt lat="45.2667" lon="2.59269">
        <ele>912.99841308594</ele>
        <time>2020-08-24T09:24:53.912Z</time>
      </trkpt>
      <trkpt lat="45.2667" lon="2.59269">
        <ele>912.99914550781</ele>
        <time>2020-08-24T09:24:57.349Z</time>
      </trkpt>
      <trkpt lat="45.2667" lon="2.59258">
        <ele>913.38458251953</ele>
        <time>2020-08-24T09:25:00.787Z</time>
      </trkpt>
      <trkpt lat="45.2667" lon="2.59258">
        <ele>913.38531494141</ele>
        <time>2020-08-24T09:25:04.225Z</time>
      </trkpt>
      <trkpt lat="45.26624" lon="2.58904">
        <ele>920.29772949219</ele>
        <time>2020-08-24T09:25:07.704Z</time>
      </trkpt>
      <trkpt lat="45.26624" lon="2.58743">
        <ele>922.94488525391</ele>
        <time>2020-08-24T09:25:11.201Z</time>
      </trkpt>
      <trkpt lat="45.26663" lon="2.58526">
        <ele>933.74676513672</ele>
        <time>2020-08-24T09:25:14.724Z</time>
      </trkpt>
      <trkpt lat="45.26649" lon="2.58359">
        <ele>938.09228515625</ele>
        <time>2020-08-24T09:25:18.266Z</time>
      </trkpt>
      <trkpt lat="45.26672" lon="2.58265">
        <ele>944.03485107422</ele>
        <time>2020-08-24T09:25:21.819Z</time>
      </trkpt>
      <trkpt lat="45.26737" lon="2.58149">
        <ele>950.65356445312</ele>
        <time>2020-08-24T09:25:25.389Z</time>
      </trkpt>
      <trkpt lat="45.26767" lon="2.58074">
        <ele>953.65240478516</ele>
        <time>2020-08-24T09:25:28.968Z</time>
      </trkpt>
      <trkpt lat="45.26808" lon="2.57921">
        <ele>946.49291992188</ele>
        <time>2020-08-24T09:25:32.566Z</time>
      </trkpt>
      <trkpt lat="45.26817" lon="2.57853">
        <ele>949.05078125</ele>
        <time>2020-08-24T09:25:36.172Z</time>
      </trkpt>
      <trkpt lat="45.2675" lon="2.57445">
        <ele>958.06744384766</ele>
        <time>2020-08-24T09:25:39.825Z</time>
      </trkpt>
      <trkpt lat="45.26731" lon="2.574">
        <ele>963.19372558594</ele>
        <time>2020-08-24T09:25:43.484Z</time>
      </trkpt>
      <trkpt lat="45.26689" lon="2.57355">
        <ele>969.77764892578</ele>
        <time>2020-08-24T09:25:47.151Z</time>
      </trkpt>
      <trkpt lat="45.26551" lon="2.57254">
        <ele>978.650390625</ele>
        <time>2020-08-24T09:25:50.843Z</time>
      </trkpt>
      <trkpt lat="45.26485" lon="2.57256">
        <ele>982.32873535156</ele>
        <time>2020-08-24T09:25:54.546Z</time>
      </trkpt>
      <trkpt lat="45.26409" lon="2.57241">
        <ele>985.27850341797</ele>
        <time>2020-08-24T09:25:58.261Z</time>
      </trkpt>
      <trkpt lat="45.26326" lon="2.57194">
        <ele>988.31555175781</ele>
        <time>2020-08-24T09:26:01.990Z</time>
      </trkpt>
      <trkpt lat="45.26231" lon="2.57155">
        <ele>996.22991943359</ele>
        <time>2020-08-24T09:26:05.735Z</time>
      </trkpt>
      <trkpt lat="45.26206" lon="2.57135">
        <ele>997.20758056641</ele>
        <time>2020-08-24T09:26:09.485Z</time>
      </trkpt>
      <trkpt lat="45.26195" lon="2.57113">
        <ele>996.30651855469</ele>
        <time>2020-08-24T09:26:13.238Z</time>
      </trkpt>
      <trkpt lat="45.26185" lon="2.57084">
        <ele>994.37103271484</ele>
        <time>2020-08-24T09:26:16.994Z</time>
      </trkpt>
      <trkpt lat="45.26184" lon="2.57053">
        <ele>998.25872802734</ele>
        <time>2020-08-24T09:26:20.754Z</time>
      </trkpt>
      <trkpt lat="45.26184" lon="2.57053">
        <ele>998.25964355469</ele>
        <time>2020-08-24T09:26:24.514Z</time>
      </trkpt>
      <trkpt lat="45.26192" lon="2.57011">
        <ele>1002.8551025391</ele>
        <time>2020-08-24T09:26:28.279Z</time>
      </trkpt>
      <trkpt lat="45.26213" lon="2.56979">
        <ele>1005.9537353516</ele>
        <time>2020-08-24T09:26:32.049Z</time>
      </trkpt>
      <trkpt lat="45.26303" lon="2.5689">
        <ele>1016.8372802734</ele>
        <time>2020-08-24T09:26:35.836Z</time>
      </trkpt>
      <trkpt lat="45.26397" lon="2.5687">
        <ele>1010.3849487305</ele>
        <time>2020-08-24T09:26:39.639Z</time>
      </trkpt>
      <trkpt lat="45.26481" lon="2.56811">
        <ele>1009.4331665039</ele>
        <time>2020-08-24T09:26:43.457Z</time>
      </trkpt>
      <trkpt lat="45.26501" lon="2.56783">
        <ele>1010.3584594727</ele>
        <time>2020-08-24T09:26:47.279Z</time>
      </trkpt>
      <trkpt lat="45.26512" lon="2.56743">
        <ele>1015.38671875</ele>
        <time>2020-08-24T09:26:51.106Z</time>
      </trkpt>
      <trkpt lat="45.2651" lon="2.56686">
        <ele>1019.1068725586</ele>
        <time>2020-08-24T09:26:54.939Z</time>
      </trkpt>
      <trkpt lat="45.26498" lon="2.56652">
        <ele>1022.1068115234</ele>
        <time>2020-08-24T09:26:58.777Z</time>
      </trkpt>
      <trkpt lat="45.26435" lon="2.56563">
        <ele>1030.6092529297</ele>
        <time>2020-08-24T09:27:02.629Z</time>
      </trkpt>
      <trkpt lat="45.26417" lon="2.56516">
        <ele>1032.7082519531</ele>
        <time>2020-08-24T09:27:06.487Z</time>
      </trkpt>
      <trkpt lat="45.26428" lon="2.56278">
        <ele>1037.669921875</ele>
        <time>2020-08-24T09:27:10.372Z</time>
      </trkpt>
      <trkpt lat="45.26418" lon="2.56214">
        <ele>1039.7772216797</ele>
        <time>2020-08-24T09:27:14.264Z</time>
      </trkpt>
      <trkpt lat="45.26406" lon="2.56187">
        <ele>1041.3909912109</ele>
        <time>2020-08-24T09:27:18.160Z</time>
      </trkpt>
      <trkpt lat="45.26366" lon="2.56155">
        <ele>1042.1552734375</ele>
        <time>2020-08-24T09:27:22.063Z</time>
      </trkpt>
      <trkpt lat="45.26288" lon="2.56152">
        <ele>1037.5848388672</ele>
        <time>2020-08-24T09:27:25.979Z</time>
      </trkpt>
      <trkpt lat="45.26247" lon="2.56128">
        <ele>1034.7606201172</ele>
        <time>2020-08-24T09:27:29.902Z</time>
      </trkpt>
      <trkpt lat="45.2622" lon="2.56086">
        <ele>1031.1871337891</ele>
        <time>2020-08-24T09:27:33.831Z</time>
      </trkpt>
      <trkpt lat="45.26208" lon="2.56046">
        <ele>1029.3070068359</ele>
        <time>2020-08-24T09:27:37.765Z</time>
      </trkpt>
      <trkpt lat="45.26202" lon="2.55953">
        <ele>1026.2236328125</ele>
        <time>2020-08-24T09:27:41.710Z</time>
      </trkpt>
      <trkpt lat="45.2619" lon="2.55883">
        <ele>1024.4080810547</ele>
        <time>2020-08-24T09:27:45.663Z</time>
      </trkpt>
      <trkpt lat="45.26153" lon="2.55788">
        <ele>1021.6786499023</ele>
        <time>2020-08-24T09:27:49.628Z</time>
      </trkpt>
      <trkpt lat="45.26026" lon="2.55524">
        <ele>1011.0059204102</ele>
        <time>2020-08-24T09:27:53.629Z</time>
      </trkpt>
      <trkpt lat="45.26007" lon="2.55338">
        <ele>1013.3327026367</ele>
        <time>2020-08-24T09:27:57.652Z</time>
      </trkpt>
      <trkpt lat="45.25989" lon="2.55245">
        <ele>1014.568359375</ele>
        <time>2020-08-24T09:28:01.685Z</time>
      </trkpt>
      <trkpt lat="45.25967" lon="2.55179">
        <ele>1013.2038574219</ele>
        <time>2020-08-24T09:28:05.727Z</time>
      </trkpt>
      <trkpt lat="45.25863" lon="2.55049">
        <ele>1010.9732666016</ele>
        <time>2020-08-24T09:28:09.791Z</time>
      </trkpt>
      <trkpt lat="45.25852" lon="2.55014">
        <ele>1010.8059082031</ele>
        <time>2020-08-24T09:28:13.859Z</time>
      </trkpt>
      <trkpt lat="45.25838" lon="2.54915">
        <ele>1008.9563598633</ele>
        <time>2020-08-24T09:28:17.939Z</time>
      </trkpt>
      <trkpt lat="45.25833" lon="2.54808">
        <ele>1007.3549804688</ele>
        <time>2020-08-24T09:28:22.031Z</time>
      </trkpt>
      <trkpt lat="45.2582" lon="2.5457">
        <ele>1000.3233032227</ele>
        <time>2020-08-24T09:28:26.150Z</time>
      </trkpt>
      <trkpt lat="45.25801" lon="2.54488">
        <ele>998.48413085938</ele>
        <time>2020-08-24T09:28:30.278Z</time>
      </trkpt>
      <trkpt lat="45.25746" lon="2.54228">
        <ele>994.72735595703</ele>
        <time>2020-08-24T09:28:34.437Z</time>
      </trkpt>
      <trkpt lat="45.25732" lon="2.54206">
        <ele>994.16790771484</ele>
        <time>2020-08-24T09:28:38.600Z</time>
      </trkpt>
      <trkpt lat="45.25732" lon="2.54206">
        <ele>994.16833496094</ele>
        <time>2020-08-24T09:28:42.763Z</time>
      </trkpt>
      <trkpt lat="45.25712" lon="2.54175">
        <ele>993.36450195312</ele>
        <time>2020-08-24T09:28:46.930Z</time>
      </trkpt>
      <trkpt lat="45.25642" lon="2.54115">
        <ele>989.41949462891</ele>
        <time>2020-08-24T09:28:51.110Z</time>
      </trkpt>
      <trkpt lat="45.25533" lon="2.54035">
        <ele>981.31750488281</ele>
        <time>2020-08-24T09:28:55.310Z</time>
      </trkpt>
      <trkpt lat="45.25397" lon="2.53978">
        <ele>977.4267578125</ele>
        <time>2020-08-24T09:28:59.533Z</time>
      </trkpt>
      <trkpt lat="45.25336" lon="2.53958">
        <ele>975.88177490234</ele>
        <time>2020-08-24T09:29:03.766Z</time>
      </trkpt>
      <trkpt lat="45.25315" lon="2.53968">
        <ele>975.31579589844</ele>
        <time>2020-08-24T09:29:08.002Z</time>
      </trkpt>
      <trkpt lat="45.25307" lon="2.53972">
        <ele>975.16131591797</ele>
        <time>2020-08-24T09:29:12.240Z</time>
      </trkpt>
      <trkpt lat="45.25302" lon="2.53975">
        <ele>975.05834960938</ele>
        <time>2020-08-24T09:29:16.478Z</time>
      </trkpt>
      <trkpt lat="45.25288" lon="2.53982">
        <ele>974.69793701172</ele>
        <time>2020-08-24T09:29:20.719Z</time>
      </trkpt>
      <trkpt lat="45.25275" lon="2.53976">
        <ele>973.82257080078</ele>
        <time>2020-08-24T09:29:24.962Z</time>
      </trkpt>
      <trkpt lat="45.25204" lon="2.5394">
        <ele>969.57934570312</ele>
        <time>2020-08-24T09:29:29.217Z</time>
      </trkpt>
      <trkpt lat="45.25197" lon="2.53939">
        <ele>969.97888183594</ele>
        <time>2020-08-24T09:29:33.473Z</time>
      </trkpt>
      <trkpt lat="45.25128" lon="2.53809">
        <ele>963.24993896484</ele>
        <time>2020-08-24T09:29:37.748Z</time>
      </trkpt>
      <trkpt lat="45.25069" lon="2.53768">
        <ele>963.14691162109</ele>
        <time>2020-08-24T09:29:42.033Z</time>
      </trkpt>
      <trkpt lat="45.25038" lon="2.53747">
        <ele>963.28704833984</ele>
        <time>2020-08-24T09:29:46.324Z</time>
      </trkpt>
      <trkpt lat="45.24982" lon="2.53708">
        <ele>964.26605224609</ele>
        <time>2020-08-24T09:29:50.625Z</time>
      </trkpt>
      <trkpt lat="45.24942" lon="2.53693">
        <ele>963.74243164062</ele>
        <time>2020-08-24T09:29:54.932Z</time>
      </trkpt>
      <trkpt lat="45.24824" lon="2.53747">
        <ele>966.52703857422</ele>
        <time>2020-08-24T09:29:59.259Z</time>
      </trkpt>
      <trkpt lat="45.24797" lon="2.53761">
        <ele>966.11267089844</ele>
        <time>2020-08-24T09:30:03.591Z</time>
      </trkpt>
      <trkpt lat="45.24769" lon="2.53792">
        <ele>966.16418457031</ele>
        <time>2020-08-24T09:30:07.928Z</time>
      </trkpt>
      <trkpt lat="45.24715" lon="2.53899">
        <ele>967.78393554688</ele>
        <time>2020-08-24T09:30:12.280Z</time>
      </trkpt>
      <trkpt lat="45.24715" lon="2.53899">
        <ele>967.78283691406</ele>
        <time>2020-08-24T09:30:16.632Z</time>
      </trkpt>
      <trkpt lat="45.2463" lon="2.54086">
        <ele>966.22149658203</ele>
        <time>2020-08-24T09:30:21.009Z</time>
      </trkpt>
      <trkpt lat="45.24614" lon="2.54105">
        <ele>965.49005126953</ele>
        <time>2020-08-24T09:30:25.390Z</time>
      </trkpt>
      <trkpt lat="45.24593" lon="2.54118">
        <ele>964.15130615234</ele>
        <time>2020-08-24T09:30:29.774Z</time>
      </trkpt>
      <trkpt lat="45.24558" lon="2.54116">
        <ele>961.19067382812</ele>
        <time>2020-08-24T09:30:34.164Z</time>
      </trkpt>
      <trkpt lat="45.24424" lon="2.54086">
        <ele>959.01971435547</ele>
        <time>2020-08-24T09:30:38.576Z</time>
      </trkpt>
      <trkpt lat="45.24424" lon="2.54086">
        <ele>959.01971435547</ele>
        <time>2020-08-24T09:30:42.988Z</time>
      </trkpt>
      <trkpt lat="45.24334" lon="2.54064">
        <ele>958.04895019531</ele>
        <time>2020-08-24T09:30:47.414Z</time>
      </trkpt>
      <trkpt lat="45.24284" lon="2.54075">
        <ele>957.94683837891</ele>
        <time>2020-08-24T09:30:51.848Z</time>
      </trkpt>
      <trkpt lat="45.24284" lon="2.54075">
        <ele>957.94635009766</ele>
        <time>2020-08-24T09:30:56.282Z</time>
      </trkpt>
      <trkpt lat="45.24226" lon="2.54123">
        <ele>956.05749511719</ele>
        <time>2020-08-24T09:31:00.727Z</time>
      </trkpt>
      <trkpt lat="45.24194" lon="2.54205">
        <ele>955.52819824219</ele>
        <time>2020-08-24T09:31:05.183Z</time>
      </trkpt>
      <trkpt lat="45.24168" lon="2.54217">
        <ele>953.63403320312</ele>
        <time>2020-08-24T09:31:09.643Z</time>
      </trkpt>
      <trkpt lat="45.24114" lon="2.54222">
        <ele>950.09887695312</ele>
        <time>2020-08-24T09:31:14.112Z</time>
      </trkpt>
      <trkpt lat="45.24051" lon="2.54258">
        <ele>954.73718261719</ele>
        <time>2020-08-24T09:31:18.592Z</time>
      </trkpt>
      <trkpt lat="45.23981" lon="2.54256">
        <ele>950.01208496094</ele>
        <time>2020-08-24T09:31:23.083Z</time>
      </trkpt>
      <trkpt lat="45.23955" lon="2.54272">
        <ele>950.46636962891</ele>
        <time>2020-08-24T09:31:27.578Z</time>
      </trkpt>
      <trkpt lat="45.23855" lon="2.54497">
        <ele>960.35491943359</ele>
        <time>2020-08-24T09:31:32.103Z</time>
      </trkpt>
      <trkpt lat="45.23788" lon="2.54623">
        <ele>965.05749511719</ele>
        <time>2020-08-24T09:31:36.646Z</time>
      </trkpt>
      <trkpt lat="45.23781" lon="2.5466">
        <ele>966.50512695312</ele>
        <time>2020-08-24T09:31:41.194Z</time>
      </trkpt>
      <trkpt lat="45.23679" lon="2.54809">
        <ele>976.86273193359</ele>
        <time>2020-08-24T09:31:45.765Z</time>
      </trkpt>
      <trkpt lat="45.23658" lon="2.54874">
        <ele>979.26733398438</ele>
        <time>2020-08-24T09:31:50.344Z</time>
      </trkpt>
      <trkpt lat="45.23657" lon="2.55044">
        <ele>986.60205078125</ele>
        <time>2020-08-24T09:31:54.942Z</time>
      </trkpt>
      <trkpt lat="45.23636" lon="2.55303">
        <ele>996.76489257812</ele>
        <time>2020-08-24T09:31:59.570Z</time>
      </trkpt>
      <trkpt lat="45.2359" lon="2.55438">
        <ele>1000.2788696289</ele>
        <time>2020-08-24T09:32:04.215Z</time>
      </trkpt>
      <trkpt lat="45.23567" lon="2.55476">
        <ele>1001.9876708984</ele>
        <time>2020-08-24T09:32:08.865Z</time>
      </trkpt>
      <trkpt lat="45.23528" lon="2.55508">
        <ele>1001.3069458008</ele>
        <time>2020-08-24T09:32:13.522Z</time>
      </trkpt>
      <trkpt lat="45.23371" lon="2.55618">
        <ele>998.51922607422</ele>
        <time>2020-08-24T09:32:18.208Z</time>
      </trkpt>
      <trkpt lat="45.23371" lon="2.55618">
        <ele>998.52014160156</ele>
        <time>2020-08-24T09:32:22.894Z</time>
      </trkpt>
      <trkpt lat="45.23289" lon="2.55689">
        <ele>997.64801025391</ele>
        <time>2020-08-24T09:32:27.595Z</time>
      </trkpt>
      <trkpt lat="45.23282" lon="2.55714">
        <ele>998.51049804688</ele>
        <time>2020-08-24T09:32:32.299Z</time>
      </trkpt>
      <trkpt lat="45.23282" lon="2.55714">
        <ele>998.51159667969</ele>
        <time>2020-08-24T09:32:37.003Z</time>
      </trkpt>
      <trkpt lat="45.23269" lon="2.55807">
        <ele>1004.4432983398</ele>
        <time>2020-08-24T09:32:41.718Z</time>
      </trkpt>
      <trkpt lat="45.2318" lon="2.56003">
        <ele>1018.1438598633</ele>
        <time>2020-08-24T09:32:46.459Z</time>
      </trkpt>
      <trkpt lat="45.22976" lon="2.5631">
        <ele>1024.1641845703</ele>
        <time>2020-08-24T09:32:51.248Z</time>
      </trkpt>
      <trkpt lat="45.22792" lon="2.5643">
        <ele>1016.5559692383</ele>
        <time>2020-08-24T09:32:56.069Z</time>
      </trkpt>
      <trkpt lat="45.22754" lon="2.56442">
        <ele>1014.2260131836</ele>
        <time>2020-08-24T09:33:00.896Z</time>
      </trkpt>
      <trkpt lat="45.22655" lon="2.56536">
        <ele>1021.3956298828</ele>
        <time>2020-08-24T09:33:05.742Z</time>
      </trkpt>
      <trkpt lat="45.22655" lon="2.56536">
        <ele>1021.3965454102</ele>
        <time>2020-08-24T09:33:10.588Z</time>
      </trkpt>
      <trkpt lat="45.22546" lon="2.56663">
        <ele>1033.9211425781</ele>
        <time>2020-08-24T09:33:15.457Z</time>
      </trkpt>
      <trkpt lat="45.22475" lon="2.56772">
        <ele>1040.0607910156</ele>
        <time>2020-08-24T09:33:20.343Z</time>
      </trkpt>
      <trkpt lat="45.22334" lon="2.56957">
        <ele>1032.8363037109</ele>
        <time>2020-08-24T09:33:25.260Z</time>
      </trkpt>
      <trkpt lat="45.2225" lon="2.57278">
        <ele>1054.4443359375</ele>
        <time>2020-08-24T09:33:30.215Z</time>
      </trkpt>
      <trkpt lat="45.22173" lon="2.5747">
        <ele>1061.0930175781</ele>
        <time>2020-08-24T09:33:35.195Z</time>
      </trkpt>
      <trkpt lat="45.22079" lon="2.57597">
        <ele>1054.2977294922</ele>
        <time>2020-08-24T09:33:40.196Z</time>
      </trkpt>
      <trkpt lat="45.21972" lon="2.57721">
        <ele>1051.0339355469</ele>
        <time>2020-08-24T09:33:45.219Z</time>
      </trkpt>
      <trkpt lat="45.21921" lon="2.57812">
        <ele>1055.6843261719</ele>
        <time>2020-08-24T09:33:50.255Z</time>
      </trkpt>
      <trkpt lat="45.21733" lon="2.57933">
        <ele>1054.0383300781</ele>
        <time>2020-08-24T09:33:55.324Z</time>
      </trkpt>
      <trkpt lat="45.21639" lon="2.57933">
        <ele>1056.5881347656</ele>
        <time>2020-08-24T09:34:00.408Z</time>
      </trkpt>
      <trkpt lat="45.21609" lon="2.57926">
        <ele>1057.2987060547</ele>
        <time>2020-08-24T09:34:05.497Z</time>
      </trkpt>
      <trkpt lat="45.21578" lon="2.57904">
        <ele>1056.1007080078</ele>
        <time>2020-08-24T09:34:10.592Z</time>
      </trkpt>
      <trkpt lat="45.21553" lon="2.57874">
        <ele>1054.4016113281</ele>
        <time>2020-08-24T09:34:15.692Z</time>
      </trkpt>
      <trkpt lat="45.2147" lon="2.57867">
        <ele>1059.2244873047</ele>
        <time>2020-08-24T09:34:20.805Z</time>
      </trkpt>
      <trkpt lat="45.21434" lon="2.57831">
        <ele>1058.8430175781</ele>
        <time>2020-08-24T09:34:25.925Z</time>
      </trkpt>
      <trkpt lat="45.21411" lon="2.57825">
        <ele>1060.5678710938</ele>
        <time>2020-08-24T09:34:31.049Z</time>
      </trkpt>
      <trkpt lat="45.21391" lon="2.57834">
        <ele>1061.2625732422</ele>
        <time>2020-08-24T09:34:36.177Z</time>
      </trkpt>
      <trkpt lat="45.21252" lon="2.57971">
        <ele>1080.3410644531</ele>
        <time>2020-08-24T09:34:41.332Z</time>
      </trkpt>
      <trkpt lat="45.21211" lon="2.57974">
        <ele>1076.3798828125</ele>
        <time>2020-08-24T09:34:46.493Z</time>
      </trkpt>
      <trkpt lat="45.21182" lon="2.58002">
        <ele>1077.6407470703</ele>
        <time>2020-08-24T09:34:51.660Z</time>
      </trkpt>
      <trkpt lat="45.21161" lon="2.58064">
        <ele>1086.3828125</ele>
        <time>2020-08-24T09:34:56.835Z</time>
      </trkpt>
      <trkpt lat="45.21103" lon="2.58135">
        <ele>1092.4222412109</ele>
        <time>2020-08-24T09:35:02.022Z</time>
      </trkpt>
      <trkpt lat="45.21018" lon="2.58191">
        <ele>1086.4792480469</ele>
        <time>2020-08-24T09:35:07.224Z</time>
      </trkpt>
      <trkpt lat="45.20948" lon="2.58264">
        <ele>1086.8701171875</ele>
        <time>2020-08-24T09:35:12.440Z</time>
      </trkpt>
      <trkpt lat="45.2086" lon="2.58468">
        <ele>1103.7354736328</ele>
        <time>2020-08-24T09:35:17.683Z</time>
      </trkpt>
      <trkpt lat="45.2083" lon="2.58565">
        <ele>1109.3648681641</ele>
        <time>2020-08-24T09:35:22.938Z</time>
      </trkpt>
      <trkpt lat="45.20775" lon="2.58653">
        <ele>1113.3422851562</ele>
        <time>2020-08-24T09:35:28.206Z</time>
      </trkpt>
      <trkpt lat="45.20746" lon="2.58676">
        <ele>1111.2169189453</ele>
        <time>2020-08-24T09:35:33.479Z</time>
      </trkpt>
      <trkpt lat="45.2071" lon="2.58724">
        <ele>1113.9415283203</ele>
        <time>2020-08-24T09:35:38.760Z</time>
      </trkpt>
      <trkpt lat="45.20654" lon="2.58759">
        <ele>1112.2828369141</ele>
        <time>2020-08-24T09:35:44.051Z</time>
      </trkpt>
      <trkpt lat="45.20636" lon="2.58785">
        <ele>1112.1995849609</ele>
        <time>2020-08-24T09:35:49.346Z</time>
      </trkpt>
      <trkpt lat="45.20606" lon="2.58892">
        <ele>1121.7946777344</ele>
        <time>2020-08-24T09:35:54.654Z</time>
      </trkpt>
      <trkpt lat="45.20589" lon="2.58924">
        <ele>1122.5911865234</ele>
        <time>2020-08-24T09:35:59.967Z</time>
      </trkpt>
      <trkpt lat="45.20549" lon="2.58964">
        <ele>1121.49609375</ele>
        <time>2020-08-24T09:36:05.288Z</time>
      </trkpt>
      <trkpt lat="45.20499" lon="2.59077">
        <ele>1129.8127441406</ele>
        <time>2020-08-24T09:36:10.624Z</time>
      </trkpt>
      <trkpt lat="45.20476" lon="2.59245">
        <ele>1136.0610351562</ele>
        <time>2020-08-24T09:36:15.979Z</time>
      </trkpt>
      <trkpt lat="45.20466" lon="2.59265">
        <ele>1135.4835205078</ele>
        <time>2020-08-24T09:36:21.337Z</time>
      </trkpt>
      <trkpt lat="45.20451" lon="2.59266">
        <ele>1134.9653320312</ele>
        <time>2020-08-24T09:36:26.697Z</time>
      </trkpt>
      <trkpt lat="45.20425" lon="2.59238">
        <ele>1134.9477539062</ele>
        <time>2020-08-24T09:36:32.063Z</time>
      </trkpt>
      <trkpt lat="45.20399" lon="2.5905">
        <ele>1135.482421875</ele>
        <time>2020-08-24T09:36:37.450Z</time>
      </trkpt>
      <trkpt lat="45.20363" lon="2.58958">
        <ele>1141.3157958984</ele>
        <time>2020-08-24T09:36:42.849Z</time>
      </trkpt>
      <trkpt lat="45.20346" lon="2.58857">
        <ele>1147.3671875</ele>
        <time>2020-08-24T09:36:48.260Z</time>
      </trkpt>
      <trkpt lat="45.20331" lon="2.58817">
        <ele>1150.5172119141</ele>
        <time>2020-08-24T09:36:53.676Z</time>
      </trkpt>
      <trkpt lat="45.20297" lon="2.5879">
        <ele>1155.6418457031</ele>
        <time>2020-08-24T09:36:59.098Z</time>
      </trkpt>
      <trkpt lat="45.20254" lon="2.58736">
        <ele>1158.9871826172</ele>
        <time>2020-08-24T09:37:04.529Z</time>
      </trkpt>
      <trkpt lat="45.20214" lon="2.58704">
        <ele>1161.8835449219</ele>
        <time>2020-08-24T09:37:09.968Z</time>
      </trkpt>
      <trkpt lat="45.20211" lon="2.58685">
        <ele>1161.138671875</ele>
        <time>2020-08-24T09:37:15.409Z</time>
      </trkpt>
      <trkpt lat="45.20211" lon="2.58685">
        <ele>1161.1373291016</ele>
        <time>2020-08-24T09:37:20.850Z</time>
      </trkpt>
      <trkpt lat="45.20204" lon="2.58644">
        <ele>1160.6081542969</ele>
        <time>2020-08-24T09:37:26.296Z</time>
      </trkpt>
      <trkpt lat="45.20153" lon="2.58559">
        <ele>1164.7083740234</ele>
        <time>2020-08-24T09:37:31.754Z</time>
      </trkpt>
      <trkpt lat="45.20026" lon="2.58447">
        <ele>1175.2550048828</ele>
        <time>2020-08-24T09:37:37.236Z</time>
      </trkpt>
      <trkpt lat="45.19944" lon="2.58421">
        <ele>1181.6126708984</ele>
        <time>2020-08-24T09:37:42.732Z</time>
      </trkpt>
      <trkpt lat="45.19906" lon="2.58422">
        <ele>1184.8050537109</ele>
        <time>2020-08-24T09:37:48.234Z</time>
      </trkpt>
      <trkpt lat="45.19808" lon="2.58452">
        <ele>1192.7095947266</ele>
        <time>2020-08-24T09:37:53.752Z</time>
      </trkpt>
      <trkpt lat="45.19716" lon="2.58464">
        <ele>1195.7043457031</ele>
        <time>2020-08-24T09:37:59.285Z</time>
      </trkpt>
      <trkpt lat="45.19663" lon="2.58481">
        <ele>1199.138671875</ele>
        <time>2020-08-24T09:38:04.826Z</time>
      </trkpt>
      <trkpt lat="45.19595" lon="2.58517">
        <ele>1204.4423828125</ele>
        <time>2020-08-24T09:38:10.379Z</time>
      </trkpt>
      <trkpt lat="45.19547" lon="2.58517">
        <ele>1205.1204833984</ele>
        <time>2020-08-24T09:38:15.940Z</time>
      </trkpt>
      <trkpt lat="45.19476" lon="2.58562">
        <ele>1207.5147705078</ele>
        <time>2020-08-24T09:38:21.513Z</time>
      </trkpt>
      <trkpt lat="45.19382" lon="2.58582">
        <ele>1210.6962890625</ele>
        <time>2020-08-24T09:38:27.101Z</time>
      </trkpt>
      <trkpt lat="45.19198" lon="2.58886">
        <ele>1221.5065917969</ele>
        <time>2020-08-24T09:38:32.735Z</time>
      </trkpt>
      <trkpt lat="45.19138" lon="2.58971">
        <ele>1226.7390136719</ele>
        <time>2020-08-24T09:38:38.382Z</time>
      </trkpt>
      <trkpt lat="45.19098" lon="2.59057">
        <ele>1224.6361083984</ele>
        <time>2020-08-24T09:38:44.041Z</time>
      </trkpt>
      <trkpt lat="45.19075" lon="2.59099">
        <ele>1224.1014404297</ele>
        <time>2020-08-24T09:38:49.706Z</time>
      </trkpt>
      <trkpt lat="45.19024" lon="2.59153">
        <ele>1216.2170410156</ele>
        <time>2020-08-24T09:38:55.381Z</time>
      </trkpt>
      <trkpt lat="45.19024" lon="2.59153">
        <ele>1216.2193603516</ele>
        <time>2020-08-24T09:39:01.056Z</time>
      </trkpt>
      <trkpt lat="45.18982" lon="2.59228">
        <ele>1217.3026123047</ele>
        <time>2020-08-24T09:39:06.742Z</time>
      </trkpt>
      <trkpt lat="45.18909" lon="2.59233">
        <ele>1205.2344970703</ele>
        <time>2020-08-24T09:39:12.440Z</time>
      </trkpt>
      <trkpt lat="45.18881" lon="2.59248">
        <ele>1207.1396484375</ele>
        <time>2020-08-24T09:39:18.142Z</time>
      </trkpt>
      <trkpt lat="45.18839" lon="2.59304">
        <ele>1208.7939453125</ele>
        <time>2020-08-24T09:39:23.854Z</time>
      </trkpt>
      <trkpt lat="45.188" lon="2.59319">
        <ele>1205.6788330078</ele>
        <time>2020-08-24T09:39:29.572Z</time>
      </trkpt>
      <trkpt lat="45.18756" lon="2.59356">
        <ele>1200.5593261719</ele>
        <time>2020-08-24T09:39:35.298Z</time>
      </trkpt>
      <trkpt lat="45.18724" lon="2.59403">
        <ele>1201.8330078125</ele>
        <time>2020-08-24T09:39:41.032Z</time>
      </trkpt>
      <trkpt lat="45.18656" lon="2.59446">
        <ele>1188.1083984375</ele>
        <time>2020-08-24T09:39:46.777Z</time>
      </trkpt>
      <trkpt lat="45.18641" lon="2.59468">
        <ele>1187.8327636719</ele>
        <time>2020-08-24T09:39:52.526Z</time>
      </trkpt>
      <trkpt lat="45.18641" lon="2.59468">
        <ele>1187.8308105469</ele>
        <time>2020-08-24T09:39:58.275Z</time>
      </trkpt>
      <trkpt lat="45.18635" lon="2.59477">
        <ele>1187.7269287109</ele>
        <time>2020-08-24T09:40:04.025Z</time>
      </trkpt>
      <trkpt lat="45.18624" lon="2.59512">
        <ele>1189.7755126953</ele>
        <time>2020-08-24T09:40:09.780Z</time>
      </trkpt>
      <trkpt lat="45.18625" lon="2.59572">
        <ele>1194.6413574219</ele>
        <time>2020-08-24T09:40:15.541Z</time>
      </trkpt>
      <trkpt lat="45.18602" lon="2.59689">
        <ele>1187.8377685547</ele>
        <time>2020-08-24T09:40:21.316Z</time>
      </trkpt>
      <trkpt lat="45.18591" lon="2.59787">
        <ele>1187.6129150391</ele>
        <time>2020-08-24T09:40:27.102Z</time>
      </trkpt>
      <trkpt lat="45.18578" lon="2.59826">
        <ele>1185.1413574219</ele>
        <time>2020-08-24T09:40:32.893Z</time>
      </trkpt>
      <trkpt lat="45.18517" lon="2.59942">
        <ele>1176.2220458984</ele>
        <time>2020-08-24T09:40:38.701Z</time>
      </trkpt>
      <trkpt lat="45.18458" lon="2.59996">
        <ele>1165.6319580078</ele>
        <time>2020-08-24T09:40:44.520Z</time>
      </trkpt>
      <trkpt lat="45.1839" lon="2.60029">
        <ele>1156.7320556641</ele>
        <time>2020-08-24T09:40:50.350Z</time>
      </trkpt>
      <trkpt lat="45.18355" lon="2.60024">
        <ele>1153.4647216797</ele>
        <time>2020-08-24T09:40:56.186Z</time>
      </trkpt>
      <trkpt lat="45.18344" lon="2.60009">
        <ele>1149.0108642578</ele>
        <time>2020-08-24T09:41:02.024Z</time>
      </trkpt>
      <trkpt lat="45.18335" lon="2.59943">
        <ele>1131.3780517578</ele>
        <time>2020-08-24T09:41:07.870Z</time>
      </trkpt>
      <trkpt lat="45.18273" lon="2.59847">
        <ele>1112.5487060547</ele>
        <time>2020-08-24T09:41:13.731Z</time>
      </trkpt>
      <trkpt lat="45.18248" lon="2.59834">
        <ele>1111.7086181641</ele>
        <time>2020-08-24T09:41:19.596Z</time>
      </trkpt>
      <trkpt lat="45.18131" lon="2.59825">
        <ele>1108.3275146484</ele>
        <time>2020-08-24T09:41:25.480Z</time>
      </trkpt>
      <trkpt lat="45.18072" lon="2.59843">
        <ele>1106.9569091797</ele>
        <time>2020-08-24T09:41:31.374Z</time>
      </trkpt>
      <trkpt lat="45.18011" lon="2.59874">
        <ele>1103.6218261719</ele>
        <time>2020-08-24T09:41:37.278Z</time>
      </trkpt>
      <trkpt lat="45.17957" lon="2.59929">
        <ele>1101.8604736328</ele>
        <time>2020-08-24T09:41:43.193Z</time>
      </trkpt>
      <trkpt lat="45.17957" lon="2.59929">
        <ele>1101.8631591797</ele>
        <time>2020-08-24T09:41:49.108Z</time>
      </trkpt>
      <trkpt lat="45.17819" lon="2.6006">
        <ele>1091.7763671875</ele>
        <time>2020-08-24T09:41:55.049Z</time>
      </trkpt>
      <trkpt lat="45.17744" lon="2.60072">
        <ele>1077.3422851562</ele>
        <time>2020-08-24T09:42:01.002Z</time>
      </trkpt>
      <trkpt lat="45.17703" lon="2.60092">
        <ele>1075.6905517578</ele>
        <time>2020-08-24T09:42:06.962Z</time>
      </trkpt>
      <trkpt lat="45.17682" lon="2.60112">
        <ele>1079.3592529297</ele>
        <time>2020-08-24T09:42:12.926Z</time>
      </trkpt>
      <trkpt lat="45.1762" lon="2.60095">
        <ele>1057.7215576172</ele>
        <time>2020-08-24T09:42:18.900Z</time>
      </trkpt>
      <trkpt lat="45.1749" lon="2.60159">
        <ele>1052.4392089844</ele>
        <time>2020-08-24T09:42:24.896Z</time>
      </trkpt>
      <trkpt lat="45.1749" lon="2.60159">
        <ele>1052.4422607422</ele>
        <time>2020-08-24T09:42:30.892Z</time>
      </trkpt>
      <trkpt lat="45.17412" lon="2.60243">
        <ele>1052.6384277344</ele>
        <time>2020-08-24T09:42:36.904Z</time>
      </trkpt>
      <trkpt lat="45.17397" lon="2.60247">
        <ele>1049.3688964844</ele>
        <time>2020-08-24T09:42:42.918Z</time>
      </trkpt>
      <trkpt lat="45.17376" lon="2.60237">
        <ele>1040.4560546875</ele>
        <time>2020-08-24T09:42:48.936Z</time>
      </trkpt>
      <trkpt lat="45.17345" lon="2.60234">
        <ele>1036.6617431641</ele>
        <time>2020-08-24T09:42:54.959Z</time>
      </trkpt>
      <trkpt lat="45.17248" lon="2.6017">
        <ele>1010.7963256836</ele>
        <time>2020-08-24T09:43:00.999Z</time>
      </trkpt>
      <trkpt lat="45.17149" lon="2.60198">
        <ele>1011.4088745117</ele>
        <time>2020-08-24T09:43:07.055Z</time>
      </trkpt>
      <trkpt lat="45.17126" lon="2.60205">
        <ele>1009.6634521484</ele>
        <time>2020-08-24T09:43:13.115Z</time>
      </trkpt>
      <trkpt lat="45.17109" lon="2.60224">
        <ele>1009.6892089844</ele>
        <time>2020-08-24T09:43:19.178Z</time>
      </trkpt>
      <trkpt lat="45.17102" lon="2.6027">
        <ele>1016.6862792969</ele>
        <time>2020-08-24T09:43:25.247Z</time>
      </trkpt>
      <trkpt lat="45.17083" lon="2.60318">
        <ele>1021.1016845703</ele>
        <time>2020-08-24T09:43:31.322Z</time>
      </trkpt>
      <trkpt lat="45.17069" lon="2.60323">
        <ele>1017.9479370117</ele>
        <time>2020-08-24T09:43:37.399Z</time>
      </trkpt>
      <trkpt lat="45.17013" lon="2.6029">
        <ele>1001.3222045898</ele>
        <time>2020-08-24T09:43:43.486Z</time>
      </trkpt>
      <trkpt lat="45.16988" lon="2.60257">
        <ele>992.56896972656</ele>
        <time>2020-08-24T09:43:49.579Z</time>
      </trkpt>
      <trkpt lat="45.16973" lon="2.60253">
        <ele>990.30419921875</ele>
        <time>2020-08-24T09:43:55.674Z</time>
      </trkpt>
      <trkpt lat="45.16933" lon="2.60256">
        <ele>986.25506591797</ele>
        <time>2020-08-24T09:44:01.775Z</time>
      </trkpt>
      <trkpt lat="45.16914" lon="2.60269">
        <ele>986.64123535156</ele>
        <time>2020-08-24T09:44:07.880Z</time>
      </trkpt>
      <trkpt lat="45.16888" lon="2.6031">
        <ele>988.56097412109</ele>
        <time>2020-08-24T09:44:13.991Z</time>
      </trkpt>
      <trkpt lat="45.16884" lon="2.60333">
        <ele>991.03247070312</ele>
        <time>2020-08-24T09:44:20.105Z</time>
      </trkpt>
      <trkpt lat="45.16888" lon="2.60394">
        <ele>998.92376708984</ele>
        <time>2020-08-24T09:44:26.226Z</time>
      </trkpt>
      <trkpt lat="45.16865" lon="2.60488">
        <ele>1000.4373779297</ele>
        <time>2020-08-24T09:44:32.358Z</time>
      </trkpt>
      <trkpt lat="45.16848" lon="2.6052">
        <ele>995.42333984375</ele>
        <time>2020-08-24T09:44:38.494Z</time>
      </trkpt>
      <trkpt lat="45.16836" lon="2.60571">
        <ele>997.04650878906</ele>
        <time>2020-08-24T09:44:44.637Z</time>
      </trkpt>
      <trkpt lat="45.16826" lon="2.60596">
        <ele>996.67510986328</ele>
        <time>2020-08-24T09:44:50.783Z</time>
      </trkpt>
      <trkpt lat="45.16786" lon="2.60634">
        <ele>987.60125732422</ele>
        <time>2020-08-24T09:44:56.936Z</time>
      </trkpt>
      <trkpt lat="45.1674" lon="2.60661">
        <ele>979.19476318359</ele>
        <time>2020-08-24T09:45:03.097Z</time>
      </trkpt>
      <trkpt lat="45.16699" lon="2.60652">
        <ele>962.70654296875</ele>
        <time>2020-08-24T09:45:09.265Z</time>
      </trkpt>
      <trkpt lat="45.16671" lon="2.60687">
        <ele>965.52801513672</ele>
        <time>2020-08-24T09:45:15.439Z</time>
      </trkpt>
      <trkpt lat="45.16628" lon="2.6071">
        <ele>957.30200195312</ele>
        <time>2020-08-24T09:45:21.621Z</time>
      </trkpt>
      <trkpt lat="45.16622" lon="2.60725">
        <ele>958.92395019531</ele>
        <time>2020-08-24T09:45:27.804Z</time>
      </trkpt>
      <trkpt lat="45.16629" lon="2.60763">
        <ele>969.24847412109</ele>
        <time>2020-08-24T09:45:33.992Z</time>
      </trkpt>
      <trkpt lat="45.16616" lon="2.60828">
        <ele>973.54614257812</ele>
        <time>2020-08-24T09:45:40.187Z</time>
      </trkpt>
      <trkpt lat="45.16599" lon="2.60842">
        <ele>968.33831787109</ele>
        <time>2020-08-24T09:45:46.386Z</time>
      </trkpt>
      <trkpt lat="45.16566" lon="2.60846">
        <ele>954.61627197266</ele>
        <time>2020-08-24T09:45:52.590Z</time>
      </trkpt>
      <trkpt lat="45.1655" lon="2.6091">
        <ele>962.17864990234</ele>
        <time>2020-08-24T09:45:58.802Z</time>
      </trkpt>
      <trkpt lat="45.16459" lon="2.60929">
        <ele>938.05157470703</ele>
        <time>2020-08-24T09:46:05.028Z</time>
      </trkpt>
      <trkpt lat="45.1644" lon="2.60969">
        <ele>947.39697265625</ele>
        <time>2020-08-24T09:46:11.260Z</time>
      </trkpt>
      <trkpt lat="45.16365" lon="2.61051">
        <ele>943.39691162109</ele>
        <time>2020-08-24T09:46:17.507Z</time>
      </trkpt>
      <trkpt lat="45.16365" lon="2.61051">
        <ele>943.39996337891</ele>
        <time>2020-08-24T09:46:23.754Z</time>
      </trkpt>
      <trkpt lat="45.163" lon="2.61121">
        <ele>934.85394287109</ele>
        <time>2020-08-24T09:46:30.014Z</time>
      </trkpt>
      <trkpt lat="45.16247" lon="2.61149">
        <ele>927.38165283203</ele>
        <time>2020-08-24T09:46:36.283Z</time>
      </trkpt>
      <trkpt lat="45.1622" lon="2.61183">
        <ele>927.34216308594</ele>
        <time>2020-08-24T09:46:42.558Z</time>
      </trkpt>
      <trkpt lat="45.16201" lon="2.61184">
        <ele>922.40191650391</ele>
        <time>2020-08-24T09:46:48.836Z</time>
      </trkpt>
      <trkpt lat="45.16191" lon="2.61171">
        <ele>917.49755859375</ele>
        <time>2020-08-24T09:46:55.116Z</time>
      </trkpt>
      <trkpt lat="45.16091" lon="2.61208">
        <ele>914.61145019531</ele>
        <time>2020-08-24T09:47:01.413Z</time>
      </trkpt>
      <trkpt lat="45.16021" lon="2.61259">
        <ele>919.5556640625</ele>
        <time>2020-08-24T09:47:07.722Z</time>
      </trkpt>
      <trkpt lat="45.15966" lon="2.61338">
        <ele>918.99188232422</ele>
        <time>2020-08-24T09:47:14.044Z</time>
      </trkpt>
      <trkpt lat="45.15907" lon="2.61374">
        <ele>920.43182373047</ele>
        <time>2020-08-24T09:47:20.376Z</time>
      </trkpt>
      <trkpt lat="45.15892" lon="2.61391">
        <ele>922.51727294922</ele>
        <time>2020-08-24T09:47:26.711Z</time>
      </trkpt>
      <trkpt lat="45.15873" lon="2.61425">
        <ele>925.24487304688</ele>
        <time>2020-08-24T09:47:33.051Z</time>
      </trkpt>
      <trkpt lat="45.15866" lon="2.61448">
        <ele>924.34185791016</ele>
        <time>2020-08-24T09:47:39.394Z</time>
      </trkpt>
      <trkpt lat="45.15866" lon="2.61448">
        <ele>924.34375</ele>
        <time>2020-08-24T09:47:45.737Z</time>
      </trkpt>
      <trkpt lat="45.15852" lon="2.61491">
        <ele>924.28521728516</ele>
        <time>2020-08-24T09:47:52.085Z</time>
      </trkpt>
      <trkpt lat="45.15852" lon="2.61491">
        <ele>924.28619384766</ele>
        <time>2020-08-24T09:47:58.433Z</time>
      </trkpt>
      <trkpt lat="45.15827" lon="2.61515">
        <ele>925.03881835938</ele>
        <time>2020-08-24T09:48:04.786Z</time>
      </trkpt>
      <trkpt lat="45.15827" lon="2.61515">
        <ele>925.03979492188</ele>
        <time>2020-08-24T09:48:11.139Z</time>
      </trkpt>
      <trkpt lat="45.15773" lon="2.61558">
        <ele>926.40905761719</ele>
        <time>2020-08-24T09:48:17.502Z</time>
      </trkpt>
      <trkpt lat="45.15705" lon="2.6169">
        <ele>932.05004882812</ele>
        <time>2020-08-24T09:48:23.884Z</time>
      </trkpt>
      <trkpt lat="45.15698" lon="2.61715">
        <ele>933.33587646484</ele>
        <time>2020-08-24T09:48:30.269Z</time>
      </trkpt>
      <trkpt lat="45.15701" lon="2.61768">
        <ele>937.43499755859</ele>
        <time>2020-08-24T09:48:36.660Z</time>
      </trkpt>
      <trkpt lat="45.15701" lon="2.61768">
        <ele>937.43670654297</ele>
        <time>2020-08-24T09:48:43.051Z</time>
      </trkpt>
      <trkpt lat="45.15696" lon="2.61804">
        <ele>937.87261962891</ele>
        <time>2020-08-24T09:48:49.446Z</time>
      </trkpt>
      <trkpt lat="45.15627" lon="2.61962">
        <ele>934.90240478516</ele>
        <time>2020-08-24T09:48:55.862Z</time>
      </trkpt>
      <trkpt lat="45.15606" lon="2.62008">
        <ele>934.81103515625</ele>
        <time>2020-08-24T09:49:02.284Z</time>
      </trkpt>
      <trkpt lat="45.15571" lon="2.62059">
        <ele>932.57122802734</ele>
        <time>2020-08-24T09:49:08.714Z</time>
      </trkpt>
      <trkpt lat="45.15521" lon="2.62133">
        <ele>929.03460693359</ele>
        <time>2020-08-24T09:49:15.156Z</time>
      </trkpt>
      <trkpt lat="45.15519" lon="2.62189">
        <ele>930.548828125</ele>
        <time>2020-08-24T09:49:21.604Z</time>
      </trkpt>
      <trkpt lat="45.15523" lon="2.62234">
        <ele>930.64440917969</ele>
        <time>2020-08-24T09:49:28.057Z</time>
      </trkpt>
      <trkpt lat="45.15512" lon="2.62261">
        <ele>928.990234375</ele>
        <time>2020-08-24T09:49:34.514Z</time>
      </trkpt>
      <trkpt lat="45.15492" lon="2.62302">
        <ele>925.40087890625</ele>
        <time>2020-08-24T09:49:40.976Z</time>
      </trkpt>
      <trkpt lat="45.15487" lon="2.62313">
        <ele>924.82159423828</ele>
        <time>2020-08-24T09:49:47.440Z</time>
      </trkpt>
      <trkpt lat="45.15484" lon="2.62319">
        <ele>924.47406005859</ele>
        <time>2020-08-24T09:49:53.904Z</time>
      </trkpt>
      <trkpt lat="45.15494" lon="2.6235">
        <ele>924.81085205078</ele>
        <time>2020-08-24T09:50:00.372Z</time>
      </trkpt>
      <trkpt lat="45.15549" lon="2.62382">
        <ele>930.01062011719</ele>
        <time>2020-08-24T09:50:06.850Z</time>
      </trkpt>
      <trkpt lat="45.15569" lon="2.62405">
        <ele>933.79724121094</ele>
        <time>2020-08-24T09:50:13.332Z</time>
      </trkpt>
      <trkpt lat="45.15571" lon="2.62439">
        <ele>936.84710693359</ele>
        <time>2020-08-24T09:50:19.818Z</time>
      </trkpt>
      <trkpt lat="45.1549" lon="2.626">
        <ele>937.66351318359</ele>
        <time>2020-08-24T09:50:26.326Z</time>
      </trkpt>
      <trkpt lat="45.15438" lon="2.62653">
        <ele>934.27075195312</ele>
        <time>2020-08-24T09:50:32.844Z</time>
      </trkpt>
      <trkpt lat="45.15378" lon="2.62844">
        <ele>945.99157714844</ele>
        <time>2020-08-24T09:50:39.386Z</time>
      </trkpt>
      <trkpt lat="45.15378" lon="2.62844">
        <ele>945.99542236328</ele>
        <time>2020-08-24T09:50:45.928Z</time>
      </trkpt>
      <trkpt lat="45.15371" lon="2.62881">
        <ele>948.25335693359</ele>
        <time>2020-08-24T09:50:52.475Z</time>
      </trkpt>
      <trkpt lat="45.15372" lon="2.62939">
        <ele>954.78424072266</ele>
        <time>2020-08-24T09:50:59.028Z</time>
      </trkpt>
      <trkpt lat="45.15356" lon="2.63009">
        <ele>955.02569580078</ele>
        <time>2020-08-24T09:51:05.589Z</time>
      </trkpt>
      <trkpt lat="45.1534" lon="2.63076">
        <ele>953.61303710938</ele>
        <time>2020-08-24T09:51:12.158Z</time>
      </trkpt>
      <trkpt lat="45.15334" lon="2.63161">
        <ele>956.55139160156</ele>
        <time>2020-08-24T09:51:18.737Z</time>
      </trkpt>
      <trkpt lat="45.15289" lon="2.63198">
        <ele>951.30859375</ele>
        <time>2020-08-24T09:51:25.324Z</time>
      </trkpt>
      <trkpt lat="45.15278" lon="2.63246">
        <ele>960.2705078125</ele>
        <time>2020-08-24T09:51:31.917Z</time>
      </trkpt>
      <trkpt lat="45.15264" lon="2.6328">
        <ele>961.46466064453</ele>
        <time>2020-08-24T09:51:38.515Z</time>
      </trkpt>
      <trkpt lat="45.15259" lon="2.63321">
        <ele>967.10601806641</ele>
        <time>2020-08-24T09:51:45.117Z</time>
      </trkpt>
      <trkpt lat="45.15238" lon="2.63335">
        <ele>962.03424072266</ele>
        <time>2020-08-24T09:51:51.723Z</time>
      </trkpt>
      <trkpt lat="45.15204" lon="2.63319">
        <ele>947.72717285156</ele>
        <time>2020-08-24T09:51:58.335Z</time>
      </trkpt>
      <trkpt lat="45.15188" lon="2.6332">
        <ele>945.29681396484</ele>
        <time>2020-08-24T09:52:04.949Z</time>
      </trkpt>
      <trkpt lat="45.15164" lon="2.63348">
        <ele>949.10375976562</ele>
        <time>2020-08-24T09:52:11.568Z</time>
      </trkpt>
      <trkpt lat="45.15084" lon="2.63391">
        <ele>951.55694580078</ele>
        <time>2020-08-24T09:52:18.201Z</time>
      </trkpt>
      <trkpt lat="45.15084" lon="2.63391">
        <ele>951.55883789062</ele>
        <time>2020-08-24T09:52:24.834Z</time>
      </trkpt>
      <trkpt lat="45.15068" lon="2.63402">
        <ele>951.10638427734</ele>
        <time>2020-08-24T09:52:31.470Z</time>
      </trkpt>
      <trkpt lat="45.15024" lon="2.63397">
        <ele>943.75164794922</ele>
        <time>2020-08-24T09:52:38.113Z</time>
      </trkpt>
      <trkpt lat="45.14994" lon="2.63404">
        <ele>942.47637939453</ele>
        <time>2020-08-24T09:52:44.761Z</time>
      </trkpt>
      <trkpt lat="45.14979" lon="2.63451">
        <ele>951.53515625</ele>
        <time>2020-08-24T09:52:51.415Z</time>
      </trkpt>
      <trkpt lat="45.14979" lon="2.63451">
        <ele>951.53753662109</ele>
        <time>2020-08-24T09:52:58.069Z</time>
      </trkpt>
      <trkpt lat="45.14935" lon="2.63528">
        <ele>953.18463134766</ele>
        <time>2020-08-24T09:53:04.734Z</time>
      </trkpt>
      <trkpt lat="45.14885" lon="2.63594">
        <ele>952.52514648438</ele>
        <time>2020-08-24T09:53:11.410Z</time>
      </trkpt>
      <trkpt lat="45.14843" lon="2.63646">
        <ele>947.97583007812</ele>
        <time>2020-08-24T09:53:18.095Z</time>
      </trkpt>
      <trkpt lat="45.14837" lon="2.6369">
        <ele>951.27581787109</ele>
        <time>2020-08-24T09:53:24.785Z</time>
      </trkpt>
      <trkpt lat="45.1484" lon="2.6375">
        <ele>957.65692138672</ele>
        <time>2020-08-24T09:53:31.482Z</time>
      </trkpt>
      <trkpt lat="45.14835" lon="2.6376">
        <ele>957.26159667969</ele>
        <time>2020-08-24T09:53:38.180Z</time>
      </trkpt>
      <trkpt lat="45.14788" lon="2.63791">
        <ele>952.17950439453</ele>
        <time>2020-08-24T09:53:44.886Z</time>
      </trkpt>
      <trkpt lat="45.14719" lon="2.63882">
        <ele>955.86981201172</ele>
        <time>2020-08-24T09:53:51.607Z</time>
      </trkpt>
      <trkpt lat="45.14701" lon="2.63909">
        <ele>955.84753417969</ele>
        <time>2020-08-24T09:53:58.333Z</time>
      </trkpt>
      <trkpt lat="45.14647" lon="2.63935">
        <ele>951.48156738281</ele>
        <time>2020-08-24T09:54:05.068Z</time>
      </trkpt>
      <trkpt lat="45.14612" lon="2.63948">
        <ele>948.65771484375</ele>
        <time>2020-08-24T09:54:11.809Z</time>
      </trkpt>
      <trkpt lat="45.14597" lon="2.63965">
        <ele>950.33111572266</ele>
        <time>2020-08-24T09:54:18.553Z</time>
      </trkpt>
      <trkpt lat="45.14566" lon="2.6404">
        <ele>953.88897705078</ele>
        <time>2020-08-24T09:54:25.306Z</time>
      </trkpt>
      <trkpt lat="45.14563" lon="2.64056">
        <ele>955.21478271484</ele>
        <time>2020-08-24T09:54:32.061Z</time>
      </trkpt>
      <trkpt lat="45.14577" lon="2.64144">
        <ele>969.32653808594</ele>
        <time>2020-08-24T09:54:38.827Z</time>
      </trkpt>
      <trkpt lat="45.14571" lon="2.64163">
        <ele>969.63549804688</ele>
        <time>2020-08-24T09:54:45.595Z</time>
      </trkpt>
      <trkpt lat="45.14571" lon="2.64163">
        <ele>969.63812255859</ele>
        <time>2020-08-24T09:54:52.363Z</time>
      </trkpt>
      <trkpt lat="45.14537" lon="2.64176">
        <ele>961.34759521484</ele>
        <time>2020-08-24T09:54:59.137Z</time>
      </trkpt>
      <trkpt lat="45.14529" lon="2.64192">
        <ele>962.45465087891</ele>
        <time>2020-08-24T09:55:05.913Z</time>
      </trkpt>
      <trkpt lat="45.14529" lon="2.64221">
        <ele>968.01556396484</ele>
        <time>2020-08-24T09:55:12.692Z</time>
      </trkpt>
      <trkpt lat="45.14522" lon="2.64243">
        <ele>970.92761230469</ele>
        <time>2020-08-24T09:55:19.474Z</time>
      </trkpt>
      <trkpt lat="45.14503" lon="2.64246">
        <ele>968.01843261719</ele>
        <time>2020-08-24T09:55:26.259Z</time>
      </trkpt>
      <trkpt lat="45.14471" lon="2.64277">
        <ele>967.79138183594</ele>
        <time>2020-08-24T09:55:33.050Z</time>
      </trkpt>
      <trkpt lat="45.14438" lon="2.64344">
        <ele>974.23297119141</ele>
        <time>2020-08-24T09:55:39.850Z</time>
      </trkpt>
      <trkpt lat="45.14352" lon="2.64447">
        <ele>973.00854492188</ele>
        <time>2020-08-24T09:55:46.668Z</time>
      </trkpt>
      <trkpt lat="45.14309" lon="2.64483">
        <ele>970.37640380859</ele>
        <time>2020-08-24T09:55:53.494Z</time>
      </trkpt>
      <trkpt lat="45.14249" lon="2.64516">
        <ele>969.73468017578</ele>
        <time>2020-08-24T09:56:00.331Z</time>
      </trkpt>
      <trkpt lat="45.14249" lon="2.64516">
        <ele>969.73522949219</ele>
        <time>2020-08-24T09:56:07.168Z</time>
      </trkpt>
      <trkpt lat="45.1421" lon="2.64541">
        <ele>968.61309814453</ele>
        <time>2020-08-24T09:56:14.011Z</time>
      </trkpt>
      <trkpt lat="45.14195" lon="2.64552">
        <ele>969.72015380859</ele>
        <time>2020-08-24T09:56:20.857Z</time>
      </trkpt>
      <trkpt lat="45.14162" lon="2.64612">
        <ele>977.34582519531</ele>
        <time>2020-08-24T09:56:27.712Z</time>
      </trkpt>
      <trkpt lat="45.14142" lon="2.64653">
        <ele>980.97711181641</ele>
        <time>2020-08-24T09:56:34.572Z</time>
      </trkpt>
      <trkpt lat="45.14121" lon="2.64673">
        <ele>980.89916992188</ele>
        <time>2020-08-24T09:56:41.436Z</time>
      </trkpt>
      <trkpt lat="45.14038" lon="2.64708">
        <ele>975.93701171875</ele>
        <time>2020-08-24T09:56:48.314Z</time>
      </trkpt>
      <trkpt lat="45.13997" lon="2.64823">
        <ele>987.52734375</ele>
        <time>2020-08-24T09:56:55.207Z</time>
      </trkpt>
      <trkpt lat="45.13984" lon="2.64833">
        <ele>987.17980957031</ele>
        <time>2020-08-24T09:57:02.102Z</time>
      </trkpt>
      <trkpt lat="45.13917" lon="2.64842">
        <ele>986.70330810547</ele>
        <time>2020-08-24T09:57:09.008Z</time>
      </trkpt>
      <trkpt lat="45.13891" lon="2.64895">
        <ele>993.18383789062</ele>
        <time>2020-08-24T09:57:15.921Z</time>
      </trkpt>
      <trkpt lat="45.13857" lon="2.6492">
        <ele>994.34967041016</ele>
        <time>2020-08-24T09:57:22.840Z</time>
      </trkpt>
      <trkpt lat="45.13725" lon="2.64982">
        <ele>998.71008300781</ele>
        <time>2020-08-24T09:57:29.782Z</time>
      </trkpt>
      <trkpt lat="45.13699" lon="2.65033">
        <ele>1006.5233154297</ele>
        <time>2020-08-24T09:57:36.731Z</time>
      </trkpt>
      <trkpt lat="45.13639" lon="2.65082">
        <ele>1010.1659545898</ele>
        <time>2020-08-24T09:57:43.691Z</time>
      </trkpt>
      <trkpt lat="45.13598" lon="2.65087">
        <ele>1011.6419677734</ele>
        <time>2020-08-24T09:57:50.657Z</time>
      </trkpt>
      <trkpt lat="45.13521" lon="2.65073">
        <ele>1012.9786987305</ele>
        <time>2020-08-24T09:57:57.636Z</time>
      </trkpt>
      <trkpt lat="45.13486" lon="2.65093">
        <ele>1017.7770996094</ele>
        <time>2020-08-24T09:58:04.621Z</time>
      </trkpt>
      <trkpt lat="45.13486" lon="2.65093">
        <ele>1017.7766723633</ele>
        <time>2020-08-24T09:58:11.606Z</time>
      </trkpt>
      <trkpt lat="45.13414" lon="2.65169">
        <ele>1025.3890380859</ele>
        <time>2020-08-24T09:58:18.605Z</time>
      </trkpt>
      <trkpt lat="45.13352" lon="2.65195">
        <ele>1028.7679443359</ele>
        <time>2020-08-24T09:58:25.615Z</time>
      </trkpt>
      <trkpt lat="45.1331" lon="2.65234">
        <ele>1032.5821533203</ele>
        <time>2020-08-24T09:58:32.633Z</time>
      </trkpt>
      <trkpt lat="45.13262" lon="2.65261">
        <ele>1035.9842529297</ele>
        <time>2020-08-24T09:58:39.659Z</time>
      </trkpt>
      <trkpt lat="45.13169" lon="2.65279">
        <ele>1042.2984619141</ele>
        <time>2020-08-24T09:58:46.700Z</time>
      </trkpt>
      <trkpt lat="45.13131" lon="2.65277">
        <ele>1044.0788574219</ele>
        <time>2020-08-24T09:58:53.747Z</time>
      </trkpt>
      <trkpt lat="45.13091" lon="2.65256">
        <ele>1044.8288574219</ele>
        <time>2020-08-24T09:59:00.801Z</time>
      </trkpt>
      <trkpt lat="45.13073" lon="2.65245">
        <ele>1045.6336669922</ele>
        <time>2020-08-24T09:59:07.858Z</time>
      </trkpt>
      <trkpt lat="45.13041" lon="2.65195">
        <ele>1045.6356201172</ele>
        <time>2020-08-24T09:59:14.922Z</time>
      </trkpt>
      <trkpt lat="45.13026" lon="2.65148">
        <ele>1049.8758544922</ele>
        <time>2020-08-24T09:59:21.992Z</time>
      </trkpt>
      <trkpt lat="45.1303" lon="2.65116">
        <ele>1047.7905273438</ele>
        <time>2020-08-24T09:59:29.066Z</time>
      </trkpt>
      <trkpt lat="45.1303" lon="2.65116">
        <ele>1047.7872314453</ele>
        <time>2020-08-24T09:59:36.140Z</time>
      </trkpt>
      <trkpt lat="45.1304" lon="2.65082">
        <ele>1044.0778808594</ele>
        <time>2020-08-24T09:59:43.218Z</time>
      </trkpt>
      <trkpt lat="45.1304" lon="2.65082">
        <ele>1044.0764160156</ele>
        <time>2020-08-24T09:59:50.296Z</time>
      </trkpt>
      <trkpt lat="45.13045" lon="2.65062">
        <ele>1042.4074707031</ele>
        <time>2020-08-24T09:59:57.377Z</time>
      </trkpt>
      <trkpt lat="45.13043" lon="2.65013">
        <ele>1044.1506347656</ele>
        <time>2020-08-24T10:00:04.463Z</time>
      </trkpt>
      <trkpt lat="45.13029" lon="2.64969">
        <ele>1051.9825439453</ele>
        <time>2020-08-24T10:00:11.555Z</time>
      </trkpt>
      <trkpt lat="45.13014" lon="2.64734">
        <ele>1063.849609375</ele>
        <time>2020-08-24T10:00:18.673Z</time>
      </trkpt>
      <trkpt lat="45.13021" lon="2.64627">
        <ele>1063.0858154297</ele>
        <time>2020-08-24T10:00:25.804Z</time>
      </trkpt>
      <trkpt lat="45.13016" lon="2.64569">
        <ele>1069.7965087891</ele>
        <time>2020-08-24T10:00:32.941Z</time>
      </trkpt>
      <trkpt lat="45.13023" lon="2.64508">
        <ele>1071.4468994141</ele>
        <time>2020-08-24T10:00:40.085Z</time>
      </trkpt>
      <trkpt lat="45.13037" lon="2.64455">
        <ele>1069.2985839844</ele>
        <time>2020-08-24T10:00:47.236Z</time>
      </trkpt>
      <trkpt lat="45.13037" lon="2.64422">
        <ele>1073.2889404297</ele>
        <time>2020-08-24T10:00:54.390Z</time>
      </trkpt>
      <trkpt lat="45.13035" lon="2.64398">
        <ele>1075.5611572266</ele>
        <time>2020-08-24T10:01:01.547Z</time>
      </trkpt>
      <trkpt lat="45.13012" lon="2.64373">
        <ele>1083.2829589844</ele>
        <time>2020-08-24T10:01:08.709Z</time>
      </trkpt>
      <trkpt lat="45.12983" lon="2.64361">
        <ele>1090.8248291016</ele>
        <time>2020-08-24T10:01:15.875Z</time>
      </trkpt>
      <trkpt lat="45.12884" lon="2.64378">
        <ele>1108.2204589844</ele>
        <time>2020-08-24T10:01:23.057Z</time>
      </trkpt>
      <trkpt lat="45.1285" lon="2.64377">
        <ele>1111.6741943359</ele>
        <time>2020-08-24T10:01:30.245Z</time>
      </trkpt>
      <trkpt lat="45.12826" lon="2.64361">
        <ele>1110.7602539062</ele>
        <time>2020-08-24T10:01:37.437Z</time>
      </trkpt>
      <trkpt lat="45.12806" lon="2.64357">
        <ele>1111.8930664062</ele>
        <time>2020-08-24T10:01:44.632Z</time>
      </trkpt>
      <trkpt lat="45.12771" lon="2.64364">
        <ele>1116.0244140625</ele>
        <time>2020-08-24T10:01:51.833Z</time>
      </trkpt>
      <trkpt lat="45.12742" lon="2.64354">
        <ele>1116.7196044922</ele>
        <time>2020-08-24T10:01:59.039Z</time>
      </trkpt>
      <trkpt lat="45.1272" lon="2.64316">
        <ele>1117.8482666016</ele>
        <time>2020-08-24T10:02:06.250Z</time>
      </trkpt>
      <trkpt lat="45.12713" lon="2.64287">
        <ele>1122.3021240234</ele>
        <time>2020-08-24T10:02:13.465Z</time>
      </trkpt>
      <trkpt lat="45.12726" lon="2.64264">
        <ele>1123.9993896484</ele>
        <time>2020-08-24T10:02:20.683Z</time>
      </trkpt>
      <trkpt lat="45.12781" lon="2.64213">
        <ele>1125.8763427734</ele>
        <time>2020-08-24T10:02:27.912Z</time>
      </trkpt>
      <trkpt lat="45.12812" lon="2.64147">
        <ele>1137.5490722656</ele>
        <time>2020-08-24T10:02:35.150Z</time>
      </trkpt>
      <trkpt lat="45.12852" lon="2.6412">
        <ele>1139.3002929688</ele>
        <time>2020-08-24T10:02:42.395Z</time>
      </trkpt>
      <trkpt lat="45.12881" lon="2.64117">
        <ele>1136.4102783203</ele>
        <time>2020-08-24T10:02:49.644Z</time>
      </trkpt>
      <trkpt lat="45.12942" lon="2.64071">
        <ele>1147.7032470703</ele>
        <time>2020-08-24T10:02:56.905Z</time>
      </trkpt>
      <trkpt lat="45.1294" lon="2.64057">
        <ele>1151.0216064453</ele>
        <time>2020-08-24T10:03:04.167Z</time>
      </trkpt>
      <trkpt lat="45.1293" lon="2.64047">
        <ele>1153.4544677734</ele>
        <time>2020-08-24T10:03:11.431Z</time>
      </trkpt>
      <trkpt lat="45.12901" lon="2.64057">
        <ele>1151.2174072266</ele>
        <time>2020-08-24T10:03:18.700Z</time>
      </trkpt>
      <trkpt lat="45.1284" lon="2.6406">
        <ele>1156.9420166016</ele>
        <time>2020-08-24T10:03:25.979Z</time>
      </trkpt>
      <trkpt lat="45.12782" lon="2.64088">
        <ele>1157.1431884766</ele>
        <time>2020-08-24T10:03:33.267Z</time>
      </trkpt>
      <trkpt lat="45.12768" lon="2.64089">
        <ele>1159.0340576172</ele>
        <time>2020-08-24T10:03:40.558Z</time>
      </trkpt>
      <trkpt lat="45.12682" lon="2.64109">
        <ele>1167.5665283203</ele>
        <time>2020-08-24T10:03:47.863Z</time>
      </trkpt>
      <trkpt lat="45.12649" lon="2.64106">
        <ele>1173.5650634766</ele>
        <time>2020-08-24T10:03:55.173Z</time>
      </trkpt>
      <trkpt lat="45.12576" lon="2.64134">
        <ele>1174.2956542969</ele>
        <time>2020-08-24T10:04:02.495Z</time>
      </trkpt>
      <trkpt lat="45.12408" lon="2.64231">
        <ele>1179.6557617188</ele>
        <time>2020-08-24T10:04:09.846Z</time>
      </trkpt>
      <trkpt lat="45.12299" lon="2.64307">
        <ele>1183.4851074219</ele>
        <time>2020-08-24T10:04:17.217Z</time>
      </trkpt>
      <trkpt lat="45.12252" lon="2.64352">
        <ele>1185.1700439453</ele>
        <time>2020-08-24T10:04:24.597Z</time>
      </trkpt>
      <trkpt lat="45.12148" lon="2.6443">
        <ele>1190.16015625</ele>
        <time>2020-08-24T10:04:31.995Z</time>
      </trkpt>
      <trkpt lat="45.12025" lon="2.64499">
        <ele>1203.5412597656</ele>
        <time>2020-08-24T10:04:39.415Z</time>
      </trkpt>
      <trkpt lat="45.11957" lon="2.64557">
        <ele>1207.5186767578</ele>
        <time>2020-08-24T10:04:46.847Z</time>
      </trkpt>
      <trkpt lat="45.11924" lon="2.64606">
        <ele>1206.0762939453</ele>
        <time>2020-08-24T10:04:54.287Z</time>
      </trkpt>
      <trkpt lat="45.1189" lon="2.64631">
        <ele>1208.8582763672</ele>
        <time>2020-08-24T10:05:01.733Z</time>
      </trkpt>
      <trkpt lat="45.11849" lon="2.64648">
        <ele>1212.7424316406</ele>
        <time>2020-08-24T10:05:09.186Z</time>
      </trkpt>
      <trkpt lat="45.11812" lon="2.64676">
        <ele>1211.255859375</ele>
        <time>2020-08-24T10:05:16.646Z</time>
      </trkpt>
      <trkpt lat="45.11759" lon="2.64692">
        <ele>1216.6169433594</ele>
        <time>2020-08-24T10:05:24.114Z</time>
      </trkpt>
      <trkpt lat="45.11701" lon="2.64736">
        <ele>1214.1223144531</ele>
        <time>2020-08-24T10:05:31.593Z</time>
      </trkpt>
      <trkpt lat="45.11616" lon="2.64773">
        <ele>1227.4528808594</ele>
        <time>2020-08-24T10:05:39.086Z</time>
      </trkpt>
      <trkpt lat="45.11506" lon="2.64849">
        <ele>1231.9085693359</ele>
        <time>2020-08-24T10:05:46.599Z</time>
      </trkpt>
      <trkpt lat="45.11364" lon="2.64915">
        <ele>1243.4987792969</ele>
        <time>2020-08-24T10:05:54.136Z</time>
      </trkpt>
      <trkpt lat="45.11261" lon="2.64986">
        <ele>1250.9246826172</ele>
        <time>2020-08-24T10:06:01.691Z</time>
      </trkpt>
      <trkpt lat="45.11164" lon="2.65104">
        <ele>1255.3249511719</ele>
        <time>2020-08-24T10:06:09.266Z</time>
      </trkpt>
      <trkpt lat="45.11159" lon="2.65156">
        <ele>1251.4926757812</ele>
        <time>2020-08-24T10:06:16.847Z</time>
      </trkpt>
      <trkpt lat="45.11105" lon="2.65293">
        <ele>1251.1658935547</ele>
        <time>2020-08-24T10:06:24.446Z</time>
      </trkpt>
      <trkpt lat="45.11067" lon="2.65319">
        <ele>1262.7495117188</ele>
        <time>2020-08-24T10:06:32.052Z</time>
      </trkpt>
      <trkpt lat="45.11067" lon="2.65319">
        <ele>1262.7462158203</ele>
        <time>2020-08-24T10:06:39.658Z</time>
      </trkpt>
      <trkpt lat="45.11022" lon="2.65595">
        <ele>1269.8720703125</ele>
        <time>2020-08-24T10:06:47.296Z</time>
      </trkpt>
      <trkpt lat="45.11026" lon="2.65786">
        <ele>1274.2210693359</ele>
        <time>2020-08-24T10:06:54.956Z</time>
      </trkpt>
      <trkpt lat="45.1102" lon="2.6592">
        <ele>1286.7993164062</ele>
        <time>2020-08-24T10:07:02.631Z</time>
      </trkpt>
      <trkpt lat="45.11026" lon="2.66045">
        <ele>1288.3403320312</ele>
        <time>2020-08-24T10:07:10.320Z</time>
      </trkpt>
      <trkpt lat="45.11021" lon="2.66134">
        <ele>1290.1333007812</ele>
        <time>2020-08-24T10:07:18.019Z</time>
      </trkpt>
      <trkpt lat="45.1101" lon="2.66174">
        <ele>1291.2893066406</ele>
        <time>2020-08-24T10:07:25.723Z</time>
      </trkpt>
      <trkpt lat="45.10934" lon="2.66266">
        <ele>1306.3254394531</ele>
        <time>2020-08-24T10:07:33.443Z</time>
      </trkpt>
      <trkpt lat="45.10878" lon="2.66356">
        <ele>1310.8543701172</ele>
        <time>2020-08-24T10:07:41.177Z</time>
      </trkpt>
      <trkpt lat="45.10844" lon="2.66443">
        <ele>1313.3311767578</ele>
        <time>2020-08-24T10:07:48.922Z</time>
      </trkpt>
      <trkpt lat="45.10842" lon="2.6648">
        <ele>1315.0483398438</ele>
        <time>2020-08-24T10:07:56.671Z</time>
      </trkpt>
      <trkpt lat="45.10926" lon="2.66651">
        <ele>1329.7412109375</ele>
        <time>2020-08-24T10:08:04.444Z</time>
      </trkpt>
      <trkpt lat="45.10998" lon="2.66721">
        <ele>1358.2784423828</ele>
        <time>2020-08-24T10:08:12.231Z</time>
      </trkpt>
      <trkpt lat="45.11113" lon="2.66696">
        <ele>1376.8533935547</ele>
        <time>2020-08-24T10:08:20.036Z</time>
      </trkpt>
      <trkpt lat="45.11326" lon="2.66616">
        <ele>1401.2464599609</ele>
        <time>2020-08-24T10:08:27.877Z</time>
      </trkpt>
      <trkpt lat="45.11456" lon="2.66505">
        <ele>1418.9509277344</ele>
        <time>2020-08-24T10:08:35.742Z</time>
      </trkpt>
      <trkpt lat="45.11578" lon="2.66443">
        <ele>1431.8509521484</ele>
        <time>2020-08-24T10:08:43.628Z</time>
      </trkpt>
      <trkpt lat="45.11642" lon="2.664">
        <ele>1429.1650390625</ele>
        <time>2020-08-24T10:08:51.525Z</time>
      </trkpt>
      <trkpt lat="45.11673" lon="2.66403">
        <ele>1429.9759521484</ele>
        <time>2020-08-24T10:08:59.427Z</time>
      </trkpt>
      <trkpt lat="45.11826" lon="2.66552">
        <ele>1467.3266601562</ele>
        <time>2020-08-24T10:09:07.359Z</time>
      </trkpt>
      <trkpt lat="45.11878" lon="2.66581">
        <ele>1474.5745849609</ele>
        <time>2020-08-24T10:09:15.300Z</time>
      </trkpt>
      <trkpt lat="45.11933" lon="2.66596">
        <ele>1482.0563964844</ele>
        <time>2020-08-24T10:09:23.250Z</time>
      </trkpt>
      <trkpt lat="45.11938" lon="2.66611">
        <ele>1489.1491699219</ele>
        <time>2020-08-24T10:09:31.202Z</time>
      </trkpt>
      <trkpt lat="45.11812" lon="2.66622">
        <ele>1501.6665039062</ele>
        <time>2020-08-24T10:09:39.174Z</time>
      </trkpt>
      <trkpt lat="45.11764" lon="2.66608">
        <ele>1502.9411621094</ele>
        <time>2020-08-24T10:09:47.154Z</time>
      </trkpt>
      <trkpt lat="45.11749" lon="2.66597">
        <ele>1500.4182128906</ele>
        <time>2020-08-24T10:09:55.136Z</time>
      </trkpt>
      <trkpt lat="45.11725" lon="2.66594">
        <ele>1504.9621582031</ele>
        <time>2020-08-24T10:10:03.122Z</time>
      </trkpt>
      <trkpt lat="45.11702" lon="2.66603">
        <ele>1511.2006835938</ele>
        <time>2020-08-24T10:10:11.112Z</time>
      </trkpt>
      <trkpt lat="45.11678" lon="2.66628">
        <ele>1520.4946289062</ele>
        <time>2020-08-24T10:10:19.107Z</time>
      </trkpt>
      <trkpt lat="45.11658" lon="2.66663">
        <ele>1530.8698730469</ele>
        <time>2020-08-24T10:10:27.107Z</time>
      </trkpt>
      <trkpt lat="45.11644" lon="2.66709">
        <ele>1544.8494873047</ele>
        <time>2020-08-24T10:10:35.113Z</time>
      </trkpt>
      <trkpt lat="45.11629" lon="2.6681">
        <ele>1565.2807617188</ele>
        <time>2020-08-24T10:10:43.130Z</time>
      </trkpt>
      <trkpt lat="45.11608" lon="2.66878">
        <ele>1570.8615722656</ele>
        <time>2020-08-24T10:10:51.156Z</time>
      </trkpt>
      <trkpt lat="45.11556" lon="2.67009">
        <ele>1579.4288330078</ele>
        <time>2020-08-24T10:10:59.199Z</time>
      </trkpt>
      <trkpt lat="45.11516" lon="2.67074">
        <ele>1582.1702880859</ele>
        <time>2020-08-24T10:11:07.251Z</time>
      </trkpt>
      <trkpt lat="45.11462" lon="2.67128">
        <ele>1571.4548339844</ele>
        <time>2020-08-24T10:11:15.314Z</time>
      </trkpt>
      <trkpt lat="45.1141" lon="2.67175">
        <ele>1574.0961914062</ele>
        <time>2020-08-24T10:11:23.387Z</time>
      </trkpt>
      <trkpt lat="45.11411" lon="2.67181">
        <ele>1571.9078369141</ele>
        <time>2020-08-24T10:11:31.461Z</time>
      </trkpt>
      <trkpt lat="45.11423" lon="2.6717">
        <ele>1574.5618896484</ele>
        <time>2020-08-24T10:11:39.537Z</time>
      </trkpt>
      <trkpt lat="45.1143" lon="2.67167">
        <ele>1572.9815673828</ele>
        <time>2020-08-24T10:11:47.614Z</time>
      </trkpt>
      <trkpt lat="45.1143" lon="2.67167">
        <ele>1572.982421875</ele>
        <time>2020-08-24T10:11:55.691Z</time>
      </trkpt>
      <trkpt lat="45.11423" lon="2.6717">
        <ele>1574.5618896484</ele>
        <time>2020-08-24T10:12:03.769Z</time>
      </trkpt>
      <trkpt lat="45.11411" lon="2.67181">
        <ele>1571.9078369141</ele>
        <time>2020-08-24T10:12:11.850Z</time>
      </trkpt>
      <trkpt lat="45.11374" lon="2.6723">
        <ele>1571.6003417969</ele>
        <time>2020-08-24T10:12:19.939Z</time>
      </trkpt>
      <trkpt lat="45.11338" lon="2.67276">
        <ele>1569.8863525391</ele>
        <time>2020-08-24T10:12:28.035Z</time>
      </trkpt>
      <trkpt lat="45.1126" lon="2.67485">
        <ele>1551.7115478516</ele>
        <time>2020-08-24T10:12:36.158Z</time>
      </trkpt>
      <trkpt lat="45.11245" lon="2.67546">
        <ele>1544.5617675781</ele>
        <time>2020-08-24T10:12:44.289Z</time>
      </trkpt>
      <trkpt lat="45.11189" lon="2.67679">
        <ele>1539.1311035156</ele>
        <time>2020-08-24T10:12:52.437Z</time>
      </trkpt>
      <trkpt lat="45.11178" lon="2.67881">
        <ele>1512.7593994141</ele>
        <time>2020-08-24T10:13:00.608Z</time>
      </trkpt>
      <trkpt lat="45.11183" lon="2.67904">
        <ele>1508.7275390625</ele>
        <time>2020-08-24T10:13:08.782Z</time>
      </trkpt>
      <trkpt lat="45.1121" lon="2.67952">
        <ele>1488.6156005859</ele>
        <time>2020-08-24T10:13:16.963Z</time>
      </trkpt>
      <trkpt lat="45.11218" lon="2.68022">
        <ele>1474.1684570312</ele>
        <time>2020-08-24T10:13:25.152Z</time>
      </trkpt>
      <trkpt lat="45.11189" lon="2.681">
        <ele>1490.2463378906</ele>
        <time>2020-08-24T10:13:33.351Z</time>
      </trkpt>
      <trkpt lat="45.11195" lon="2.68174">
        <ele>1478.7943115234</ele>
        <time>2020-08-24T10:13:41.558Z</time>
      </trkpt>
      <trkpt lat="45.11187" lon="2.68191">
        <ele>1478.2922363281</ele>
        <time>2020-08-24T10:13:49.767Z</time>
      </trkpt>
      <trkpt lat="45.11155" lon="2.68206">
        <ele>1492.2974853516</ele>
        <time>2020-08-24T10:13:57.982Z</time>
      </trkpt>
      <trkpt lat="45.11147" lon="2.68218">
        <ele>1493.2757568359</ele>
        <time>2020-08-24T10:14:06.199Z</time>
      </trkpt>
      <trkpt lat="45.11152" lon="2.68287">
        <ele>1473.0192871094</ele>
        <time>2020-08-24T10:14:14.424Z</time>
      </trkpt>
      <trkpt lat="45.11134" lon="2.6835">
        <ele>1470.9256591797</ele>
        <time>2020-08-24T10:14:22.656Z</time>
      </trkpt>
      <trkpt lat="45.11114" lon="2.68374">
        <ele>1468.9152832031</ele>
        <time>2020-08-24T10:14:30.892Z</time>
      </trkpt>
      <trkpt lat="45.11083" lon="2.68386">
        <ele>1474.6057128906</ele>
        <time>2020-08-24T10:14:39.134Z</time>
      </trkpt>
      <trkpt lat="45.11036" lon="2.68367">
        <ele>1493.5544433594</ele>
        <time>2020-08-24T10:14:47.383Z</time>
      </trkpt>
      <trkpt lat="45.11036" lon="2.68367">
        <ele>1493.5532226562</ele>
        <time>2020-08-24T10:14:55.632Z</time>
      </trkpt>
      <trkpt lat="45.10999" lon="2.68336">
        <ele>1498.4407958984</ele>
        <time>2020-08-24T10:15:03.888Z</time>
      </trkpt>
      <trkpt lat="45.10979" lon="2.68325">
        <ele>1500.7965087891</ele>
        <time>2020-08-24T10:15:12.148Z</time>
      </trkpt>
      <trkpt lat="45.10917" lon="2.68293">
        <ele>1501.9403076172</ele>
        <time>2020-08-24T10:15:20.418Z</time>
      </trkpt>
      <trkpt lat="45.10907" lon="2.68295">
        <ele>1498.1944580078</ele>
        <time>2020-08-24T10:15:28.690Z</time>
      </trkpt>
      <trkpt lat="45.10907" lon="2.68305">
        <ele>1493.3309326172</ele>
        <time>2020-08-24T10:15:36.963Z</time>
      </trkpt>
      <trkpt lat="45.1096" lon="2.68344">
        <ele>1488.4946289062</ele>
        <time>2020-08-24T10:15:45.246Z</time>
      </trkpt>
      <trkpt lat="45.11038" lon="2.68429">
        <ele>1471.498046875</ele>
        <time>2020-08-24T10:15:53.544Z</time>
      </trkpt>
      <trkpt lat="45.11077" lon="2.68464">
        <ele>1452.0227050781</ele>
        <time>2020-08-24T10:16:01.850Z</time>
      </trkpt>
      <trkpt lat="45.11083" lon="2.6848">
        <ele>1444.3493652344</ele>
        <time>2020-08-24T10:16:10.158Z</time>
      </trkpt>
      <trkpt lat="45.1109" lon="2.68528">
        <ele>1432.6929931641</ele>
        <time>2020-08-24T10:16:18.471Z</time>
      </trkpt>
      <trkpt lat="45.11122" lon="2.68561">
        <ele>1427.8400878906</ele>
        <time>2020-08-24T10:16:26.791Z</time>
      </trkpt>
      <trkpt lat="45.11234" lon="2.68631">
        <ele>1415.5975341797</ele>
        <time>2020-08-24T10:16:35.130Z</time>
      </trkpt>
      <trkpt lat="45.11234" lon="2.68631">
        <ele>1415.5985107422</ele>
        <time>2020-08-24T10:16:43.469Z</time>
      </trkpt>
      <trkpt lat="45.11301" lon="2.68642">
        <ele>1406.6380615234</ele>
        <time>2020-08-24T10:16:51.819Z</time>
      </trkpt>
      <trkpt lat="45.1134" lon="2.68653">
        <ele>1396.9708251953</ele>
        <time>2020-08-24T10:17:00.175Z</time>
      </trkpt>
      <trkpt lat="45.11365" lon="2.68684">
        <ele>1390.5009765625</ele>
        <time>2020-08-24T10:17:08.537Z</time>
      </trkpt>
      <trkpt lat="45.11376" lon="2.68713">
        <ele>1387.2314453125</ele>
        <time>2020-08-24T10:17:16.902Z</time>
      </trkpt>
      <trkpt lat="45.11381" lon="2.68741">
        <ele>1385.1737060547</ele>
        <time>2020-08-24T10:17:25.271Z</time>
      </trkpt>
      <trkpt lat="45.11387" lon="2.68912">
        <ele>1385.6214599609</ele>
        <time>2020-08-24T10:17:33.659Z</time>
      </trkpt>
      <trkpt lat="45.11401" lon="2.68961">
        <ele>1384.8104248047</ele>
        <time>2020-08-24T10:17:42.053Z</time>
      </trkpt>
      <trkpt lat="45.11428" lon="2.68995">
        <ele>1382.4031982422</ele>
        <time>2020-08-24T10:17:50.453Z</time>
      </trkpt>
      <trkpt lat="45.11538" lon="2.69073">
        <ele>1379.146484375</ele>
        <time>2020-08-24T10:17:58.873Z</time>
      </trkpt>
      <trkpt lat="45.11583" lon="2.69118">
        <ele>1378.8647460938</ele>
        <time>2020-08-24T10:18:07.301Z</time>
      </trkpt>
      <trkpt lat="45.11583" lon="2.69118">
        <ele>1378.8656005859</ele>
        <time>2020-08-24T10:18:15.729Z</time>
      </trkpt>
      <trkpt lat="45.11605" lon="2.69147">
        <ele>1379.2111816406</ele>
        <time>2020-08-24T10:18:24.162Z</time>
      </trkpt>
      <trkpt lat="45.11605" lon="2.69147">
        <ele>1379.2106933594</ele>
        <time>2020-08-24T10:18:32.595Z</time>
      </trkpt>
      <trkpt lat="45.11652" lon="2.69209">
        <ele>1375.8922119141</ele>
        <time>2020-08-24T10:18:41.038Z</time>
      </trkpt>
      <trkpt lat="45.11769" lon="2.69285">
        <ele>1371.9997558594</ele>
        <time>2020-08-24T10:18:49.502Z</time>
      </trkpt>
      <trkpt lat="45.11881" lon="2.6939">
        <ele>1366.6680908203</ele>
        <time>2020-08-24T10:18:57.988Z</time>
      </trkpt>
      <trkpt lat="45.11967" lon="2.69452">
        <ele>1370.2763671875</ele>
        <time>2020-08-24T10:19:06.489Z</time>
      </trkpt>
      <trkpt lat="45.12037" lon="2.69514">
        <ele>1371.2984619141</ele>
        <time>2020-08-24T10:19:15.003Z</time>
      </trkpt>
      <trkpt lat="45.12064" lon="2.69528">
        <ele>1373.3679199219</ele>
        <time>2020-08-24T10:19:23.522Z</time>
      </trkpt>
      <trkpt lat="45.12121" lon="2.69591">
        <ele>1367.9566650391</ele>
        <time>2020-08-24T10:19:32.053Z</time>
      </trkpt>
      <trkpt lat="45.12179" lon="2.69636">
        <ele>1362.6214599609</ele>
        <time>2020-08-24T10:19:40.594Z</time>
      </trkpt>
      <trkpt lat="45.12333" lon="2.69722">
        <ele>1355.3229980469</ele>
        <time>2020-08-24T10:19:49.162Z</time>
      </trkpt>
      <trkpt lat="45.12482" lon="2.6977">
        <ele>1352.0339355469</ele>
        <time>2020-08-24T10:19:57.754Z</time>
      </trkpt>
      <trkpt lat="45.12532" lon="2.69808">
        <ele>1347.6831054688</ele>
        <time>2020-08-24T10:20:06.355Z</time>
      </trkpt>
      <trkpt lat="45.12586" lon="2.69864">
        <ele>1349.3848876953</ele>
        <time>2020-08-24T10:20:14.967Z</time>
      </trkpt>
      <trkpt lat="45.12722" lon="2.70091">
        <ele>1343.3905029297</ele>
        <time>2020-08-24T10:20:23.613Z</time>
      </trkpt>
      <trkpt lat="45.12785" lon="2.70164">
        <ele>1333.1953125</ele>
        <time>2020-08-24T10:20:32.272Z</time>
      </trkpt>
      <trkpt lat="45.12868" lon="2.70185">
        <ele>1338.0577392578</ele>
        <time>2020-08-24T10:20:40.944Z</time>
      </trkpt>
      <trkpt lat="45.12954" lon="2.70235">
        <ele>1331.2626953125</ele>
        <time>2020-08-24T10:20:49.631Z</time>
      </trkpt>
      <trkpt lat="45.12962" lon="2.70237">
        <ele>1330.5279541016</ele>
        <time>2020-08-24T10:20:58.319Z</time>
      </trkpt>
      <trkpt lat="45.13015" lon="2.70261">
        <ele>1325.9777832031</ele>
        <time>2020-08-24T10:21:07.016Z</time>
      </trkpt>
      <trkpt lat="45.13044" lon="2.70274">
        <ele>1324.7001953125</ele>
        <time>2020-08-24T10:21:15.718Z</time>
      </trkpt>
      <trkpt lat="45.13039" lon="2.70322">
        <ele>1326.7629394531</ele>
        <time>2020-08-24T10:21:24.426Z</time>
      </trkpt>
      <trkpt lat="45.13055" lon="2.70362">
        <ele>1325.7219238281</ele>
        <time>2020-08-24T10:21:33.139Z</time>
      </trkpt>
      <trkpt lat="45.13101" lon="2.70424">
        <ele>1325.1655273438</ele>
        <time>2020-08-24T10:21:41.862Z</time>
      </trkpt>
      <trkpt lat="45.13157" lon="2.70625">
        <ele>1327.4056396484</ele>
        <time>2020-08-24T10:21:50.609Z</time>
      </trkpt>
      <trkpt lat="45.13219" lon="2.70862">
        <ele>1323.8781738281</ele>
        <time>2020-08-24T10:21:59.385Z</time>
      </trkpt>
      <trkpt lat="45.13244" lon="2.71059">
        <ele>1312.5882568359</ele>
        <time>2020-08-24T10:22:08.184Z</time>
      </trkpt>
      <trkpt lat="45.13243" lon="2.71187">
        <ele>1305.1497802734</ele>
        <time>2020-08-24T10:22:16.997Z</time>
      </trkpt>
      <trkpt lat="45.13243" lon="2.71187">
        <ele>1305.1534423828</ele>
        <time>2020-08-24T10:22:25.810Z</time>
      </trkpt>
      <trkpt lat="45.1325" lon="2.7128">
        <ele>1298.9903564453</ele>
        <time>2020-08-24T10:22:34.634Z</time>
      </trkpt>
      <trkpt lat="45.13277" lon="2.71393">
        <ele>1298.7293701172</ele>
        <time>2020-08-24T10:22:43.471Z</time>
      </trkpt>
      <trkpt lat="45.13342" lon="2.71808">
        <ele>1276.7220458984</ele>
        <time>2020-08-24T10:22:52.356Z</time>
      </trkpt>
      <trkpt lat="45.13371" lon="2.72064">
        <ele>1258.4197998047</ele>
        <time>2020-08-24T10:23:01.271Z</time>
      </trkpt>
      <trkpt lat="45.13381" lon="2.72103">
        <ele>1256.271484375</ele>
        <time>2020-08-24T10:23:10.190Z</time>
      </trkpt>
      <trkpt lat="45.13431" lon="2.722">
        <ele>1254.6538085938</ele>
        <time>2020-08-24T10:23:19.123Z</time>
      </trkpt>
      <trkpt lat="45.13438" lon="2.72223">
        <ele>1253.5338134766</ele>
        <time>2020-08-24T10:23:28.059Z</time>
      </trkpt>
      <trkpt lat="45.13439" lon="2.72281">
        <ele>1245.7399902344</ele>
        <time>2020-08-24T10:23:37.002Z</time>
      </trkpt>
      <trkpt lat="45.13468" lon="2.72332">
        <ele>1249.5572509766</ele>
        <time>2020-08-24T10:23:45.952Z</time>
      </trkpt>
      <trkpt lat="45.13444" lon="2.72394">
        <ele>1244.1556396484</ele>
        <time>2020-08-24T10:23:54.910Z</time>
      </trkpt>
      <trkpt lat="45.13456" lon="2.72576">
        <ele>1246.9141845703</ele>
        <time>2020-08-24T10:24:03.889Z</time>
      </trkpt>
      <trkpt lat="45.1349" lon="2.728">
        <ele>1239.5400390625</ele>
        <time>2020-08-24T10:24:12.894Z</time>
      </trkpt>
      <trkpt lat="45.13545" lon="2.72993">
        <ele>1228.2939453125</ele>
        <time>2020-08-24T10:24:21.922Z</time>
      </trkpt>
      <trkpt lat="45.13609" lon="2.73136">
        <ele>1211.5043945312</ele>
        <time>2020-08-24T10:24:30.969Z</time>
      </trkpt>
      <trkpt lat="45.13633" lon="2.73178">
        <ele>1209.8397216797</ele>
        <time>2020-08-24T10:24:40.022Z</time>
      </trkpt>
      <trkpt lat="45.1363" lon="2.73212">
        <ele>1205.2442626953</ele>
        <time>2020-08-24T10:24:49.079Z</time>
      </trkpt>
      <trkpt lat="45.13621" lon="2.73252">
        <ele>1198.5090332031</ele>
        <time>2020-08-24T10:24:58.141Z</time>
      </trkpt>
      <trkpt lat="45.13624" lon="2.73316">
        <ele>1195.9583740234</ele>
        <time>2020-08-24T10:25:07.210Z</time>
      </trkpt>
      <trkpt lat="45.13616" lon="2.73349">
        <ele>1192.0003662109</ele>
        <time>2020-08-24T10:25:16.283Z</time>
      </trkpt>
      <trkpt lat="45.13616" lon="2.73349">
        <ele>1192.0026855469</ele>
        <time>2020-08-24T10:25:25.356Z</time>
      </trkpt>
      <trkpt lat="45.13611" lon="2.73491">
        <ele>1184.0126953125</ele>
        <time>2020-08-24T10:25:34.445Z</time>
      </trkpt>
      <trkpt lat="45.13617" lon="2.73563">
        <ele>1179.5141601562</ele>
        <time>2020-08-24T10:25:43.543Z</time>
      </trkpt>
      <trkpt lat="45.13617" lon="2.73563">
        <ele>1179.5164794922</ele>
        <time>2020-08-24T10:25:52.641Z</time>
      </trkpt>
      <trkpt lat="45.13614" lon="2.73612">
        <ele>1174.9714355469</ele>
        <time>2020-08-24T10:26:01.744Z</time>
      </trkpt>
      <trkpt lat="45.1362" lon="2.73692">
        <ele>1170.298828125</ele>
        <time>2020-08-24T10:26:10.856Z</time>
      </trkpt>
      <trkpt lat="45.13681" lon="2.73851">
        <ele>1168.2913818359</ele>
        <time>2020-08-24T10:26:19.989Z</time>
      </trkpt>
      <trkpt lat="45.13695" lon="2.73922">
        <ele>1162.8846435547</ele>
        <time>2020-08-24T10:26:29.130Z</time>
      </trkpt>
      <trkpt lat="45.1373" lon="2.73996">
        <ele>1160.0134277344</ele>
        <time>2020-08-24T10:26:38.281Z</time>
      </trkpt>
      <trkpt lat="45.13724" lon="2.74052">
        <ele>1151.8341064453</ele>
        <time>2020-08-24T10:26:47.439Z</time>
      </trkpt>
      <trkpt lat="45.13743" lon="2.74102">
        <ele>1151.5895996094</ele>
        <time>2020-08-24T10:26:56.603Z</time>
      </trkpt>
      <trkpt lat="45.13769" lon="2.74324">
        <ele>1133.4436035156</ele>
        <time>2020-08-24T10:27:05.792Z</time>
      </trkpt>
      <trkpt lat="45.13787" lon="2.74379">
        <ele>1131.5511474609</ele>
        <time>2020-08-24T10:27:14.988Z</time>
      </trkpt>
      <trkpt lat="45.13806" lon="2.74415">
        <ele>1132.4311523438</ele>
        <time>2020-08-24T10:27:24.189Z</time>
      </trkpt>
      <trkpt lat="45.13812" lon="2.74428">
        <ele>1132.5751953125</ele>
        <time>2020-08-24T10:27:33.392Z</time>
      </trkpt>
      <trkpt lat="45.1383" lon="2.74547">
        <ele>1125.6605224609</ele>
        <time>2020-08-24T10:27:42.609Z</time>
      </trkpt>
      <trkpt lat="45.13843" lon="2.74575">
        <ele>1126.1643066406</ele>
        <time>2020-08-24T10:27:51.830Z</time>
      </trkpt>
      <trkpt lat="45.13856" lon="2.74595">
        <ele>1126.9869384766</ele>
        <time>2020-08-24T10:28:01.054Z</time>
      </trkpt>
      <trkpt lat="45.1387" lon="2.74643">
        <ele>1125.1976318359</ele>
        <time>2020-08-24T10:28:10.284Z</time>
      </trkpt>
      <trkpt lat="45.13923" lon="2.74717">
        <ele>1128.24609375</ele>
        <time>2020-08-24T10:28:19.526Z</time>
      </trkpt>
      <trkpt lat="45.13945" lon="2.74781">
        <ele>1125.2005615234</ele>
        <time>2020-08-24T10:28:28.776Z</time>
      </trkpt>
      <trkpt lat="45.13975" lon="2.74812">
        <ele>1127.7580566406</ele>
        <time>2020-08-24T10:28:38.032Z</time>
      </trkpt>
      <trkpt lat="45.13999" lon="2.74864">
        <ele>1124.9200439453</ele>
        <time>2020-08-24T10:28:47.295Z</time>
      </trkpt>
      <trkpt lat="45.14033" lon="2.74918">
        <ele>1123.5551757812</ele>
        <time>2020-08-24T10:28:56.566Z</time>
      </trkpt>
      <trkpt lat="45.14043" lon="2.74976">
        <ele>1118.2259521484</ele>
        <time>2020-08-24T10:29:05.844Z</time>
      </trkpt>
      <trkpt lat="45.14053" lon="2.74997">
        <ele>1117.8909912109</ele>
        <time>2020-08-24T10:29:15.124Z</time>
      </trkpt>
      <trkpt lat="45.14096" lon="2.7506">
        <ele>1121.4318847656</ele>
        <time>2020-08-24T10:29:24.414Z</time>
      </trkpt>
      <trkpt lat="45.14133" lon="2.75246">
        <ele>1116.0850830078</ele>
        <time>2020-08-24T10:29:33.726Z</time>
      </trkpt>
      <trkpt lat="45.14164" lon="2.75341">
        <ele>1117.5477294922</ele>
        <time>2020-08-24T10:29:43.050Z</time>
      </trkpt>
      <trkpt lat="45.14201" lon="2.75447">
        <ele>1117.0866699219</ele>
        <time>2020-08-24T10:29:52.387Z</time>
      </trkpt>
      <trkpt lat="45.14215" lon="2.75558">
        <ele>1112.8748779297</ele>
        <time>2020-08-24T10:30:01.737Z</time>
      </trkpt>
      <trkpt lat="45.14258" lon="2.75704">
        <ele>1116.9562988281</ele>
        <time>2020-08-24T10:30:11.105Z</time>
      </trkpt>
      <trkpt lat="45.14277" lon="2.75872">
        <ele>1115.4874267578</ele>
        <time>2020-08-24T10:30:20.492Z</time>
      </trkpt>
      <trkpt lat="45.14283" lon="2.75925">
        <ele>1116.3587646484</ele>
        <time>2020-08-24T10:30:29.886Z</time>
      </trkpt>
      <trkpt lat="45.1428" lon="2.76133">
        <ele>1113.6822509766</ele>
        <time>2020-08-24T10:30:39.303Z</time>
      </trkpt>
      <trkpt lat="45.14242" lon="2.7635">
        <ele>1104.3697509766</ele>
        <time>2020-08-24T10:30:48.745Z</time>
      </trkpt>
      <trkpt lat="45.14235" lon="2.76402">
        <ele>1103.3006591797</ele>
        <time>2020-08-24T10:30:58.193Z</time>
      </trkpt>
      <trkpt lat="45.14233" lon="2.76519">
        <ele>1101.7596435547</ele>
        <time>2020-08-24T10:31:07.655Z</time>
      </trkpt>
      <trkpt lat="45.14245" lon="2.76575">
        <ele>1099.7698974609</ele>
        <time>2020-08-24T10:31:17.123Z</time>
      </trkpt>
      <trkpt lat="45.14292" lon="2.7672">
        <ele>1102.5648193359</ele>
        <time>2020-08-24T10:31:26.609Z</time>
      </trkpt>
      <trkpt lat="45.14349" lon="2.7685">
        <ele>1096.0333251953</ele>
        <time>2020-08-24T10:31:36.113Z</time>
      </trkpt>
      <trkpt lat="45.14349" lon="2.7685">
        <ele>1096.0357666016</ele>
        <time>2020-08-24T10:31:45.617Z</time>
      </trkpt>
      <trkpt lat="45.14382" lon="2.76923">
        <ele>1091.3970947266</ele>
        <time>2020-08-24T10:31:55.130Z</time>
      </trkpt>
      <trkpt lat="45.14494" lon="2.77068">
        <ele>1085.5788574219</ele>
        <time>2020-08-24T10:32:04.668Z</time>
      </trkpt>
      <trkpt lat="45.14533" lon="2.77156">
        <ele>1080.015625</ele>
        <time>2020-08-24T10:32:14.218Z</time>
      </trkpt>
      <trkpt lat="45.14566" lon="2.77198">
        <ele>1078.1052246094</ele>
        <time>2020-08-24T10:32:23.775Z</time>
      </trkpt>
      <trkpt lat="45.14566" lon="2.77198">
        <ele>1078.1062011719</ele>
        <time>2020-08-24T10:32:33.332Z</time>
      </trkpt>
      <trkpt lat="45.14758" lon="2.7733">
        <ele>1071.4444580078</ele>
        <time>2020-08-24T10:32:42.923Z</time>
      </trkpt>
      <trkpt lat="45.14839" lon="2.77402">
        <ele>1069.2677001953</ele>
        <time>2020-08-24T10:32:52.529Z</time>
      </trkpt>
      <trkpt lat="45.14839" lon="2.77402">
        <ele>1069.2680664062</ele>
        <time>2020-08-24T10:33:02.135Z</time>
      </trkpt>
      <trkpt lat="45.1488" lon="2.7744">
        <ele>1067.4085693359</ele>
        <time>2020-08-24T10:33:11.749Z</time>
      </trkpt>
      <trkpt lat="45.14915" lon="2.77467">
        <ele>1065.1558837891</ele>
        <time>2020-08-24T10:33:21.369Z</time>
      </trkpt>
      <trkpt lat="45.14962" lon="2.77484">
        <ele>1065.6160888672</ele>
        <time>2020-08-24T10:33:30.997Z</time>
      </trkpt>
      <trkpt lat="45.15015" lon="2.77521">
        <ele>1065.9890136719</ele>
        <time>2020-08-24T10:33:40.635Z</time>
      </trkpt>
      <trkpt lat="45.15132" lon="2.77629">
        <ele>1061.1427001953</ele>
        <time>2020-08-24T10:33:50.295Z</time>
      </trkpt>
      <trkpt lat="45.15195" lon="2.77699">
        <ele>1060.9776611328</ele>
        <time>2020-08-24T10:33:59.968Z</time>
      </trkpt>
      <trkpt lat="45.15317" lon="2.77798">
        <ele>1077.7897949219</ele>
        <time>2020-08-24T10:34:09.663Z</time>
      </trkpt>
      <trkpt lat="45.15329" lon="2.77817">
        <ele>1078.4077148438</ele>
        <time>2020-08-24T10:34:19.361Z</time>
      </trkpt>
      <trkpt lat="45.1535" lon="2.77876">
        <ele>1071.2028808594</ele>
        <time>2020-08-24T10:34:29.067Z</time>
      </trkpt>
      <trkpt lat="45.15374" lon="2.78057">
        <ele>1057.396484375</ele>
        <time>2020-08-24T10:34:38.793Z</time>
      </trkpt>
      <trkpt lat="45.15394" lon="2.78118">
        <ele>1057.9350585938</ele>
        <time>2020-08-24T10:34:48.527Z</time>
      </trkpt>
      <trkpt lat="45.15429" lon="2.78186">
        <ele>1060.0983886719</ele>
        <time>2020-08-24T10:34:58.271Z</time>
      </trkpt>
      <trkpt lat="45.15491" lon="2.78261">
        <ele>1057.4399414062</ele>
        <time>2020-08-24T10:35:08.028Z</time>
      </trkpt>
      <trkpt lat="45.15491" lon="2.78261">
        <ele>1057.4399414062</ele>
        <time>2020-08-24T10:35:17.785Z</time>
      </trkpt>
      <trkpt lat="45.155" lon="2.78273">
        <ele>1057.8483886719</ele>
        <time>2020-08-24T10:35:27.544Z</time>
      </trkpt>
      <trkpt lat="45.15549" lon="2.78347">
        <ele>1058.9571533203</ele>
        <time>2020-08-24T10:35:37.314Z</time>
      </trkpt>
      <trkpt lat="45.15549" lon="2.78347">
        <ele>1058.9580078125</ele>
        <time>2020-08-24T10:35:47.084Z</time>
      </trkpt>
      <trkpt lat="45.15652" lon="2.78479">
        <ele>1062.0147705078</ele>
        <time>2020-08-24T10:35:56.876Z</time>
      </trkpt>
      <trkpt lat="45.15775" lon="2.78662">
        <ele>1068.5651855469</ele>
        <time>2020-08-24T10:36:06.697Z</time>
      </trkpt>
      <trkpt lat="45.1578" lon="2.78667">
        <ele>1068.9127197266</ele>
        <time>2020-08-24T10:36:16.519Z</time>
      </trkpt>
      <trkpt lat="45.15813" lon="2.78688">
        <ele>1071.9862060547</ele>
        <time>2020-08-24T10:36:26.347Z</time>
      </trkpt>
      <trkpt lat="45.15834" lon="2.78729">
        <ele>1072.6911621094</ele>
        <time>2020-08-24T10:36:36.180Z</time>
      </trkpt>
      <trkpt lat="45.15849" lon="2.78811">
        <ele>1072.1400146484</ele>
        <time>2020-08-24T10:36:46.023Z</time>
      </trkpt>
      <trkpt lat="45.15848" lon="2.78849">
        <ele>1071.2760009766</ele>
        <time>2020-08-24T10:36:55.870Z</time>
      </trkpt>
      <trkpt lat="45.1583" lon="2.78909">
        <ele>1067.0601806641</ele>
        <time>2020-08-24T10:37:05.725Z</time>
      </trkpt>
      <trkpt lat="45.15809" lon="2.78993">
        <ele>1060.6877441406</ele>
        <time>2020-08-24T10:37:15.590Z</time>
      </trkpt>
      <trkpt lat="45.15807" lon="2.79134">
        <ele>1057.0457763672</ele>
        <time>2020-08-24T10:37:25.471Z</time>
      </trkpt>
      <trkpt lat="45.15883" lon="2.795">
        <ele>1054.8001708984</ele>
        <time>2020-08-24T10:37:35.395Z</time>
      </trkpt>
      <trkpt lat="45.15917" lon="2.79604">
        <ele>1052.8951416016</ele>
        <time>2020-08-24T10:37:45.332Z</time>
      </trkpt>
      <trkpt lat="45.15938" lon="2.79741">
        <ele>1053.0389404297</ele>
        <time>2020-08-24T10:37:55.285Z</time>
      </trkpt>
      <trkpt lat="45.15946" lon="2.79841">
        <ele>1052.4748535156</ele>
        <time>2020-08-24T10:38:05.249Z</time>
      </trkpt>
      <trkpt lat="45.15986" lon="2.8">
        <ele>1050.5705566406</ele>
        <time>2020-08-24T10:38:15.232Z</time>
      </trkpt>
      <trkpt lat="45.15986" lon="2.8">
        <ele>1050.5697021484</ele>
        <time>2020-08-24T10:38:25.215Z</time>
      </trkpt>
      <trkpt lat="45.1601" lon="2.80157">
        <ele>1051.0910644531</ele>
        <time>2020-08-24T10:38:35.216Z</time>
      </trkpt>
      <trkpt lat="45.16053" lon="2.80255">
        <ele>1051.9626464844</ele>
        <time>2020-08-24T10:38:45.231Z</time>
      </trkpt>
      <trkpt lat="45.16091" lon="2.80374">
        <ele>1055.0454101562</ele>
        <time>2020-08-24T10:38:55.260Z</time>
      </trkpt>
      <trkpt lat="45.16139" lon="2.8063">
        <ele>1050.5650634766</ele>
        <time>2020-08-24T10:39:05.319Z</time>
      </trkpt>
      <trkpt lat="45.1615" lon="2.80746">
        <ele>1047.1435546875</ele>
        <time>2020-08-24T10:39:15.392Z</time>
      </trkpt>
      <trkpt lat="45.16181" lon="2.80879">
        <ele>1045.5675048828</ele>
        <time>2020-08-24T10:39:25.480Z</time>
      </trkpt>
      <trkpt lat="45.16198" lon="2.81011">
        <ele>1045.1723632812</ele>
        <time>2020-08-24T10:39:35.584Z</time>
      </trkpt>
      <trkpt lat="45.16205" lon="2.81076">
        <ele>1044.7733154297</ele>
        <time>2020-08-24T10:39:45.695Z</time>
      </trkpt>
      <trkpt lat="45.16207" lon="2.81255">
        <ele>1044.8507080078</ele>
        <time>2020-08-24T10:39:55.826Z</time>
      </trkpt>
      <trkpt lat="45.16234" lon="2.81338">
        <ele>1044.5522460938</ele>
        <time>2020-08-24T10:40:05.968Z</time>
      </trkpt>
      <trkpt lat="45.16298" lon="2.81461">
        <ele>1044.8865966797</ele>
        <time>2020-08-24T10:40:16.127Z</time>
      </trkpt>
      <trkpt lat="45.16312" lon="2.81511">
        <ele>1045.5023193359</ele>
        <time>2020-08-24T10:40:26.292Z</time>
      </trkpt>
      <trkpt lat="45.16319" lon="2.81558">
        <ele>1045.7901611328</ele>
        <time>2020-08-24T10:40:36.462Z</time>
      </trkpt>
      <trkpt lat="45.16312" lon="2.81613">
        <ele>1045.2725830078</ele>
        <time>2020-08-24T10:40:46.639Z</time>
      </trkpt>
      <trkpt lat="45.16209" lon="2.81893">
        <ele>1040.0378417969</ele>
        <time>2020-08-24T10:40:56.851Z</time>
      </trkpt>
      <trkpt lat="45.16216" lon="2.81996">
        <ele>1041.6685791016</ele>
        <time>2020-08-24T10:41:07.075Z</time>
      </trkpt>
      <trkpt lat="45.16206" lon="2.8206">
        <ele>1044.2166748047</ele>
        <time>2020-08-24T10:41:17.307Z</time>
      </trkpt>
      <trkpt lat="45.16208" lon="2.82091">
        <ele>1045.2562255859</ele>
        <time>2020-08-24T10:41:27.542Z</time>
      </trkpt>
      <trkpt lat="45.16225" lon="2.82135">
        <ele>1046.5977783203</ele>
        <time>2020-08-24T10:41:37.783Z</time>
      </trkpt>
      <trkpt lat="45.16238" lon="2.8217">
        <ele>1047.5767822266</ele>
        <time>2020-08-24T10:41:48.028Z</time>
      </trkpt>
      <trkpt lat="45.16241" lon="2.82238">
        <ele>1050.2019042969</ele>
        <time>2020-08-24T10:41:58.281Z</time>
      </trkpt>
      <trkpt lat="45.1624" lon="2.82275">
        <ele>1051.3620605469</ele>
        <time>2020-08-24T10:42:08.538Z</time>
      </trkpt>
      <trkpt lat="45.1625" lon="2.82322">
        <ele>1050.8054199219</ele>
        <time>2020-08-24T10:42:18.801Z</time>
      </trkpt>
      <trkpt lat="45.16308" lon="2.82424">
        <ele>1047.6925048828</ele>
        <time>2020-08-24T10:42:29.079Z</time>
      </trkpt>
      <trkpt lat="45.16308" lon="2.82424">
        <ele>1047.693359375</ele>
        <time>2020-08-24T10:42:39.357Z</time>
      </trkpt>
      <trkpt lat="45.16319" lon="2.82441">
        <ele>1046.4576416016</ele>
        <time>2020-08-24T10:42:49.637Z</time>
      </trkpt>
      <trkpt lat="45.16327" lon="2.82474">
        <ele>1045.4670410156</ele>
        <time>2020-08-24T10:42:59.921Z</time>
      </trkpt>
      <trkpt lat="45.16328" lon="2.82615">
        <ele>1045.9727783203</ele>
        <time>2020-08-24T10:43:10.221Z</time>
      </trkpt>
      <trkpt lat="45.16355" lon="2.82665">
        <ele>1044.0975341797</ele>
        <time>2020-08-24T10:43:20.528Z</time>
      </trkpt>
      <trkpt lat="45.16388" lon="2.82732">
        <ele>1045.0660400391</ele>
        <time>2020-08-24T10:43:30.844Z</time>
      </trkpt>
      <trkpt lat="45.16458" lon="2.82889">
        <ele>1054.3570556641</ele>
        <time>2020-08-24T10:43:41.182Z</time>
      </trkpt>
      <trkpt lat="45.16481" lon="2.82921">
        <ele>1055.4592285156</ele>
        <time>2020-08-24T10:43:51.525Z</time>
      </trkpt>
      <trkpt lat="45.1652" lon="2.82952">
        <ele>1055.5678710938</ele>
        <time>2020-08-24T10:44:01.875Z</time>
      </trkpt>
      <trkpt lat="45.1655" lon="2.83001">
        <ele>1057.6522216797</ele>
        <time>2020-08-24T10:44:12.232Z</time>
      </trkpt>
      <trkpt lat="45.16571" lon="2.83063">
        <ele>1060.3828125</ele>
        <time>2020-08-24T10:44:22.597Z</time>
      </trkpt>
      <trkpt lat="45.166" lon="2.83201">
        <ele>1067.4329833984</ele>
        <time>2020-08-24T10:44:32.978Z</time>
      </trkpt>
      <trkpt lat="45.16617" lon="2.83247">
        <ele>1069.6705322266</ele>
        <time>2020-08-24T10:44:43.365Z</time>
      </trkpt>
      <trkpt lat="45.16693" lon="2.83409">
        <ele>1077.9837646484</ele>
        <time>2020-08-24T10:44:53.774Z</time>
      </trkpt>
      <trkpt lat="45.1673" lon="2.83454">
        <ele>1078.3579101562</ele>
        <time>2020-08-24T10:45:04.191Z</time>
      </trkpt>
      <trkpt lat="45.16734" lon="2.8347">
        <ele>1079.7224121094</ele>
        <time>2020-08-24T10:45:14.610Z</time>
      </trkpt>
      <trkpt lat="45.16725" lon="2.83501">
        <ele>1084.5882568359</ele>
        <time>2020-08-24T10:45:25.033Z</time>
      </trkpt>
      <trkpt lat="45.16774" lon="2.83542">
        <ele>1083.1079101562</ele>
        <time>2020-08-24T10:45:35.465Z</time>
      </trkpt>
      <trkpt lat="45.16852" lon="2.8359">
        <ele>1079.2868652344</ele>
        <time>2020-08-24T10:45:45.910Z</time>
      </trkpt>
      <trkpt lat="45.16998" lon="2.83651">
        <ele>1074.4548339844</ele>
        <time>2020-08-24T10:45:56.380Z</time>
      </trkpt>
      <trkpt lat="45.17102" lon="2.83683">
        <ele>1074.6845703125</ele>
        <time>2020-08-24T10:46:06.867Z</time>
      </trkpt>
      <trkpt lat="45.17288" lon="2.83677">
        <ele>1067.1379394531</ele>
        <time>2020-08-24T10:46:17.384Z</time>
      </trkpt>
      <trkpt lat="45.17464" lon="2.83711">
        <ele>1058.3409423828</ele>
        <time>2020-08-24T10:46:27.929Z</time>
      </trkpt>
      <trkpt lat="45.1759" lon="2.83752">
        <ele>1054.8431396484</ele>
        <time>2020-08-24T10:46:38.495Z</time>
      </trkpt>
      <trkpt lat="45.17693" lon="2.838">
        <ele>1051.0479736328</ele>
        <time>2020-08-24T10:46:49.078Z</time>
      </trkpt>
      <trkpt lat="45.17901" lon="2.83927">
        <ele>1043.1654052734</ele>
        <time>2020-08-24T10:46:59.697Z</time>
      </trkpt>
      <trkpt lat="45.17971" lon="2.83961">
        <ele>1042.1044921875</ele>
        <time>2020-08-24T10:47:10.328Z</time>
      </trkpt>
      <trkpt lat="45.18042" lon="2.83963">
        <ele>1041.0048828125</ele>
        <time>2020-08-24T10:47:20.970Z</time>
      </trkpt>
      <trkpt lat="45.18104" lon="2.83935">
        <ele>1040.9708251953</ele>
        <time>2020-08-24T10:47:31.623Z</time>
      </trkpt>
      <trkpt lat="45.18138" lon="2.83904">
        <ele>1041.5942382812</ele>
        <time>2020-08-24T10:47:42.282Z</time>
      </trkpt>
      <trkpt lat="45.18173" lon="2.83857">
        <ele>1041.6658935547</ele>
        <time>2020-08-24T10:47:52.949Z</time>
      </trkpt>
      <trkpt lat="45.18263" lon="2.8367">
        <ele>1043.9886474609</ele>
        <time>2020-08-24T10:48:03.642Z</time>
      </trkpt>
      <trkpt lat="45.183" lon="2.83621">
        <ele>1041.9858398438</ele>
        <time>2020-08-24T10:48:14.343Z</time>
      </trkpt>
      <trkpt lat="45.18518" lon="2.83478">
        <ele>1039.80859375</ele>
        <time>2020-08-24T10:48:25.082Z</time>
      </trkpt>
      <trkpt lat="45.18622" lon="2.83398">
        <ele>1038.2985839844</ele>
        <time>2020-08-24T10:48:35.840Z</time>
      </trkpt>
      <trkpt lat="45.18829" lon="2.83209">
        <ele>1034.4497070312</ele>
        <time>2020-08-24T10:48:46.638Z</time>
      </trkpt>
      <trkpt lat="45.19033" lon="2.82981">
        <ele>1035.0333251953</ele>
        <time>2020-08-24T10:48:57.477Z</time>
      </trkpt>
      <trkpt lat="45.19085" lon="2.82934">
        <ele>1034.1740722656</ele>
        <time>2020-08-24T10:49:08.326Z</time>
      </trkpt>
      <trkpt lat="45.19189" lon="2.82874">
        <ele>1040.2028808594</ele>
        <time>2020-08-24T10:49:19.193Z</time>
      </trkpt>
      <trkpt lat="45.19244" lon="2.82819">
        <ele>1045.0245361328</ele>
        <time>2020-08-24T10:49:30.071Z</time>
      </trkpt>
      <trkpt lat="45.19278" lon="2.82765">
        <ele>1044.8580322266</ele>
        <time>2020-08-24T10:49:40.957Z</time>
      </trkpt>
      <trkpt lat="45.19337" lon="2.82646">
        <ele>1044.41796875</ele>
        <time>2020-08-24T10:49:51.859Z</time>
      </trkpt>
      <trkpt lat="45.19449" lon="2.8249">
        <ele>1033.9500732422</ele>
        <time>2020-08-24T10:50:02.787Z</time>
      </trkpt>
      <trkpt lat="45.19449" lon="2.8249">
        <ele>1033.9497070312</ele>
        <time>2020-08-24T10:50:13.715Z</time>
      </trkpt>
      <trkpt lat="45.19528" lon="2.82384">
        <ele>1038.3857421875</ele>
        <time>2020-08-24T10:50:24.660Z</time>
      </trkpt>
      <trkpt lat="45.19578" lon="2.82296">
        <ele>1044.5797119141</ele>
        <time>2020-08-24T10:50:35.618Z</time>
      </trkpt>
      <trkpt lat="45.19627" lon="2.82188">
        <ele>1043.1717529297</ele>
        <time>2020-08-24T10:50:46.590Z</time>
      </trkpt>
      <trkpt lat="45.19671" lon="2.82119">
        <ele>1038.6276855469</ele>
        <time>2020-08-24T10:50:57.573Z</time>
      </trkpt>
      <trkpt lat="45.19735" lon="2.82072">
        <ele>1032.05078125</ele>
        <time>2020-08-24T10:51:08.567Z</time>
      </trkpt>
      <trkpt lat="45.19803" lon="2.82058">
        <ele>1030.1401367188</ele>
        <time>2020-08-24T10:51:19.572Z</time>
      </trkpt>
      <trkpt lat="45.1984" lon="2.82064">
        <ele>1027.4884033203</ele>
        <time>2020-08-24T10:51:30.583Z</time>
      </trkpt>
      <trkpt lat="45.19887" lon="2.8209">
        <ele>1026.2229003906</ele>
        <time>2020-08-24T10:51:41.602Z</time>
      </trkpt>
      <trkpt lat="45.20007" lon="2.82216">
        <ele>1023.0453491211</ele>
        <time>2020-08-24T10:51:52.645Z</time>
      </trkpt>
      <trkpt lat="45.20082" lon="2.82261">
        <ele>1022.9780883789</ele>
        <time>2020-08-24T10:52:03.701Z</time>
      </trkpt>
      <trkpt lat="45.2042" lon="2.82326">
        <ele>1022.8930664062</ele>
        <time>2020-08-24T10:52:14.812Z</time>
      </trkpt>
      <trkpt lat="45.2042" lon="2.82326">
        <ele>1022.8931274414</ele>
        <time>2020-08-24T10:52:25.923Z</time>
      </trkpt>
      <trkpt lat="45.20502" lon="2.82337">
        <ele>1023.8903198242</ele>
        <time>2020-08-24T10:52:37.047Z</time>
      </trkpt>
      <trkpt lat="45.20568" lon="2.82333">
        <ele>1025.2381591797</ele>
        <time>2020-08-24T10:52:48.182Z</time>
      </trkpt>
      <trkpt lat="45.20814" lon="2.82278">
        <ele>1021.9243164062</ele>
        <time>2020-08-24T10:52:59.357Z</time>
      </trkpt>
      <trkpt lat="45.20876" lon="2.82291">
        <ele>1020.8983154297</ele>
        <time>2020-08-24T10:53:10.542Z</time>
      </trkpt>
      <trkpt lat="45.21041" lon="2.82356">
        <ele>1018.2730712891</ele>
        <time>2020-08-24T10:53:21.754Z</time>
      </trkpt>
      <trkpt lat="45.21084" lon="2.82359">
        <ele>1016.5213012695</ele>
        <time>2020-08-24T10:53:32.973Z</time>
      </trkpt>
      <trkpt lat="45.21129" lon="2.82352">
        <ele>1015.5815429688</ele>
        <time>2020-08-24T10:53:44.199Z</time>
      </trkpt>
      <trkpt lat="45.21291" lon="2.82309">
        <ele>1014.357421875</ele>
        <time>2020-08-24T10:53:55.452Z</time>
      </trkpt>
      <trkpt lat="45.21291" lon="2.82309">
        <ele>1014.357421875</ele>
        <time>2020-08-24T10:54:06.705Z</time>
      </trkpt>
      <trkpt lat="45.21523" lon="2.82245">
        <ele>1016.8636474609</ele>
        <time>2020-08-24T10:54:17.995Z</time>
      </trkpt>
      <trkpt lat="45.21647" lon="2.82191">
        <ele>1016.7609863281</ele>
        <time>2020-08-24T10:54:29.306Z</time>
      </trkpt>
      <trkpt lat="45.21738" lon="2.82124">
        <ele>1020.285949707</ele>
        <time>2020-08-24T10:54:40.633Z</time>
      </trkpt>
      <trkpt lat="45.21996" lon="2.8188">
        <ele>1032.06640625</ele>
        <time>2020-08-24T10:54:52.010Z</time>
      </trkpt>
      <trkpt lat="45.21996" lon="2.8188">
        <ele>1032.0659179688</ele>
        <time>2020-08-24T10:55:03.387Z</time>
      </trkpt>
      <trkpt lat="45.22183" lon="2.81701">
        <ele>1040.9404296875</ele>
        <time>2020-08-24T10:55:14.800Z</time>
      </trkpt>
      <trkpt lat="45.22183" lon="2.81701">
        <ele>1040.9398193359</ele>
        <time>2020-08-24T10:55:26.213Z</time>
      </trkpt>
      <trkpt lat="45.22285" lon="2.81598">
        <ele>1041.9814453125</ele>
        <time>2020-08-24T10:55:37.646Z</time>
      </trkpt>
      <trkpt lat="45.2237" lon="2.81475">
        <ele>1042.4991455078</ele>
        <time>2020-08-24T10:55:49.099Z</time>
      </trkpt>
      <trkpt lat="45.22374" lon="2.81479">
        <ele>1042.5124511719</ele>
        <time>2020-08-24T10:56:00.553Z</time>
      </trkpt>
      <trkpt lat="45.22374" lon="2.81479">
        <ele>1042.5122070312</ele>
        <time>2020-08-24T10:56:12.007Z</time>
      </trkpt>
      <trkpt lat="45.22374" lon="2.81479">
        <ele>1042.5124511719</ele>
        <time>2020-08-24T10:56:23.461Z</time>
      </trkpt>
      <trkpt lat="45.22421" lon="2.8152">
        <ele>1043.8510742188</ele>
        <time>2020-08-24T10:56:34.923Z</time>
      </trkpt>
      <trkpt lat="45.22503" lon="2.81561">
        <ele>1043.8699951172</ele>
        <time>2020-08-24T10:56:46.399Z</time>
      </trkpt>
      <trkpt lat="45.2251" lon="2.81656">
        <ele>1044.8765869141</ele>
        <time>2020-08-24T10:56:57.886Z</time>
      </trkpt>
      <trkpt lat="45.2251" lon="2.81662">
        <ele>1045.0311279297</ele>
        <time>2020-08-24T10:57:09.374Z</time>
      </trkpt>
      <trkpt lat="45.2251" lon="2.81681">
        <ele>1045.4947509766</ele>
        <time>2020-08-24T10:57:20.864Z</time>
      </trkpt>
      <trkpt lat="45.22528" lon="2.81693">
        <ele>1045.1214599609</ele>
        <time>2020-08-24T10:57:32.357Z</time>
      </trkpt>
      <trkpt lat="45.2257" lon="2.81677">
        <ele>1042.6951904297</ele>
        <time>2020-08-24T10:57:43.857Z</time>
      </trkpt>
      <trkpt lat="45.22596" lon="2.81686">
        <ele>1041.458984375</ele>
        <time>2020-08-24T10:57:55.361Z</time>
      </trkpt>
      <trkpt lat="45.22604" lon="2.81657">
        <ele>1040.1496582031</ele>
        <time>2020-08-24T10:58:06.869Z</time>
      </trkpt>
      <trkpt lat="45.22616" lon="2.81634">
        <ele>1038.2269287109</ele>
        <time>2020-08-24T10:58:18.380Z</time>
      </trkpt>
      <trkpt lat="45.22665" lon="2.81594">
        <ele>1033.626953125</ele>
        <time>2020-08-24T10:58:29.900Z</time>
      </trkpt>
      <trkpt lat="45.22703" lon="2.81592">
        <ele>1031.64453125</ele>
        <time>2020-08-24T10:58:41.426Z</time>
      </trkpt>
      <trkpt lat="45.22753" lon="2.81619">
        <ele>1033.4337158203</ele>
        <time>2020-08-24T10:58:52.961Z</time>
      </trkpt>
      <trkpt lat="45.22869" lon="2.81529">
        <ele>1030.7056884766</ele>
        <time>2020-08-24T10:59:04.517Z</time>
      </trkpt>
      <trkpt lat="45.23009" lon="2.81458">
        <ele>1021.3717041016</ele>
        <time>2020-08-24T10:59:16.097Z</time>
      </trkpt>
      <trkpt lat="45.23054" lon="2.81413">
        <ele>1016.1740722656</ele>
        <time>2020-08-24T10:59:27.686Z</time>
      </trkpt>
      <trkpt lat="45.23073" lon="2.81378">
        <ele>1014.1273803711</ele>
        <time>2020-08-24T10:59:39.280Z</time>
      </trkpt>
      <trkpt lat="45.23115" lon="2.81217">
        <ele>1012.14453125</ele>
        <time>2020-08-24T10:59:50.893Z</time>
      </trkpt>
      <trkpt lat="45.23156" lon="2.81162">
        <ele>1015.1466064453</ele>
        <time>2020-08-24T11:00:02.515Z</time>
      </trkpt>
      <trkpt lat="45.23249" lon="2.81129">
        <ele>1015.1057739258</ele>
        <time>2020-08-24T11:00:14.152Z</time>
      </trkpt>
      <trkpt lat="45.23305" lon="2.81098">
        <ele>1012.6416625977</ele>
        <time>2020-08-24T11:00:25.799Z</time>
      </trkpt>
      <trkpt lat="45.23386" lon="2.81003">
        <ele>1011.2662353516</ele>
        <time>2020-08-24T11:00:37.463Z</time>
      </trkpt>
      <trkpt lat="45.23487" lon="2.80986">
        <ele>1013.6654663086</ele>
        <time>2020-08-24T11:00:49.143Z</time>
      </trkpt>
      <trkpt lat="45.235" lon="2.80978">
        <ele>1014.4506835938</ele>
        <time>2020-08-24T11:01:00.825Z</time>
      </trkpt>
      <trkpt lat="45.23563" lon="2.8091">
        <ele>1017.8994140625</ele>
        <time>2020-08-24T11:01:12.520Z</time>
      </trkpt>
      <trkpt lat="45.23679" lon="2.80866">
        <ele>1021.0620727539</ele>
        <time>2020-08-24T11:01:24.234Z</time>
      </trkpt>
      <trkpt lat="45.23775" lon="2.80737">
        <ele>1020.6654052734</ele>
        <time>2020-08-24T11:01:35.969Z</time>
      </trkpt>
      <trkpt lat="45.23845" lon="2.8057">
        <ele>1024.0810546875</ele>
        <time>2020-08-24T11:01:47.726Z</time>
      </trkpt>
      <trkpt lat="45.23845" lon="2.8057">
        <ele>1024.0811767578</ele>
        <time>2020-08-24T11:01:59.483Z</time>
      </trkpt>
      <trkpt lat="45.23871" lon="2.80544">
        <ele>1024.6990966797</ele>
        <time>2020-08-24T11:02:11.245Z</time>
      </trkpt>
      <trkpt lat="45.2397" lon="2.80539">
        <ele>1024.8868408203</ele>
        <time>2020-08-24T11:02:23.023Z</time>
      </trkpt>
      <trkpt lat="45.24072" lon="2.80505">
        <ele>1030.2554931641</ele>
        <time>2020-08-24T11:02:34.818Z</time>
      </trkpt>
      <trkpt lat="45.24185" lon="2.8052">
        <ele>1034.6949462891</ele>
        <time>2020-08-24T11:02:46.631Z</time>
      </trkpt>
      <trkpt lat="45.24331" lon="2.80546">
        <ele>1035.2403564453</ele>
        <time>2020-08-24T11:02:58.468Z</time>
      </trkpt>
      <trkpt lat="45.24361" lon="2.80545">
        <ele>1034.0715332031</ele>
        <time>2020-08-24T11:03:10.310Z</time>
      </trkpt>
      <trkpt lat="45.24478" lon="2.80498">
        <ele>1031.1568603516</ele>
        <time>2020-08-24T11:03:22.171Z</time>
      </trkpt>
      <trkpt lat="45.24534" lon="2.80453">
        <ele>1036.4686279297</ele>
        <time>2020-08-24T11:03:34.042Z</time>
      </trkpt>
      <trkpt lat="45.24569" lon="2.80438">
        <ele>1035.7834472656</ele>
        <time>2020-08-24T11:03:45.919Z</time>
      </trkpt>
      <trkpt lat="45.24633" lon="2.80441">
        <ele>1030.7373046875</ele>
        <time>2020-08-24T11:03:57.807Z</time>
      </trkpt>
      <trkpt lat="45.24633" lon="2.80441">
        <ele>1030.7381591797</ele>
        <time>2020-08-24T11:04:09.695Z</time>
      </trkpt>
      <trkpt lat="45.24688" lon="2.80446">
        <ele>1027.8526611328</ele>
        <time>2020-08-24T11:04:21.591Z</time>
      </trkpt>
      <trkpt lat="45.24784" lon="2.80414">
        <ele>1030.5711669922</ele>
        <time>2020-08-24T11:04:33.503Z</time>
      </trkpt>
      <trkpt lat="45.24845" lon="2.80402">
        <ele>1029.3298339844</ele>
        <time>2020-08-24T11:04:45.425Z</time>
      </trkpt>
      <trkpt lat="45.24982" lon="2.80343">
        <ele>1018.5891723633</ele>
        <time>2020-08-24T11:04:57.370Z</time>
      </trkpt>
      <trkpt lat="45.25027" lon="2.80302">
        <ele>1014.0283203125</ele>
        <time>2020-08-24T11:05:09.323Z</time>
      </trkpt>
      <trkpt lat="45.25084" lon="2.80201">
        <ele>1011.9224243164</ele>
        <time>2020-08-24T11:05:21.291Z</time>
      </trkpt>
      <trkpt lat="45.25098" lon="2.80192">
        <ele>1010.390625</ele>
        <time>2020-08-24T11:05:33.262Z</time>
      </trkpt>
      <trkpt lat="45.25137" lon="2.80199">
        <ele>1005.237121582</ele>
        <time>2020-08-24T11:05:45.239Z</time>
      </trkpt>
      <trkpt lat="45.25182" lon="2.80204">
        <ele>1000.4212646484</ele>
        <time>2020-08-24T11:05:57.223Z</time>
      </trkpt>
      <trkpt lat="45.25202" lon="2.80194">
        <ele>998.92803955078</ele>
        <time>2020-08-24T11:06:09.210Z</time>
      </trkpt>
      <trkpt lat="45.25248" lon="2.80155">
        <ele>995.36206054688</ele>
        <time>2020-08-24T11:06:21.206Z</time>
      </trkpt>
      <trkpt lat="45.25275" lon="2.80114">
        <ele>993.84155273438</ele>
        <time>2020-08-24T11:06:33.208Z</time>
      </trkpt>
      <trkpt lat="45.25286" lon="2.80085">
        <ele>993.73089599609</ele>
        <time>2020-08-24T11:06:45.214Z</time>
      </trkpt>
      <trkpt lat="45.25292" lon="2.8">
        <ele>990.29144287109</ele>
        <time>2020-08-24T11:06:57.230Z</time>
      </trkpt>
      <trkpt lat="45.25292" lon="2.8">
        <ele>990.29278564453</ele>
        <time>2020-08-24T11:07:09.246Z</time>
      </trkpt>
      <trkpt lat="45.2529" lon="2.79924">
        <ele>986.05639648438</ele>
        <time>2020-08-24T11:07:21.270Z</time>
      </trkpt>
      <trkpt lat="45.25301" lon="2.79903">
        <ele>985.11456298828</ele>
        <time>2020-08-24T11:07:33.297Z</time>
      </trkpt>
      <trkpt lat="45.25335" lon="2.79868">
        <ele>984.25500488281</ele>
        <time>2020-08-24T11:07:45.331Z</time>
      </trkpt>
      <trkpt lat="45.25345" lon="2.79847">
        <ele>982.78753662109</ele>
        <time>2020-08-24T11:07:57.368Z</time>
      </trkpt>
      <trkpt lat="45.25351" lon="2.79748">
        <ele>978.60205078125</ele>
        <time>2020-08-24T11:08:09.416Z</time>
      </trkpt>
      <trkpt lat="45.25373" lon="2.79709">
        <ele>976.38317871094</ele>
        <time>2020-08-24T11:08:21.470Z</time>
      </trkpt>
      <trkpt lat="45.25396" lon="2.79681">
        <ele>974.28350830078</ele>
        <time>2020-08-24T11:08:33.529Z</time>
      </trkpt>
      <trkpt lat="45.25406" lon="2.79656">
        <ele>971.42785644531</ele>
        <time>2020-08-24T11:08:45.591Z</time>
      </trkpt>
      <trkpt lat="45.25373" lon="2.79526">
        <ele>961.12152099609</ele>
        <time>2020-08-24T11:08:57.668Z</time>
      </trkpt>
      <trkpt lat="45.25401" lon="2.79559">
        <ele>960.58618164062</ele>
        <time>2020-08-24T11:09:09.751Z</time>
      </trkpt>
      <trkpt lat="45.2543" lon="2.79578">
        <ele>958.26910400391</ele>
        <time>2020-08-24T11:09:21.839Z</time>
      </trkpt>
      <trkpt lat="45.25449" lon="2.7958">
        <ele>955.16687011719</ele>
        <time>2020-08-24T11:09:33.931Z</time>
      </trkpt>
      <trkpt lat="45.25472" lon="2.79566">
        <ele>951.54455566406</ele>
        <time>2020-08-24T11:09:46.027Z</time>
      </trkpt>
      <trkpt lat="45.25528" lon="2.79558">
        <ele>947.06408691406</ele>
        <time>2020-08-24T11:09:58.132Z</time>
      </trkpt>
      <trkpt lat="45.25537" lon="2.79506">
        <ele>946.22717285156</ele>
        <time>2020-08-24T11:10:10.243Z</time>
      </trkpt>
      <trkpt lat="45.25535" lon="2.79472">
        <ele>947.19250488281</ele>
        <time>2020-08-24T11:10:22.357Z</time>
      </trkpt>
      <trkpt lat="45.25607" lon="2.79429">
        <ele>946.90191650391</ele>
        <time>2020-08-24T11:10:34.484Z</time>
      </trkpt>
      <trkpt lat="45.25642" lon="2.79404">
        <ele>951.10479736328</ele>
        <time>2020-08-24T11:10:46.617Z</time>
      </trkpt>
      <trkpt lat="45.25685" lon="2.79396">
        <ele>957.33508300781</ele>
        <time>2020-08-24T11:10:58.757Z</time>
      </trkpt>
      <trkpt lat="45.25703" lon="2.79404">
        <ele>958.7451171875</ele>
        <time>2020-08-24T11:11:10.900Z</time>
      </trkpt>
      <trkpt lat="45.25836" lon="2.79512">
        <ele>967.02563476562</ele>
        <time>2020-08-24T11:11:23.068Z</time>
      </trkpt>
      <trkpt lat="45.25943" lon="2.7967">
        <ele>963.47088623047</ele>
        <time>2020-08-24T11:11:35.261Z</time>
      </trkpt>
      <trkpt lat="45.25958" lon="2.79683">
        <ele>962.53790283203</ele>
        <time>2020-08-24T11:11:47.456Z</time>
      </trkpt>
      <trkpt lat="45.2598" lon="2.79679">
        <ele>959.98217773438</ele>
        <time>2020-08-24T11:11:59.655Z</time>
      </trkpt>
      <trkpt lat="45.25994" lon="2.79666">
        <ele>960.32879638672</ele>
        <time>2020-08-24T11:12:11.857Z</time>
      </trkpt>
      <trkpt lat="45.26027" lon="2.79599">
        <ele>966.13592529297</ele>
        <time>2020-08-24T11:12:24.068Z</time>
      </trkpt>
      <trkpt lat="45.26075" lon="2.79541">
        <ele>966.13653564453</ele>
        <time>2020-08-24T11:12:36.289Z</time>
      </trkpt>
      <trkpt lat="45.26099" lon="2.79497">
        <ele>969.14923095703</ele>
        <time>2020-08-24T11:12:48.516Z</time>
      </trkpt>
      <trkpt lat="45.26166" lon="2.79395">
        <ele>967.99444580078</ele>
        <time>2020-08-24T11:13:00.759Z</time>
      </trkpt>
      <trkpt lat="45.26198" lon="2.7936">
        <ele>967.60711669922</ele>
        <time>2020-08-24T11:13:13.008Z</time>
      </trkpt>
      <trkpt lat="45.26198" lon="2.7936">
        <ele>967.60827636719</ele>
        <time>2020-08-24T11:13:25.257Z</time>
      </trkpt>
      <trkpt lat="45.26223" lon="2.79339">
        <ele>967.30151367188</ele>
        <time>2020-08-24T11:13:37.511Z</time>
      </trkpt>
      <trkpt lat="45.26249" lon="2.79337">
        <ele>965.95623779297</ele>
        <time>2020-08-24T11:13:49.769Z</time>
      </trkpt>
      <trkpt lat="45.26276" lon="2.79322">
        <ele>966.14929199219</ele>
        <time>2020-08-24T11:14:02.032Z</time>
      </trkpt>
      <trkpt lat="45.26322" lon="2.79265">
        <ele>971.3779296875</ele>
        <time>2020-08-24T11:14:14.305Z</time>
      </trkpt>
      <trkpt lat="45.26336" lon="2.79266">
        <ele>971.68682861328</ele>
        <time>2020-08-24T11:14:26.580Z</time>
      </trkpt>
      <trkpt lat="45.2635" lon="2.79278">
        <ele>971.73834228516</ele>
        <time>2020-08-24T11:14:38.857Z</time>
      </trkpt>
      <trkpt lat="45.26403" lon="2.79369">
        <ele>967.84014892578</ele>
        <time>2020-08-24T11:14:51.148Z</time>
      </trkpt>
      <trkpt lat="45.26432" lon="2.79384">
        <ele>965.88336181641</ele>
        <time>2020-08-24T11:15:03.444Z</time>
      </trkpt>
      <trkpt lat="45.26432" lon="2.79384">
        <ele>965.88354492188</ele>
        <time>2020-08-24T11:15:15.740Z</time>
      </trkpt>
      <trkpt lat="45.26481" lon="2.79403">
        <ele>961.86254882812</ele>
        <time>2020-08-24T11:15:28.044Z</time>
      </trkpt>
      <trkpt lat="45.26554" lon="2.79483">
        <ele>950.30383300781</ele>
        <time>2020-08-24T11:15:40.363Z</time>
      </trkpt>
      <trkpt lat="45.26554" lon="2.79483">
        <ele>950.30541992188</ele>
        <time>2020-08-24T11:15:52.682Z</time>
      </trkpt>
      <trkpt lat="45.26566" lon="2.79484">
        <ele>948.00128173828</ele>
        <time>2020-08-24T11:16:05.003Z</time>
      </trkpt>
      <trkpt lat="45.26575" lon="2.79466">
        <ele>946.80413818359</ele>
        <time>2020-08-24T11:16:17.326Z</time>
      </trkpt>
      <trkpt lat="45.26593" lon="2.79393">
        <ele>947.59197998047</ele>
        <time>2020-08-24T11:16:29.658Z</time>
      </trkpt>
      <trkpt lat="45.26629" lon="2.79315">
        <ele>946.93157958984</ele>
        <time>2020-08-24T11:16:42.000Z</time>
      </trkpt>
      <trkpt lat="45.26688" lon="2.79242">
        <ele>941.21673583984</ele>
        <time>2020-08-24T11:16:54.355Z</time>
      </trkpt>
      <trkpt lat="45.26752" lon="2.79214">
        <ele>936.1123046875</ele>
        <time>2020-08-24T11:17:06.721Z</time>
      </trkpt>
      <trkpt lat="45.2679" lon="2.79176">
        <ele>935.21124267578</ele>
        <time>2020-08-24T11:17:19.094Z</time>
      </trkpt>
      <trkpt lat="45.26805" lon="2.79171">
        <ele>934.93249511719</ele>
        <time>2020-08-24T11:17:31.470Z</time>
      </trkpt>
      <trkpt lat="45.26915" lon="2.79175">
        <ele>930.56298828125</ele>
        <time>2020-08-24T11:17:43.863Z</time>
      </trkpt>
      <trkpt lat="45.26941" lon="2.79161">
        <ele>929.07208251953</ele>
        <time>2020-08-24T11:17:56.261Z</time>
      </trkpt>
      <trkpt lat="45.27047" lon="2.7903">
        <ele>929.50872802734</ele>
        <time>2020-08-24T11:18:08.681Z</time>
      </trkpt>
      <trkpt lat="45.27065" lon="2.79023">
        <ele>929.42926025391</ele>
        <time>2020-08-24T11:18:21.104Z</time>
      </trkpt>
      <trkpt lat="45.27089" lon="2.79033">
        <ele>927.88452148438</ele>
        <time>2020-08-24T11:18:33.531Z</time>
      </trkpt>
      <trkpt lat="45.27089" lon="2.79033">
        <ele>927.88452148438</ele>
        <time>2020-08-24T11:18:45.958Z</time>
      </trkpt>
      <trkpt lat="45.27124" lon="2.79042">
        <ele>926.64880371094</ele>
        <time>2020-08-24T11:18:58.391Z</time>
      </trkpt>
      <trkpt lat="45.27292" lon="2.79027">
        <ele>924.96417236328</ele>
        <time>2020-08-24T11:19:10.851Z</time>
      </trkpt>
      <trkpt lat="45.27359" lon="2.79031">
        <ele>916.17926025391</ele>
        <time>2020-08-24T11:19:23.322Z</time>
      </trkpt>
      <trkpt lat="45.2739" lon="2.79014">
        <ele>914.71179199219</ele>
        <time>2020-08-24T11:19:35.798Z</time>
      </trkpt>
      <trkpt lat="45.27418" lon="2.78983">
        <ele>914.12426757812</ele>
        <time>2020-08-24T11:19:48.280Z</time>
      </trkpt>
      <trkpt lat="45.27454" lon="2.789">
        <ele>917.08843994141</ele>
        <time>2020-08-24T11:20:00.773Z</time>
      </trkpt>
      <trkpt lat="45.27492" lon="2.78852">
        <ele>914.05065917969</ele>
        <time>2020-08-24T11:20:13.274Z</time>
      </trkpt>
      <trkpt lat="45.27576" lon="2.78779">
        <ele>912.92370605469</ele>
        <time>2020-08-24T11:20:25.791Z</time>
      </trkpt>
      <trkpt lat="45.27675" lon="2.78714">
        <ele>909.05743408203</ele>
        <time>2020-08-24T11:20:38.325Z</time>
      </trkpt>
      <trkpt lat="45.27695" lon="2.78709">
        <ele>907.16522216797</ele>
        <time>2020-08-24T11:20:50.862Z</time>
      </trkpt>
      <trkpt lat="45.27727" lon="2.78718">
        <ele>904.32446289062</ele>
        <time>2020-08-24T11:21:03.404Z</time>
      </trkpt>
      <trkpt lat="45.27757" lon="2.78712">
        <ele>903.81732177734</ele>
        <time>2020-08-24T11:21:15.951Z</time>
      </trkpt>
      <trkpt lat="45.27823" lon="2.7868">
        <ele>899.25305175781</ele>
        <time>2020-08-24T11:21:28.509Z</time>
      </trkpt>
      <trkpt lat="45.2786" lon="2.7873">
        <ele>899.1240234375</ele>
        <time>2020-08-24T11:21:41.075Z</time>
      </trkpt>
      <trkpt lat="45.27918" lon="2.78793">
        <ele>900.37860107422</ele>
        <time>2020-08-24T11:21:53.653Z</time>
      </trkpt>
      <trkpt lat="45.27939" lon="2.78819">
        <ele>901.30535888672</ele>
        <time>2020-08-24T11:22:06.236Z</time>
      </trkpt>
      <trkpt lat="45.27957" lon="2.78818">
        <ele>901.44128417969</ele>
        <time>2020-08-24T11:22:18.822Z</time>
      </trkpt>
      <trkpt lat="45.2801" lon="2.78815">
        <ele>900.87310791016</ele>
        <time>2020-08-24T11:22:31.416Z</time>
      </trkpt>
      <trkpt lat="45.28051" lon="2.78812">
        <ele>901.08233642578</ele>
        <time>2020-08-24T11:22:44.017Z</time>
      </trkpt>
      <trkpt lat="45.28053" lon="2.78812">
        <ele>901.44274902344</ele>
        <time>2020-08-24T11:22:56.618Z</time>
      </trkpt>
      <trkpt lat="45.28101" lon="2.78809">
        <ele>909.45849609375</ele>
        <time>2020-08-24T11:23:09.227Z</time>
      </trkpt>
      <trkpt lat="45.28118" lon="2.78797">
        <ele>909.62579345703</ele>
        <time>2020-08-24T11:23:21.839Z</time>
      </trkpt>
      <trkpt lat="45.28118" lon="2.78797">
        <ele>909.62512207031</ele>
        <time>2020-08-24T11:23:34.451Z</time>
      </trkpt>
      <trkpt lat="45.28184" lon="2.78582">
        <ele>905.23168945312</ele>
        <time>2020-08-24T11:23:47.089Z</time>
      </trkpt>
      <trkpt lat="45.28239" lon="2.78503">
        <ele>911.48492431641</ele>
        <time>2020-08-24T11:23:59.740Z</time>
      </trkpt>
      <trkpt lat="45.28278" lon="2.78274">
        <ele>905.31842041016</ele>
        <time>2020-08-24T11:24:12.417Z</time>
      </trkpt>
      <trkpt lat="45.28333" lon="2.78174">
        <ele>904.33563232422</ele>
        <time>2020-08-24T11:24:25.109Z</time>
      </trkpt>
      <trkpt lat="45.28354" lon="2.78115">
        <ele>902.11846923828</ele>
        <time>2020-08-24T11:24:37.808Z</time>
      </trkpt>
      <trkpt lat="45.2837" lon="2.78091">
        <ele>901.48773193359</ele>
        <time>2020-08-24T11:24:50.511Z</time>
      </trkpt>
      <trkpt lat="45.28465" lon="2.78014">
        <ele>898.74908447266</ele>
        <time>2020-08-24T11:25:03.231Z</time>
      </trkpt>
      <trkpt lat="45.28488" lon="2.78011">
        <ele>897.37811279297</ele>
        <time>2020-08-24T11:25:15.955Z</time>
      </trkpt>
      <trkpt lat="45.28525" lon="2.7803">
        <ele>900.49285888672</ele>
        <time>2020-08-24T11:25:28.685Z</time>
      </trkpt>
      <trkpt lat="45.28525" lon="2.7803">
        <ele>900.49328613281</ele>
        <time>2020-08-24T11:25:41.415Z</time>
      </trkpt>
      <trkpt lat="45.28572" lon="2.78055">
        <ele>907.50415039062</ele>
        <time>2020-08-24T11:25:54.153Z</time>
      </trkpt>
      <trkpt lat="45.28612" lon="2.78059">
        <ele>910.29632568359</ele>
        <time>2020-08-24T11:26:06.898Z</time>
      </trkpt>
      <trkpt lat="45.28666" lon="2.78047">
        <ele>915.04595947266</ele>
        <time>2020-08-24T11:26:19.652Z</time>
      </trkpt>
      <trkpt lat="45.28715" lon="2.78021">
        <ele>917.43438720703</ele>
        <time>2020-08-24T11:26:32.414Z</time>
      </trkpt>
      <trkpt lat="45.28767" lon="2.7794">
        <ele>916.28082275391</ele>
        <time>2020-08-24T11:26:45.188Z</time>
      </trkpt>
      <trkpt lat="45.28792" lon="2.77877">
        <ele>905.45977783203</ele>
        <time>2020-08-24T11:26:57.971Z</time>
      </trkpt>
      <trkpt lat="45.2882" lon="2.77832">
        <ele>892.68145751953</ele>
        <time>2020-08-24T11:27:10.760Z</time>
      </trkpt>
      <trkpt lat="45.28895" lon="2.77825">
        <ele>900.78936767578</ele>
        <time>2020-08-24T11:27:23.561Z</time>
      </trkpt>
      <trkpt lat="45.28981" lon="2.77784">
        <ele>911.70562744141</ele>
        <time>2020-08-24T11:27:36.377Z</time>
      </trkpt>
      <trkpt lat="45.29011" lon="2.77727">
        <ele>910.88061523438</ele>
        <time>2020-08-24T11:27:49.201Z</time>
      </trkpt>
      <trkpt lat="45.29043" lon="2.77594">
        <ele>900.04473876953</ele>
        <time>2020-08-24T11:28:02.041Z</time>
      </trkpt>
      <trkpt lat="45.2906" lon="2.77552">
        <ele>895.01446533203</ele>
        <time>2020-08-24T11:28:14.886Z</time>
      </trkpt>
      <trkpt lat="45.29096" lon="2.7751">
        <ele>894.81683349609</ele>
        <time>2020-08-24T11:28:27.739Z</time>
      </trkpt>
      <trkpt lat="45.2916" lon="2.77482">
        <ele>905.60418701172</ele>
        <time>2020-08-24T11:28:40.602Z</time>
      </trkpt>
      <trkpt lat="45.29172" lon="2.77456">
        <ele>901.94415283203</ele>
        <time>2020-08-24T11:28:53.469Z</time>
      </trkpt>
      <trkpt lat="45.29176" lon="2.7741">
        <ele>896.04858398438</ele>
        <time>2020-08-24T11:29:06.341Z</time>
      </trkpt>
      <trkpt lat="45.29205" lon="2.77358">
        <ele>897.07214355469</ele>
        <time>2020-08-24T11:29:19.221Z</time>
      </trkpt>
      <trkpt lat="45.29223" lon="2.77298">
        <ele>890.62811279297</ele>
        <time>2020-08-24T11:29:32.108Z</time>
      </trkpt>
      <trkpt lat="45.29229" lon="2.77218">
        <ele>878.27978515625</ele>
        <time>2020-08-24T11:29:45.004Z</time>
      </trkpt>
      <trkpt lat="45.29293" lon="2.77152">
        <ele>884.57611083984</ele>
        <time>2020-08-24T11:29:57.913Z</time>
      </trkpt>
      <trkpt lat="45.29416" lon="2.76986">
        <ele>867.61108398438</ele>
        <time>2020-08-24T11:30:10.849Z</time>
      </trkpt>
      <trkpt lat="45.29441" lon="2.76978">
        <ele>867.35498046875</ele>
        <time>2020-08-24T11:30:23.789Z</time>
      </trkpt>
      <trkpt lat="45.29472" lon="2.77001">
        <ele>872.60656738281</ele>
        <time>2020-08-24T11:30:36.735Z</time>
      </trkpt>
      <trkpt lat="45.2954" lon="2.77093">
        <ele>866.29138183594</ele>
        <time>2020-08-24T11:30:49.696Z</time>
      </trkpt>
      <trkpt lat="45.29616" lon="2.77174">
        <ele>860.54797363281</ele>
        <time>2020-08-24T11:31:02.672Z</time>
      </trkpt>
      <trkpt lat="45.29674" lon="2.77236">
        <ele>860.63116455078</ele>
        <time>2020-08-24T11:31:15.660Z</time>
      </trkpt>
      <trkpt lat="45.29717" lon="2.77252">
        <ele>857.64544677734</ele>
        <time>2020-08-24T11:31:28.655Z</time>
      </trkpt>
      <trkpt lat="45.29788" lon="2.77241">
        <ele>855.6630859375</ele>
        <time>2020-08-24T11:31:41.661Z</time>
      </trkpt>
      <trkpt lat="45.29884" lon="2.77175">
        <ele>843.31298828125</ele>
        <time>2020-08-24T11:31:54.684Z</time>
      </trkpt>
      <trkpt lat="45.29898" lon="2.77184">
        <ele>840.84143066406</ele>
        <time>2020-08-24T11:32:07.710Z</time>
      </trkpt>
      <trkpt lat="45.29915" lon="2.77218">
        <ele>838.79150390625</ele>
        <time>2020-08-24T11:32:20.740Z</time>
      </trkpt>
      <trkpt lat="45.29926" lon="2.77279">
        <ele>837.93902587891</ele>
        <time>2020-08-24T11:32:33.778Z</time>
      </trkpt>
      <trkpt lat="45.29914" lon="2.77358">
        <ele>840.87554931641</ele>
        <time>2020-08-24T11:32:46.825Z</time>
      </trkpt>
      <trkpt lat="45.29922" lon="2.77502">
        <ele>851.39093017578</ele>
        <time>2020-08-24T11:32:59.888Z</time>
      </trkpt>
      <trkpt lat="45.29946" lon="2.77526">
        <ele>859.55987548828</ele>
        <time>2020-08-24T11:33:12.956Z</time>
      </trkpt>
      <trkpt lat="45.29964" lon="2.77523">
        <ele>860.61743164062</ele>
        <time>2020-08-24T11:33:26.027Z</time>
      </trkpt>
      <trkpt lat="45.29981" lon="2.77509">
        <ele>861.48522949219</ele>
        <time>2020-08-24T11:33:39.101Z</time>
      </trkpt>
      <trkpt lat="45.30038" lon="2.77403">
        <ele>851.64312744141</ele>
        <time>2020-08-24T11:33:52.190Z</time>
      </trkpt>
      <trkpt lat="45.30109" lon="2.77313">
        <ele>836.78790283203</ele>
        <time>2020-08-24T11:34:05.294Z</time>
      </trkpt>
      <trkpt lat="45.3015" lon="2.77274">
        <ele>826.4462890625</ele>
        <time>2020-08-24T11:34:18.406Z</time>
      </trkpt>
      <trkpt lat="45.30197" lon="2.77266">
        <ele>824.87585449219</ele>
        <time>2020-08-24T11:34:31.526Z</time>
      </trkpt>
      <trkpt lat="45.30276" lon="2.77289">
        <ele>830.35498046875</ele>
        <time>2020-08-24T11:34:44.658Z</time>
      </trkpt>
      <trkpt lat="45.30305" lon="2.77271">
        <ele>832.0234375</ele>
        <time>2020-08-24T11:34:57.795Z</time>
      </trkpt>
      <trkpt lat="45.30314" lon="2.77244">
        <ele>837.29260253906</ele>
        <time>2020-08-24T11:35:10.936Z</time>
      </trkpt>
      <trkpt lat="45.3031" lon="2.77225">
        <ele>837.65301513672</ele>
        <time>2020-08-24T11:35:24.079Z</time>
      </trkpt>
      <trkpt lat="45.30283" lon="2.77192">
        <ele>830.09857177734</ele>
        <time>2020-08-24T11:35:37.228Z</time>
      </trkpt>
      <trkpt lat="45.30274" lon="2.77158">
        <ele>828.02307128906</ele>
        <time>2020-08-24T11:35:50.381Z</time>
      </trkpt>
      <trkpt lat="45.30321" lon="2.77034">
        <ele>830.92218017578</ele>
        <time>2020-08-24T11:36:03.550Z</time>
      </trkpt>
      <trkpt lat="45.30321" lon="2.77034">
        <ele>830.91833496094</ele>
        <time>2020-08-24T11:36:16.719Z</time>
      </trkpt>
      <trkpt lat="45.30343" lon="2.76972">
        <ele>830.67449951172</ele>
        <time>2020-08-24T11:36:29.896Z</time>
      </trkpt>
      <trkpt lat="45.30399" lon="2.76928">
        <ele>823.97296142578</ele>
        <time>2020-08-24T11:36:43.083Z</time>
      </trkpt>
      <trkpt lat="45.30451" lon="2.76898">
        <ele>832.1083984375</ele>
        <time>2020-08-24T11:36:56.279Z</time>
      </trkpt>
      <trkpt lat="45.30495" lon="2.76858">
        <ele>825.84039306641</ele>
        <time>2020-08-24T11:37:09.483Z</time>
      </trkpt>
      <trkpt lat="45.30531" lon="2.76772">
        <ele>817.83123779297</ele>
        <time>2020-08-24T11:37:22.699Z</time>
      </trkpt>
      <trkpt lat="45.30668" lon="2.76571">
        <ele>793.01928710938</ele>
        <time>2020-08-24T11:37:35.946Z</time>
      </trkpt>
      <trkpt lat="45.30688" lon="2.76567">
        <ele>792.68463134766</ele>
        <time>2020-08-24T11:37:49.196Z</time>
      </trkpt>
      <trkpt lat="45.30716" lon="2.76617">
        <ele>795.31579589844</ele>
        <time>2020-08-24T11:38:02.453Z</time>
      </trkpt>
      <trkpt lat="45.30774" lon="2.76672">
        <ele>796.32299804688</ele>
        <time>2020-08-24T11:38:15.722Z</time>
      </trkpt>
      <trkpt lat="45.30879" lon="2.76671">
        <ele>787.09814453125</ele>
        <time>2020-08-24T11:38:29.007Z</time>
      </trkpt>
      <trkpt lat="45.30998" lon="2.76756">
        <ele>790.90093994141</ele>
        <time>2020-08-24T11:38:42.314Z</time>
      </trkpt>
      <trkpt lat="45.31103" lon="2.76858">
        <ele>802.91540527344</ele>
        <time>2020-08-24T11:38:55.641Z</time>
      </trkpt>
      <trkpt lat="45.31138" lon="2.76851">
        <ele>799.03509521484</ele>
        <time>2020-08-24T11:39:08.974Z</time>
      </trkpt>
      <trkpt lat="45.31138" lon="2.76851">
        <ele>799.03515625</ele>
        <time>2020-08-24T11:39:22.307Z</time>
      </trkpt>
      <trkpt lat="45.31261" lon="2.76809">
        <ele>785.32641601562</ele>
        <time>2020-08-24T11:39:35.660Z</time>
      </trkpt>
      <trkpt lat="45.31278" lon="2.76815">
        <ele>784.51849365234</ele>
        <time>2020-08-24T11:39:49.016Z</time>
      </trkpt>
      <trkpt lat="45.31324" lon="2.76861">
        <ele>792.90570068359</ele>
        <time>2020-08-24T11:40:02.381Z</time>
      </trkpt>
      <trkpt lat="45.31341" lon="2.76853">
        <ele>790.65301513672</ele>
        <time>2020-08-24T11:40:15.749Z</time>
      </trkpt>
      <trkpt lat="45.31377" lon="2.76818">
        <ele>785.68157958984</ele>
        <time>2020-08-24T11:40:29.124Z</time>
      </trkpt>
      <trkpt lat="45.31407" lon="2.76809">
        <ele>787.259765625</ele>
        <time>2020-08-24T11:40:42.504Z</time>
      </trkpt>
      <trkpt lat="45.31428" lon="2.7682">
        <ele>788.28955078125</ele>
        <time>2020-08-24T11:40:55.887Z</time>
      </trkpt>
      <trkpt lat="45.31455" lon="2.76862">
        <ele>791.88958740234</ele>
        <time>2020-08-24T11:41:09.277Z</time>
      </trkpt>
      <trkpt lat="45.31474" lon="2.76862">
        <ele>795.33453369141</ele>
        <time>2020-08-24T11:41:22.670Z</time>
      </trkpt>
      <trkpt lat="45.31497" lon="2.7684">
        <ele>797.5751953125</ele>
        <time>2020-08-24T11:41:36.067Z</time>
      </trkpt>
      <trkpt lat="45.31544" lon="2.76769">
        <ele>788.47192382812</ele>
        <time>2020-08-24T11:41:49.475Z</time>
      </trkpt>
      <trkpt lat="45.31569" lon="2.76755">
        <ele>783.01348876953</ele>
        <time>2020-08-24T11:42:02.887Z</time>
      </trkpt>
      <trkpt lat="45.31634" lon="2.76768">
        <ele>783.44976806641</ele>
        <time>2020-08-24T11:42:16.310Z</time>
      </trkpt>
      <trkpt lat="45.31691" lon="2.76802">
        <ele>785.39782714844</ele>
        <time>2020-08-24T11:42:29.743Z</time>
      </trkpt>
      <trkpt lat="45.31751" lon="2.76853">
        <ele>797.69653320312</ele>
        <time>2020-08-24T11:42:43.187Z</time>
      </trkpt>
      <trkpt lat="45.31786" lon="2.76857">
        <ele>800.20666503906</ele>
        <time>2020-08-24T11:42:56.637Z</time>
      </trkpt>
      <trkpt lat="45.31849" lon="2.76822">
        <ele>787.6669921875</ele>
        <time>2020-08-24T11:43:10.097Z</time>
      </trkpt>
      <trkpt lat="45.31872" lon="2.76828">
        <ele>788.29718017578</ele>
        <time>2020-08-24T11:43:23.561Z</time>
      </trkpt>
      <trkpt lat="45.31945" lon="2.76876">
        <ele>794.73895263672</ele>
        <time>2020-08-24T11:43:37.038Z</time>
      </trkpt>
      <trkpt lat="45.32125" lon="2.76895">
        <ele>802.50909423828</ele>
        <time>2020-08-24T11:43:50.544Z</time>
      </trkpt>
      <trkpt lat="45.32161" lon="2.76921">
        <ele>806.33221435547</ele>
        <time>2020-08-24T11:44:04.056Z</time>
      </trkpt>
      <trkpt lat="45.32206" lon="2.76976">
        <ele>804.94415283203</ele>
        <time>2020-08-24T11:44:17.578Z</time>
      </trkpt>
      <trkpt lat="45.32217" lon="2.76997">
        <ele>804.09820556641</ele>
        <time>2020-08-24T11:44:31.103Z</time>
      </trkpt>
      <trkpt lat="45.3225" lon="2.77034">
        <ele>804.62609863281</ele>
        <time>2020-08-24T11:44:44.635Z</time>
      </trkpt>
      <trkpt lat="45.32287" lon="2.77048">
        <ele>803.71160888672</ele>
        <time>2020-08-24T11:44:58.173Z</time>
      </trkpt>
      <trkpt lat="45.32312" lon="2.77044">
        <ele>805.32946777344</ele>
        <time>2020-08-24T11:45:11.715Z</time>
      </trkpt>
      <trkpt lat="45.3245" lon="2.7699">
        <ele>812.53259277344</ele>
        <time>2020-08-24T11:45:25.280Z</time>
      </trkpt>
      <trkpt lat="45.32503" lon="2.76953">
        <ele>806.59912109375</ele>
        <time>2020-08-24T11:45:38.854Z</time>
      </trkpt>
      <trkpt lat="45.32552" lon="2.76952">
        <ele>806.00555419922</ele>
        <time>2020-08-24T11:45:52.436Z</time>
      </trkpt>
      <trkpt lat="45.32575" lon="2.76982">
        <ele>808.43774414062</ele>
        <time>2020-08-24T11:46:06.023Z</time>
      </trkpt>
      <trkpt lat="45.32738" lon="2.77011">
        <ele>803.11840820312</ele>
        <time>2020-08-24T11:46:19.636Z</time>
      </trkpt>
      <trkpt lat="45.32758" lon="2.77025">
        <ele>801.56085205078</ele>
        <time>2020-08-24T11:46:33.253Z</time>
      </trkpt>
      <trkpt lat="45.32826" lon="2.77109">
        <ele>802.59063720703</ele>
        <time>2020-08-24T11:46:46.884Z</time>
      </trkpt>
      <trkpt lat="45.32889" lon="2.77165">
        <ele>798.02966308594</ele>
        <time>2020-08-24T11:47:00.527Z</time>
      </trkpt>
      <trkpt lat="45.32934" lon="2.7717">
        <ele>794.60638427734</ele>
        <time>2020-08-24T11:47:14.177Z</time>
      </trkpt>
      <trkpt lat="45.32981" lon="2.77159">
        <ele>790.181640625</ele>
        <time>2020-08-24T11:47:27.835Z</time>
      </trkpt>
      <trkpt lat="45.3303" lon="2.77143">
        <ele>788.68640136719</ele>
        <time>2020-08-24T11:47:41.501Z</time>
      </trkpt>
      <trkpt lat="45.33063" lon="2.77133">
        <ele>786.65258789062</ele>
        <time>2020-08-24T11:47:55.172Z</time>
      </trkpt>
      <trkpt lat="45.33134" lon="2.77111">
        <ele>782.07354736328</ele>
        <time>2020-08-24T11:48:08.855Z</time>
      </trkpt>
      <trkpt lat="45.3316" lon="2.77107">
        <ele>777.646484375</ele>
        <time>2020-08-24T11:48:22.542Z</time>
      </trkpt>
      <trkpt lat="45.33208" lon="2.77119">
        <ele>774.36291503906</ele>
        <time>2020-08-24T11:48:36.237Z</time>
      </trkpt>
      <trkpt lat="45.33325" lon="2.77166">
        <ele>773.04809570312</ele>
        <time>2020-08-24T11:48:49.952Z</time>
      </trkpt>
      <trkpt lat="45.33357" lon="2.77167">
        <ele>773.22827148438</ele>
        <time>2020-08-24T11:49:03.672Z</time>
      </trkpt>
      <trkpt lat="45.33387" lon="2.77158">
        <ele>772.25775146484</ele>
        <time>2020-08-24T11:49:17.397Z</time>
      </trkpt>
      <trkpt lat="45.33414" lon="2.77145">
        <ele>771.04772949219</ele>
        <time>2020-08-24T11:49:31.126Z</time>
      </trkpt>
      <trkpt lat="45.33439" lon="2.77121">
        <ele>768.99914550781</ele>
        <time>2020-08-24T11:49:44.860Z</time>
      </trkpt>
      <trkpt lat="45.33507" lon="2.77018">
        <ele>753.27471923828</ele>
        <time>2020-08-24T11:49:58.610Z</time>
      </trkpt>
      <trkpt lat="45.33507" lon="2.77018">
        <ele>753.27368164062</ele>
        <time>2020-08-24T11:50:12.360Z</time>
      </trkpt>
      <trkpt lat="45.33545" lon="2.7696">
        <ele>749.85974121094</ele>
        <time>2020-08-24T11:50:26.119Z</time>
      </trkpt>
      <trkpt lat="45.33571" lon="2.76917">
        <ele>746.53265380859</ele>
        <time>2020-08-24T11:50:39.884Z</time>
      </trkpt>
      <trkpt lat="45.33583" lon="2.76882">
        <ele>745.96624755859</ele>
        <time>2020-08-24T11:50:53.654Z</time>
      </trkpt>
      <trkpt lat="45.33603" lon="2.7677">
        <ele>740.83227539062</ele>
        <time>2020-08-24T11:51:07.437Z</time>
      </trkpt>
      <trkpt lat="45.33614" lon="2.76746">
        <ele>738.36010742188</ele>
        <time>2020-08-24T11:51:21.223Z</time>
      </trkpt>
      <trkpt lat="45.33666" lon="2.76659">
        <ele>735.37554931641</ele>
        <time>2020-08-24T11:51:35.022Z</time>
      </trkpt>
      <trkpt lat="45.33689" lon="2.76599">
        <ele>732.14428710938</ele>
        <time>2020-08-24T11:51:48.829Z</time>
      </trkpt>
    </trkseg>
  </trk>
</gpx>